Provisional Data: Lackawanna River near Forest City, PA


Please select a monitoring station.
Please select start date.
Please select start date.

Toggle Unit: C/F Toggle Unit: C/F
Sample Time Temperature (C) Temperature (F) Specific Conductivity (mS/cm) pH   Turbidity (NTU+) DO (mg/L)
10/26/2020 12:00:00 AM 10.9 51.62 0.113 6.71 4.61 7.48
10/26/2020 12:15:00 AM 10.9 51.62 0.113 6.7 4.7 7.47
10/26/2020 12:30:00 AM 10.89 51.602 0.113 6.7 8.59 7.47
10/26/2020 12:45:00 AM 10.87 51.566 0.113 6.7 24.52 7.45
10/26/2020 1:00:00 AM 10.87 51.566 0.113 6.7 11.93 7.47
10/26/2020 1:15:00 AM 10.87 51.566 0.113 6.71 10.06 7.5
10/26/2020 1:30:00 AM 10.84 51.512 0.113 6.71 9.41 7.53
10/26/2020 1:45:00 AM 10.79 51.422 0.113 6.71 5.61 7.57
10/26/2020 2:00:00 AM 10.77 51.386 0.113 6.71 5.02 7.61
10/26/2020 2:15:00 AM 10.76 51.368 0.113 6.72 4.72 7.63
10/26/2020 2:30:00 AM 10.74 51.332 0.113 6.72 5.76 7.63
10/26/2020 2:45:00 AM 10.72 51.296 0.113 6.72 5.63 7.64
10/26/2020 3:00:00 AM 10.72 51.296 0.113 6.72 9.09 7.64
10/26/2020 3:15:00 AM 10.71 51.278 0.113 6.71 25.72 7.61
10/26/2020 3:30:00 AM 10.69 51.242 0.113 6.72 6.96 7.66
10/26/2020 3:45:00 AM 10.66 51.188 0.113 6.73 4.73 7.71
10/26/2020 4:00:00 AM 10.63 51.134 0.113 6.73 5.27 7.73
10/26/2020 4:15:00 AM 10.63 51.134 0.113 6.73 5.09 7.74
10/26/2020 4:30:00 AM 10.61 51.098 0.113 6.73 4.65 7.78
10/26/2020 4:45:00 AM 10.6 51.08 0.113 6.73 4.38 7.79
10/26/2020 5:00:00 AM 10.57 51.026 0.113 6.73 4.85 7.82
10/26/2020 5:15:00 AM 10.56 51.008 0.113 6.73 4.31 7.85
10/26/2020 5:30:00 AM 10.53 50.954 0.113 6.73 5.53 7.85
10/26/2020 5:45:00 AM 10.52 50.936 0.113 6.74 4.97 7.87
10/26/2020 6:00:00 AM 10.52 50.936 0.113 6.73 23.32 7.84
10/26/2020 6:15:00 AM 10.49 50.882 0.113 6.74 6.77 7.86
10/26/2020 6:30:00 AM 10.47 50.846 0.113 6.74 5.29 7.9
10/26/2020 6:45:00 AM 10.44 50.792 0.113 6.74 4.78 7.93
10/26/2020 7:00:00 AM 10.42 50.756 0.113 6.74 4.77 7.96
10/26/2020 7:15:00 AM 10.41 50.738 0.113 6.75 4.61 7.99
10/26/2020 7:30:00 AM 10.4 50.72 0.113 6.74 5 8
10/26/2020 7:45:00 AM 10.39 50.702 0.113 6.75 4.39 7.99
10/26/2020 8:00:00 AM 10.36 50.648 0.113 6.75 4.76 8.01
10/26/2020 8:15:00 AM 10.35 50.63 0.113 6.74 4.64 8.01
10/26/2020 8:30:00 AM 10.32 50.576 0.113 6.75 4.54 8.06
10/26/2020 8:45:00 AM 10.31 50.558 0.113 6.75 4.9 8.09
10/26/2020 9:00:00 AM 10.3 50.54 0.113 6.76 4.63 8.11
10/26/2020 9:15:00 AM 10.28 50.504 0.113 6.76 4.48 8.11
10/26/2020 9:30:00 AM 10.26 50.468 0.113 6.76 4.5 8.16
10/26/2020 9:45:00 AM 10.24 50.432 0.113 6.76 4.5 8.18
10/26/2020 10:00:00 AM 10.23 50.414 0.113 6.77 4.77 8.2
10/26/2020 10:15:00 AM 10.21 50.378 0.113 6.77 4.46 8.22
10/26/2020 10:30:00 AM 10.19 50.342 0.113 6.77 5.11 8.26
10/26/2020 10:45:00 AM 10.18 50.324 0.113 6.77 4.7 8.27
10/26/2020 11:00:00 AM 10.18 50.324 0.113 6.77 4.98 8.3
10/26/2020 11:15:00 AM 10.17 50.306 0.113 6.78 4.95 8.31
10/26/2020 11:30:00 AM 10.17 50.306 0.113 6.78 4.45 8.33
10/26/2020 11:45:00 AM 10.15 50.27 0.113 6.79 4.78 8.35
10/26/2020 12:00:00 PM 10.13 50.234 0.113 6.79 5.95 8.38
10/26/2020 12:15:00 PM 10.09 50.162 0.113 6.79 5.21 8.43
10/26/2020 12:30:00 PM 10.08 50.144 0.113 6.79 4.81 8.45
10/26/2020 12:45:00 PM 10.08 50.144 0.113 6.8 4.73 8.47
10/26/2020 1:00:00 PM 10.08 50.144 0.113 6.8 4.98 8.47
10/26/2020 1:15:00 PM 10.06 50.108 0.113 6.8 4.7 8.5
10/26/2020 1:30:00 PM 10.06 50.108 0.113 6.8 4.69 8.52
10/26/2020 1:45:00 PM 10.05 50.09 0.113 6.8 4.52 8.55
10/26/2020 2:00:00 PM 10.04 50.072 0.113 6.81 5.71 8.57
10/26/2020 2:15:00 PM 10.05 50.09 0.113 6.81 4.84 8.58
10/26/2020 2:30:00 PM 10.02 50.036 0.113 6.81 4.35 8.62
10/26/2020 2:45:00 PM 10.01 50.018 0.113 6.81 4.46 8.64
10/26/2020 3:00:00 PM 10.01 50.018 0.113 6.82 4.31 8.66
10/26/2020 3:15:00 PM 10.01 50.018 0.113 6.82 4.3 8.66
10/26/2020 3:30:00 PM 10 50 0.113 6.82 4.56 8.66
10/26/2020 3:45:00 PM 9.99 49.982 0.113 6.82 4.45 8.63
10/26/2020 4:00:00 PM 9.98 49.964 0.113 6.81 4.89 8.66
10/26/2020 4:15:00 PM 9.97 49.946 0.113 6.81 4.67 8.66
10/26/2020 4:30:00 PM 9.95 49.91 0.113 6.81 5.12 8.66
10/26/2020 4:45:00 PM 9.94 49.892 0.113 6.8 9.31 8.64
10/26/2020 5:00:00 PM 9.93 49.874 0.113 6.81 5.45 8.63
10/26/2020 5:15:00 PM 9.92 49.856 0.113 6.81 4.95 8.61
10/26/2020 5:30:00 PM 9.9 49.82 0.113 6.81 4.64 8.6
10/26/2020 5:45:00 PM 9.9 49.82 0.113 6.81 5.35 8.6
10/26/2020 6:00:00 PM 9.89 49.802 0.113 6.81 4.62 8.61
10/26/2020 6:15:00 PM 9.87 49.766 0.113 6.8 4.79 8.61
10/26/2020 6:30:00 PM 9.86 49.748 0.113 6.8 4.65 8.61
10/26/2020 6:45:00 PM 9.84 49.712 0.113 6.81 4.87 8.6
10/26/2020 7:00:00 PM 9.84 49.712 0.113 6.8 4.85 8.58
10/26/2020 7:15:00 PM 9.83 49.694 0.113 6.8 5.08 8.59
10/26/2020 7:30:00 PM 9.83 49.694 0.114 6.8 4.98 8.6
10/26/2020 7:45:00 PM 9.83 49.694 0.114 6.8 4.7 8.6
10/26/2020 8:00:00 PM 9.83 49.694 0.113 6.8 4.6 8.59
10/26/2020 8:15:00 PM 9.83 49.694 0.113 6.8 4.74 8.59
10/26/2020 8:30:00 PM 9.83 49.694 0.114 6.8 4.79 8.59
10/26/2020 8:45:00 PM 9.83 49.694 0.113 6.8 5.07 8.59
10/26/2020 9:00:00 PM 9.83 49.694 0.114 6.8 4.92 8.6
10/26/2020 9:15:00 PM 9.83 49.694 0.114 6.81 4.6 8.6
10/26/2020 9:30:00 PM 9.82 49.676 0.114 6.8 4.54 8.59
10/26/2020 9:45:00 PM 9.83 49.694 0.114 6.8 4.44 8.59
10/26/2020 10:00:00 PM 9.83 49.694 0.114 6.8 4.51 8.59
10/26/2020 10:15:00 PM 9.82 49.676 0.114 6.8 4.43 8.6
10/26/2020 10:30:00 PM 9.82 49.676 0.113 6.8 4.55 8.6
10/26/2020 10:45:00 PM 9.83 49.694 0.114 6.8 4.59 8.59
10/26/2020 11:00:00 PM 9.83 49.694 0.114 6.8 4.31 8.59
10/26/2020 11:15:00 PM 9.83 49.694 0.114 6.8 4.75 8.58
10/26/2020 11:30:00 PM 9.83 49.694 0.113 6.8 4.41 8.57
10/26/2020 11:45:00 PM 9.84 49.712 0.114 6.8 4.88 8.55
10/27/2020 12:00:00 AM 9.84 49.712 0.113 6.8 4.51 8.55
10/27/2020 12:15:00 AM 9.85 49.73 0.114 6.79 4.64 8.54
10/27/2020 12:30:00 AM 9.86 49.748 0.113 6.8 4.66 8.53
10/27/2020 12:45:00 AM 9.87 49.766 0.113 6.79 4.61 8.54
10/27/2020 1:00:00 AM 9.89 49.802 0.113 6.79 4.58 8.52
10/27/2020 1:15:00 AM 9.89 49.802 0.113 6.79 4.64 8.53
10/27/2020 1:30:00 AM 9.88 49.784 0.113 6.79 4.53 8.56
10/27/2020 1:45:00 AM 9.88 49.784 0.113 6.79 8.38 8.56
10/27/2020 2:00:00 AM 9.86 49.748 0.113 6.8 4.82 8.61
10/27/2020 2:15:00 AM 9.86 49.748 0.113 6.79 5.38 8.64
10/27/2020 2:30:00 AM 9.85 49.73 0.113 6.79 4.83 8.63
10/27/2020 2:45:00 AM 9.85 49.73 0.113 6.79 4.52 8.63
10/27/2020 3:00:00 AM 9.84 49.712 0.113 6.79 4.54 8.61
10/27/2020 3:15:00 AM 9.82 49.676 0.113 6.8 4.38 8.64
10/27/2020 3:30:00 AM 9.81 49.658 0.113 6.79 4.54 8.64
10/27/2020 3:45:00 AM 9.81 49.658 0.113 6.79 4.55 8.61
10/27/2020 4:00:00 AM 9.8 49.64 0.113 6.8 4.41 8.63
10/27/2020 4:15:00 AM 9.8 49.64 0.113 6.79 4.53 8.63
10/27/2020 4:30:00 AM 9.78 49.604 0.113 6.79 4.7 8.64
10/27/2020 4:45:00 AM 9.79 49.622 0.113 6.8 5 8.63
10/27/2020 5:00:00 AM 9.78 49.604 0.113 6.79 4.75 8.63
10/27/2020 5:15:00 AM 9.77 49.586 0.113 6.77 32.18 8.58
10/27/2020 5:30:00 AM 9.78 49.604 0.113 6.78 10.09 8.58
10/27/2020 5:45:00 AM 9.77 49.586 0.113 6.79 4.51 8.6
10/27/2020 6:00:00 AM 9.75 49.55 0.113 6.79 4.48 8.6
10/27/2020 6:15:00 AM 9.74 49.532 0.113 6.79 4.71 8.61
10/27/2020 6:30:00 AM 9.75 49.55 0.113 6.79 4.58 8.59
10/27/2020 6:45:00 AM 9.74 49.532 0.113 6.79 4.38 8.58
10/27/2020 7:00:00 AM 9.73 49.514 0.113 6.79 4.94 8.58
10/27/2020 7:15:00 AM 9.73 49.514 0.113 6.79 4.48 8.57
10/27/2020 7:30:00 AM 9.73 49.514 0.113 6.79 5.29 8.56
10/27/2020 7:45:00 AM 9.73 49.514 0.113 6.78 4.63 8.54
10/27/2020 8:00:00 AM 9.73 49.514 0.113 6.78 4.71 8.54
10/27/2020 8:15:00 AM 9.73 49.514 0.113 6.78 4.62 8.53
10/27/2020 8:30:00 AM 9.72 49.496 0.113 6.78 4.8 8.52
10/27/2020 8:45:00 AM 9.72 49.496 0.113 6.78 4.46 8.5
10/27/2020 9:00:00 AM 9.73 49.514 0.113 6.78 4.77 8.47
10/27/2020 9:15:00 AM 9.73 49.514 0.113 6.77 4.77 8.46
10/27/2020 9:30:00 AM 9.73 49.514 0.113 6.77 4.61 8.46
10/27/2020 9:45:00 AM 9.74 49.532 0.113 6.77 4.57 8.45
10/27/2020 10:00:00 AM 9.75 49.55 0.113 6.77 4.49 8.46
10/27/2020 10:15:00 AM 9.77 49.586 0.113 6.77 4.67 8.49
10/27/2020 10:30:00 AM 9.78 49.604 0.113 6.77 4.71 8.49
10/27/2020 10:45:00 AM 9.8 49.64 0.113 6.77 4.71 8.5
10/27/2020 11:00:00 AM 9.84 49.712 0.113 6.77 4.46 8.5
10/27/2020 11:15:00 AM 9.88 49.784 0.113 6.77 4.76 8.49
10/27/2020 11:30:00 AM 9.94 49.892 0.113 6.77 4.37 8.48
10/27/2020 11:45:00 AM 9.97 49.946 0.113 6.77 4.81 8.48
10/27/2020 12:00:00 PM 9.98 49.964 0.113 6.76 4.64 8.49
10/27/2020 12:15:00 PM 10 50 0.113 6.77 4.89 8.48
10/27/2020 12:30:00 PM 10.02 50.036 0.113 6.77 4.74 8.5
10/27/2020 12:45:00 PM 10.05 50.09 0.113 6.77 4.9 8.51
10/27/2020 1:00:00 PM 10.11 50.198 0.113 6.77 4.33 8.54
10/27/2020 1:15:00 PM 10.15 50.27 0.113 6.77 4.58 8.55
10/27/2020 1:30:00 PM 10.2 50.36 0.113 6.77 4.43 8.56
10/27/2020 1:45:00 PM 10.22 50.396 0.113 6.77 4.73 8.56
10/27/2020 2:00:00 PM 10.23 50.414 0.113 6.77 4.7 8.57
10/27/2020 2:15:00 PM 10.25 50.45 0.113 6.76 4.58 8.56
10/27/2020 2:30:00 PM 10.25 50.45 0.113 6.77 4.65 8.54
10/27/2020 2:45:00 PM 10.26 50.468 0.113 6.76 5.39 8.53
10/27/2020 3:00:00 PM 10.29 50.522 0.113 6.77 4.77 8.53
10/27/2020 3:15:00 PM 10.31 50.558 0.113 6.76 4.58 8.53
10/27/2020 3:30:00 PM 10.31 50.558 0.113 6.77 4.62 8.52
10/27/2020 3:45:00 PM 10.31 50.558 0.113 6.76 4.74 8.51
10/27/2020 4:00:00 PM 10.32 50.576 0.113 6.76 4.51 8.51
10/27/2020 4:15:00 PM 10.33 50.594 0.113 6.76 4.79 8.51
10/27/2020 4:30:00 PM 10.35 50.63 0.113 6.77 4.69 8.55
10/27/2020 4:45:00 PM 10.37 50.666 0.113 6.77 4.59 8.61
10/27/2020 5:00:00 PM 10.37 50.666 0.113 6.77 4.65 8.62
10/27/2020 5:15:00 PM 10.37 50.666 0.113 6.77 4.66 8.61
10/27/2020 5:30:00 PM 10.37 50.666 0.113 6.77 4.59 8.6
10/27/2020 5:45:00 PM 10.36 50.648 0.113 6.77 4.84 8.59
10/27/2020 6:00:00 PM 10.36 50.648 0.113 6.77 4.69 8.58
10/27/2020 6:15:00 PM 10.36 50.648 0.113 6.76 4.76 8.56
10/27/2020 6:30:00 PM 10.35 50.63 0.113 6.76 4.58 8.56
10/27/2020 6:45:00 PM 10.35 50.63 0.113 6.76 4.63 8.55
10/27/2020 7:00:00 PM 10.35 50.63 0.113 6.76 4.62 8.53
10/27/2020 7:15:00 PM 10.35 50.63 0.113 6.76 5.41 8.52
10/27/2020 7:30:00 PM 10.35 50.63 0.113 6.76 4.78 8.49
10/27/2020 7:45:00 PM 10.35 50.63 0.113 6.75 4.8 8.48
10/27/2020 8:00:00 PM 10.34 50.612 0.113 6.76 4.64 8.46
10/27/2020 8:15:00 PM 10.34 50.612 0.113 6.76 4.58 8.46
10/27/2020 8:30:00 PM 10.33 50.594 0.113 6.75 4.57 8.47
10/27/2020 8:45:00 PM 10.33 50.594 0.113 6.75 4.77 8.46
10/27/2020 9:00:00 PM 10.33 50.594 0.113 6.75 4.62 8.43
10/27/2020 9:15:00 PM 10.33 50.594 0.113 6.75 4.77 8.42
10/27/2020 9:30:00 PM 10.32 50.576 0.113 6.75 4.69 8.42
10/27/2020 9:45:00 PM 10.32 50.576 0.113 6.74 4.69 8.4
10/27/2020 10:00:00 PM 10.32 50.576 0.113 6.74 4.61 8.39
10/27/2020 10:15:00 PM 10.32 50.576 0.113 6.74 4.66 8.38
10/27/2020 10:30:00 PM 10.31 50.558 0.113 6.74 9.65 8.34
10/27/2020 10:45:00 PM 10.32 50.576 0.113 6.72 40.27 8.27
10/27/2020 11:00:00 PM 10.31 50.558 0.113 6.74 18.51 8.27
10/27/2020 11:15:00 PM 10.32 50.576 0.113 6.73 17.31 8.25
10/27/2020 11:30:00 PM 10.32 50.576 0.113 6.73 9.12 8.26
10/27/2020 11:45:00 PM 10.31 50.558 0.113 6.74 6.52 8.28
10/28/2020 12:00:00 AM 10.31 50.558 0.113 6.73 6.6 8.25
10/28/2020 12:15:00 AM 10.31 50.558 0.113 6.73 6.43 8.24
10/28/2020 12:30:00 AM 10.31 50.558 0.113 6.73 5.9 8.24
10/28/2020 12:45:00 AM 10.3 50.54 0.113 6.73 5.53 8.24
10/28/2020 1:00:00 AM 10.3 50.54 0.113 6.73 5.23 8.23
10/28/2020 1:15:00 AM 10.3 50.54 0.113 6.72 5.43 8.22
10/28/2020 1:30:00 AM 10.31 50.558 0.114 6.72 5.57 8.21
10/28/2020 1:45:00 AM 10.31 50.558 0.114 6.72 5.25 8.21
10/28/2020 2:00:00 AM 10.31 50.558 0.114 6.72 5.08 8.2
10/28/2020 2:15:00 AM 10.31 50.558 0.114 6.72 5.72 8.19
10/28/2020 2:30:00 AM 10.31 50.558 0.114 6.72 5.03 8.2
10/28/2020 2:45:00 AM 10.31 50.558 0.114 6.73 5.12 8.2
10/28/2020 3:00:00 AM 10.31 50.558 0.114 6.72 5.9 8.2
10/28/2020 3:15:00 AM 10.31 50.558 0.113 6.72 5.73 8.2
10/28/2020 3:30:00 AM 10.31 50.558 0.113 6.72 5.47 8.2
10/28/2020 3:45:00 AM 10.31 50.558 0.113 6.72 5.14 8.2
10/28/2020 4:00:00 AM 10.31 50.558 0.113 6.72 5.17 8.21
10/28/2020 4:15:00 AM 10.32 50.576 0.113 6.72 4.84 8.2
10/28/2020 4:30:00 AM 10.32 50.576 0.113 6.72 5.06 8.2
10/28/2020 4:45:00 AM 10.31 50.558 0.113 6.72 5.63 8.22
10/28/2020 5:00:00 AM 10.31 50.558 0.113 6.72 13.54 8.18
10/28/2020 5:15:00 AM 10.31 50.558 0.113 6.72 7.79 8.19
10/28/2020 5:30:00 AM 10.31 50.558 0.113 6.72 5.1 8.19
10/28/2020 5:45:00 AM 10.31 50.558 0.113 6.72 5.43 8.19
10/28/2020 6:00:00 AM 10.31 50.558 0.113 6.72 4.86 8.18
10/28/2020 6:15:00 AM 10.31 50.558 0.113 6.71 4.7 8.17
10/28/2020 6:30:00 AM 10.3 50.54 0.113 6.71 4.84 8.19
10/28/2020 6:45:00 AM 10.3 50.54 0.113 6.71 4.91 8.19
10/28/2020 7:00:00 AM 10.29 50.522 0.113 6.71 4.91 8.2
10/28/2020 7:15:00 AM 10.29 50.522 0.113 6.72 4.92 8.18
10/28/2020 7:30:00 AM 10.29 50.522 0.113 6.72 4.89 8.18
10/28/2020 7:45:00 AM 10.28 50.504 0.113 6.72 5.14 8.18
10/28/2020 8:00:00 AM 10.28 50.504 0.113 6.71 4.84 8.17
10/28/2020 8:15:00 AM 10.27 50.486 0.113 6.71 5.06 8.17
10/28/2020 8:30:00 AM 10.27 50.486 0.113 6.71 4.82 8.17
10/28/2020 8:45:00 AM 10.27 50.486 0.113 6.71 4.82 8.16
10/28/2020 9:00:00 AM 10.27 50.486 0.113 6.71 4.88 8.17
10/28/2020 9:15:00 AM 10.27 50.486 0.113 6.71 4.89 8.17
10/28/2020 9:30:00 AM 10.27 50.486 0.113 6.71 4.79 8.18
10/28/2020 9:45:00 AM 10.26 50.468 0.113 6.71 4.77 8.18
10/28/2020 10:00:00 AM 10.27 50.486 0.113 6.71 4.88 8.2
10/28/2020 10:15:00 AM 10.27 50.486 0.113 6.71 4.69 8.21
10/28/2020 10:30:00 AM 10.28 50.504 0.113 6.71 4.6 8.22
10/28/2020 10:45:00 AM 10.29 50.522 0.113 6.72 4.91 8.24
10/28/2020 11:00:00 AM 10.3 50.54 0.113 6.72 4.71 8.27
10/28/2020 11:15:00 AM 10.31 50.558 0.113 6.72 4.72 8.27
10/28/2020 11:30:00 AM 10.32 50.576 0.113 6.72 4.9 8.26
10/28/2020 11:45:00 AM 10.32 50.576 0.113 6.71 5.14 8.27
10/28/2020 12:00:00 PM 10.33 50.594 0.113 6.72 5.01 8.28
10/28/2020 12:15:00 PM 10.34 50.612 0.113 6.72 4.77 8.28
10/28/2020 12:30:00 PM 10.34 50.612 0.113 6.72 4.89 8.29
10/28/2020 12:45:00 PM 10.36 50.648 0.113 6.73 5.44 8.31
10/28/2020 1:00:00 PM 10.38 50.684 0.113 6.73 4.87 8.35
10/28/2020 1:15:00 PM 10.39 50.702 0.113 6.73 4.92 8.37
10/28/2020 1:30:00 PM 10.4 50.72 0.113 6.73 5.01 8.4
10/28/2020 1:45:00 PM 10.41 50.738 0.113 6.73 4.88 8.42
10/28/2020 2:00:00 PM 10.41 50.738 0.113 6.74 4.94 8.44
10/28/2020 2:15:00 PM 10.43 50.774 0.113 6.74 5.26 8.47
10/28/2020 2:30:00 PM 10.44 50.792 0.113 6.74 4.9 8.49
10/28/2020 2:45:00 PM 10.46 50.828 0.113 6.75 4.79 8.54
10/28/2020 3:00:00 PM 10.46 50.828 0.113 6.75 4.9 8.56
10/28/2020 3:15:00 PM 10.47 50.846 0.113 6.75 4.81 8.56
10/28/2020 3:30:00 PM 10.48 50.864 0.113 6.75 4.78 8.55
10/28/2020 3:45:00 PM 10.49 50.882 0.113 6.75 4.82 8.57
10/28/2020 4:00:00 PM 10.51 50.918 0.113 6.75 4.79 8.58
10/28/2020 4:15:00 PM 10.51 50.918 0.113 6.76 4.98 8.63
10/28/2020 4:30:00 PM 10.5 50.9 0.113 6.76 5.13 8.64
10/28/2020 4:45:00 PM 10.5 50.9 0.113 6.75 5.32 8.63
10/28/2020 5:00:00 PM 10.5 50.9 0.113 6.75 5.35 8.62
10/28/2020 5:15:00 PM 10.49 50.882 0.113 6.76 5.03 8.63
10/28/2020 5:30:00 PM 10.5 50.9 0.113 6.76 5.18 8.61
10/28/2020 5:45:00 PM 10.49 50.882 0.113 6.76 5.21 8.63
10/28/2020 6:00:00 PM 10.49 50.882 0.113 6.76 5.92 8.64
10/28/2020 6:15:00 PM 10.47 50.846 0.113 6.76 5.11 8.64
10/28/2020 6:30:00 PM 10.46 50.828 0.113 6.76 4.91 8.59
10/28/2020 6:45:00 PM 10.44 50.792 0.113 6.76 4.8 8.56
10/28/2020 7:00:00 PM 10.43 50.774 0.112 6.76 5.03 8.54
10/28/2020 7:15:00 PM 10.42 50.756 0.112 6.7 5.31 8.52
10/28/2020 7:30:00 PM 10.42 50.756 0.11 6.71 4.82 8.52
10/28/2020 7:45:00 PM 10.41 50.738 0.106 6.72 4.97 8.43
10/28/2020 8:00:00 PM 10.4 50.72 0.097 6.72 5.01 8.41
10/28/2020 8:15:00 PM 10.4 50.72 0.094 6.72 4.91 8.38
10/28/2020 8:30:00 PM 10.39 50.702 0.091 6.72 5.02 8.33
10/28/2020 8:45:00 PM 10.38 50.684 0.091 6.72 4.75 8.34
10/28/2020 9:00:00 PM 10.38 50.684 0.088 6.72 4.87 8.39
10/28/2020 9:15:00 PM 10.37 50.666 0.113 6.73 5.81 8.47
10/28/2020 9:30:00 PM 10.37 50.666 0.113 6.72 5.11 8.45
10/28/2020 9:45:00 PM 10.35 50.63 0.113 6.73 5.04 8.45
10/28/2020 10:00:00 PM 10.34 50.612 0.113 6.73 5.31 8.42
10/28/2020 10:15:00 PM 10.33 50.594 0.113 6.73 6.52 8.42
10/28/2020 10:30:00 PM 10.32 50.576 0.113 6.73 5.37 8.4
10/28/2020 10:45:00 PM 10.32 50.576 0.113 6.73 5.17 8.39
10/28/2020 11:00:00 PM 10.31 50.558 0.113 6.73 4.98 8.37
10/28/2020 11:15:00 PM 10.3 50.54 0.113 6.73 6.26 8.36
10/28/2020 11:30:00 PM 10.29 50.522 0.112 6.71 5.91 8.37
10/28/2020 11:45:00 PM 10.28 50.504 0.112 6.72 6.11 8.35
10/29/2020 12:00:00 AM 10.27 50.486 0.112 6.72 5.4 8.35
10/29/2020 12:15:00 AM 10.26 50.468 0.112 6.72 5.13 8.34
10/29/2020 12:30:00 AM 10.26 50.468 0.112 6.72 5.01 8.33
10/29/2020 12:45:00 AM 10.26 50.468 0.112 6.72 4.98 8.33
10/29/2020 1:00:00 AM 10.26 50.468 0.112 6.72 5.4 8.33
10/29/2020 1:15:00 AM 10.25 50.45 0.112 6.72 5.18 8.33
10/29/2020 1:30:00 AM 10.25 50.45 0.112 6.72 5.35 8.33
10/29/2020 1:45:00 AM 10.25 50.45 0.112 6.72 4.92 8.33
10/29/2020 2:00:00 AM 10.25 50.45 0.112 6.72 4.54 8.34
10/29/2020 2:15:00 AM 10.25 50.45 0.112 6.72 4.82 8.35
10/29/2020 2:30:00 AM 10.25 50.45 0.112 6.72 4.87 8.35
10/29/2020 2:45:00 AM 10.25 50.45 0.112 6.72 4.85 8.36
10/29/2020 3:00:00 AM 10.25 50.45 0.112 6.72 5.39 8.36
10/29/2020 3:15:00 AM 10.25 50.45 0.112 6.72 5.2 8.35
10/29/2020 3:30:00 AM 10.25 50.45 0.112 6.72 5.87 8.34
10/29/2020 3:45:00 AM 10.25 50.45 0.112 6.72 5.16 8.34
10/29/2020 4:00:00 AM 10.26 50.468 0.112 6.72 5.48 8.33
10/29/2020 4:15:00 AM 10.25 50.45 0.112 6.72 5.31 8.33
10/29/2020 4:30:00 AM 10.25 50.45 0.112 6.72 5.15 8.31
10/29/2020 4:45:00 AM 10.25 50.45 0.112 6.72 4.85 8.31
10/29/2020 5:00:00 AM 10.25 50.45 0.112 6.72 5.41 8.3
10/29/2020 5:15:00 AM 10.24 50.432 0.112 6.72 5.38 8.29
10/29/2020 5:30:00 AM 10.24 50.432 0.112 6.71 5.35 8.29
10/29/2020 5:45:00 AM 10.24 50.432 0.112 6.71 5.13 8.27
10/29/2020 6:00:00 AM 10.24 50.432 0.112 6.71 5.01 8.26
10/29/2020 6:15:00 AM 10.23 50.414 0.112 6.71 5 8.26
10/29/2020 6:30:00 AM 10.23 50.414 0.112 6.7 4.71 8.26
10/29/2020 6:45:00 AM 10.23 50.414 0.112 6.71 4.76 8.26
10/29/2020 7:00:00 AM 10.22 50.396 0.112 6.71 4.89 8.26
10/29/2020 7:15:00 AM 10.21 50.378 0.112 6.7 4.94 8.25
10/29/2020 7:30:00 AM 10.21 50.378 0.112 6.71 4.74 8.23
10/29/2020 7:45:00 AM 10.19 50.342 0.112 6.7 4.77 8.22
10/29/2020 8:00:00 AM 10.18 50.324 0.112 6.7 4.79 8.2
10/29/2020 8:15:00 AM 10.17 50.306 0.112 6.7 4.92 8.19
10/29/2020 8:30:00 AM 10.16 50.288 0.112 6.7 4.77 8.18
10/29/2020 8:45:00 AM 10.16 50.288 0.112 6.7 5.02 8.16
10/29/2020 9:00:00 AM 10.14 50.252 0.112 6.7 5.42 8.15
10/29/2020 9:15:00 AM 10.12 50.216 0.112 6.69 5.12 8.14
10/29/2020 9:30:00 AM 10.11 50.198 0.112 6.69 5.45 8.13
10/29/2020 9:45:00 AM 10.08 50.144 0.112 6.69 5.32 8.13
10/29/2020 10:00:00 AM 10.05 50.09 0.112 6.69 5.52 8.14
10/29/2020 10:15:00 AM 10.04 50.072 0.112 6.69 5.14 8.13
10/29/2020 10:30:00 AM 10.03 50.054 0.113 6.69 5.21 8.09
10/29/2020 10:45:00 AM 10.02 50.036 0.113 6.69 5.18 8.09
10/29/2020 11:00:00 AM 10.01 50.018 0.113 6.69 5.23 8.08
10/29/2020 11:15:00 AM 10 50 0.113 6.69 5.23 8.07
10/29/2020 11:30:00 AM 9.98 49.964 0.113 6.69 4.9 8.06
10/29/2020 11:45:00 AM 9.97 49.946 0.113 6.69 4.86 8.07
10/29/2020 12:00:00 PM 9.96 49.928 0.113 6.69 4.99 8.08
10/29/2020 12:15:00 PM 9.95 49.91 0.113 6.69 4.89 8.1
10/29/2020 12:30:00 PM 9.94 49.892 0.113 6.69 5.36 8.05
10/29/2020 12:45:00 PM 9.93 49.874 0.113 6.69 5.02 8.04
10/29/2020 1:00:00 PM 9.92 49.856 0.113 6.69 5.07 8.06
10/29/2020 1:15:00 PM 9.91 49.838 0.113 6.68 4.94 8.04
10/29/2020 1:30:00 PM 9.9 49.82 0.112 6.68 4.85 8.05
10/29/2020 1:45:00 PM 9.89 49.802 0.112 6.69 4.88 8.07
10/29/2020 2:00:00 PM 9.88 49.784 0.112 6.69 4.94 8.08
10/29/2020 2:15:00 PM 9.87 49.766 0.112 6.69 5.03 8.13
10/29/2020 2:30:00 PM 9.86 49.748 0.112 6.7 5.04 8.17
10/29/2020 2:45:00 PM 9.85 49.73 0.112 6.7 4.93 8.2
10/29/2020 3:00:00 PM 9.84 49.712 0.112 6.7 4.9 8.21
10/29/2020 3:15:00 PM 9.83 49.694 0.112 6.71 5.16 8.25
10/29/2020 3:30:00 PM 9.82 49.676 0.112 6.71 5.06 8.27
10/29/2020 3:45:00 PM 9.81 49.658 0.112 6.71 5.28 8.3
10/29/2020 4:00:00 PM 9.8 49.64 0.112 6.72 5.01 8.35
10/29/2020 4:15:00 PM 9.78 49.604 0.112 6.72 5.02 8.4
10/29/2020 4:30:00 PM 9.76 49.568 0.112 6.73 4.88 8.45
10/29/2020 4:45:00 PM 9.74 49.532 0.111 6.73 4.79 8.47
10/29/2020 5:00:00 PM 9.73 49.514 0.111 6.73 4.69 8.51
10/29/2020 5:15:00 PM 9.71 49.478 0.111 6.74 4.75 8.56
10/29/2020 5:30:00 PM 9.69 49.442 0.111 6.74 4.64 8.6
10/29/2020 5:45:00 PM 9.68 49.424 0.111 6.74 4.74 8.65
10/29/2020 6:00:00 PM 9.66 49.388 0.111 6.75 4.64 8.68
10/29/2020 6:15:00 PM 9.66 49.388 0.111 6.75 4.51 8.72
10/29/2020 6:30:00 PM 9.64 49.352 0.111 6.76 4.57 8.75
10/29/2020 6:45:00 PM 9.63 49.334 0.11 6.76 4.74 8.8
10/29/2020 7:00:00 PM 9.63 49.334 0.11 6.77 4.63 8.86
10/29/2020 7:15:00 PM 9.63 49.334 0.11 6.78 4.42 8.91
10/29/2020 7:30:00 PM 9.62 49.316 0.11 6.78 4.61 8.93
10/29/2020 7:45:00 PM 9.62 49.316 0.11 6.78 4.78 8.92
10/29/2020 8:00:00 PM 9.61 49.298 0.11 6.78 4.53 8.94
10/29/2020 8:15:00 PM 9.61 49.298 0.11 6.78 4.32 8.95
10/29/2020 8:30:00 PM 9.61 49.298 0.11 6.78 4.47 8.95
10/29/2020 8:45:00 PM 9.61 49.298 0.11 6.78 4.26 8.96
10/29/2020 9:00:00 PM 9.61 49.298 0.11 6.78 4.33 8.95
10/29/2020 9:15:00 PM 9.62 49.316 0.11 6.78 4.41 8.95
10/29/2020 9:30:00 PM 9.61 49.298 0.11 6.78 4.72 8.95
10/29/2020 9:45:00 PM 9.61 49.298 0.11 6.78 4.45 8.95
10/29/2020 10:00:00 PM 9.61 49.298 0.11 6.78 4.49 8.94
10/29/2020 10:15:00 PM 9.61 49.298 0.11 6.78 4.53 8.94
10/29/2020 10:30:00 PM 9.61 49.298 0.11 6.78 4.36 8.93
10/29/2020 10:45:00 PM 9.6 49.28 0.11 6.77 4.46 8.93
10/29/2020 11:00:00 PM 9.6 49.28 0.11 6.77 4.52 8.92
10/29/2020 11:15:00 PM 9.6 49.28 0.11 6.77 4.36 8.91
10/29/2020 11:30:00 PM 9.6 49.28 0.11 6.77 4.38 8.9
10/29/2020 11:45:00 PM 9.59 49.262 0.109 6.76 4.49 8.88
10/30/2020 12:00:00 AM 9.59 49.262 0.109 6.76 4.66 8.88
10/30/2020 12:15:00 AM 9.58 49.244 0.109 6.77 4.76 8.85
10/30/2020 12:30:00 AM 9.58 49.244 0.109 6.77 4.65 8.83
10/30/2020 12:45:00 AM 9.57 49.226 0.109 6.77 4.9 8.83
10/30/2020 1:00:00 AM 9.56 49.208 0.109 6.75 4.81 8.81
10/30/2020 1:15:00 AM 9.54 49.172 0.109 6.76 4.52 8.8
10/30/2020 1:30:00 AM 9.54 49.172 0.109 6.76 4.73 8.78
10/30/2020 1:45:00 AM 9.53 49.154 0.109 6.75 4.58 8.78
10/30/2020 2:00:00 AM 9.51 49.118 0.109 6.75 4.71 8.78
10/30/2020 2:15:00 AM 9.5 49.1 0.109 6.75 4.69 8.77
10/30/2020 2:30:00 AM 9.48 49.064 0.109 6.76 4.59 8.76
10/30/2020 2:45:00 AM 9.46 49.028 0.109 6.75 4.55 8.77
10/30/2020 3:00:00 AM 9.44 48.992 0.109 6.75 4.66 8.75
10/30/2020 3:15:00 AM 9.43 48.974 0.108 6.74 4.84 8.74
10/30/2020 3:30:00 AM 9.41 48.938 0.108 6.74 4.64 8.72
10/30/2020 3:45:00 AM 9.39 48.902 0.108 6.75 4.65 8.73
10/30/2020 4:00:00 AM 9.37 48.866 0.108 6.74 4.82 8.73
10/30/2020 4:15:00 AM 9.35 48.83 0.108 6.75 4.88 8.73
10/30/2020 4:30:00 AM 9.33 48.794 0.108 6.74 4.69 8.72
10/30/2020 4:45:00 AM 9.3 48.74 0.108 6.74 4.65 8.71
10/30/2020 5:00:00 AM 9.27 48.686 0.108 6.74 4.75 8.71
10/30/2020 5:15:00 AM 9.24 48.632 0.108 6.73 5.1 8.7
10/30/2020 5:30:00 AM 9.2 48.56 0.108 6.73 5.01 8.69
10/30/2020 5:45:00 AM 9.16 48.488 0.108 6.74 5.09 8.7
10/30/2020 6:00:00 AM 9.11 48.398 0.108 6.74 5.06 8.68
10/30/2020 6:15:00 AM 9.07 48.326 0.108 6.73 4.95 8.68
10/30/2020 6:30:00 AM 9.02 48.236 0.108 6.72 5.18 8.68
10/30/2020 6:45:00 AM 8.96 48.128 0.108 6.73 5.05 8.67
10/30/2020 7:00:00 AM 8.89 48.002 0.108 6.73 4.94 8.68
10/30/2020 7:15:00 AM 8.85 47.93 0.108 6.73 4.97 8.68
10/30/2020 7:30:00 AM 8.78 47.804 0.108 6.73 5.08 8.71
10/30/2020 7:45:00 AM 8.73 47.714 0.107 6.72 4.91 8.71
10/30/2020 8:00:00 AM 8.65 47.57 0.107 6.72 5 8.74
10/30/2020 8:15:00 AM 8.59 47.462 0.107 6.74 4.84 8.78
10/30/2020 8:30:00 AM 8.51 47.318 0.107 6.73 4.97 8.83
10/30/2020 8:45:00 AM 8.45 47.21 0.106 6.73 4.77 8.86
10/30/2020 9:00:00 AM 8.39 47.102 0.106 6.73 4.92 8.89
10/30/2020 9:15:00 AM 8.33 46.994 0.106 6.75 4.71 8.93
10/30/2020 9:30:00 AM 8.28 46.904 0.105 6.74 4.79 8.95
10/30/2020 9:45:00 AM 8.23 46.814 0.105 6.73 4.84 8.97
10/30/2020 10:00:00 AM 8.19 46.742 0.105 6.73 4.85 9
10/30/2020 10:15:00 AM 8.17 46.706 0.105 6.74 4.72 9.03
10/30/2020 10:30:00 AM 8.14 46.652 0.104 6.75 4.82 9.09
10/30/2020 10:45:00 AM 8.13 46.634 0.104 6.75 5.55 9.14
10/30/2020 11:00:00 AM 8.12 46.616 0.104 6.75 4.63 9.2
10/30/2020 11:15:00 AM 8.11 46.598 0.104 6.76 4.81 9.26
10/30/2020 11:30:00 AM 8.11 46.598 0.104 6.77 4.57 9.33
10/30/2020 11:45:00 AM 8.12 46.616 0.104 6.78 4.74 9.4
10/30/2020 12:00:00 PM 8.14 46.652 0.103 6.78 5.74 9.48
10/30/2020 12:15:00 PM 8.15 46.67 0.103 6.78 4.59 9.57
10/30/2020 12:30:00 PM 8.17 46.706 0.103 6.8 4.5 9.65
10/30/2020 12:45:00 PM 8.18 46.724 0.103 6.8 4.48 9.71
10/30/2020 1:00:00 PM 8.19 46.742 0.103 6.81 4.55 9.78
10/30/2020 1:15:00 PM 8.2 46.76 0.102 6.81 4.5 9.85
10/30/2020 1:30:00 PM 8.19 46.742 0.102 6.83 4.9 9.95
10/30/2020 1:45:00 PM 8.19 46.742 0.101 6.83 4.44 10.02
10/30/2020 2:00:00 PM 8.18 46.724 0.101 6.82 5.42 10.09
10/30/2020 2:15:00 PM 8.18 46.724 0.101 6.83 4.56 10.13
10/30/2020 2:30:00 PM 8.18 46.724 0.1 6.82 4.62 10.21
10/30/2020 2:45:00 PM 8.16 46.688 0.1 6.83 4.49 10.26
10/30/2020 3:00:00 PM 8.15 46.67 0.1 6.84 4.62 10.32
10/30/2020 3:15:00 PM 8.14 46.652 0.1 6.84 4.47 10.38
10/30/2020 3:30:00 PM 8.13 46.634 0.1 6.83 4.49 10.41
10/30/2020 3:45:00 PM 8.12 46.616 0.1 6.83 4.63 10.45
10/30/2020 4:00:00 PM 8.09 46.562 0.1 6.83 4.55 10.49
10/30/2020 4:15:00 PM 8.08 46.544 0.099 6.85 4.63 10.53
10/30/2020 4:30:00 PM 8.07 46.526 0.1 6.87 4.64 10.56
10/30/2020 4:45:00 PM 8.06 46.508 0.1 6.86 4.57 10.6
10/30/2020 5:00:00 PM 8.05 46.49 0.1 6.86 4.6 10.64
10/30/2020 5:15:00 PM 8.05 46.49 0.1 6.87 4.63 10.66
10/30/2020 5:30:00 PM 8.04 46.472 0.1 6.86 4.6 10.68
10/30/2020 5:45:00 PM 8.03 46.454 0.1 6.87 4.5 10.7
10/30/2020 6:00:00 PM 8.02 46.436 0.1 6.88 4.77 10.71
10/30/2020 6:15:00 PM 8 46.4 0.1 6.87 4.54 10.73
10/30/2020 6:30:00 PM 7.98 46.364 0.1 6.88 4.66 10.74
10/30/2020 6:45:00 PM 7.95 46.31 0.1 6.87 4.62 10.77
10/30/2020 7:00:00 PM 7.91 46.238 0.1 6.9 4.53 10.77
10/30/2020 7:15:00 PM 7.87 46.166 0.1 6.88 4.63 10.76
10/30/2020 7:30:00 PM 7.83 46.094 0.1 6.87 4.77 10.75
10/30/2020 7:45:00 PM 7.79 46.022 0.1 6.91 4.73 10.74
10/30/2020 8:00:00 PM 7.75 45.95 0.099 6.9 5.1 10.72
10/30/2020 8:15:00 PM 7.72 45.896 0.099 6.9 4.75 10.71
10/30/2020 8:30:00 PM 7.68 45.824 0.099 6.86 4.7 10.69
10/30/2020 8:45:00 PM 7.62 45.716 0.099 6.84 4.84 10.67
10/30/2020 9:00:00 PM 7.58 45.644 0.099 6.84 4.82 10.66
10/30/2020 9:15:00 PM 7.53 45.554 0.098 6.84 5.17 10.64
10/30/2020 9:30:00 PM 7.5 45.5 0.098 6.83 4.96 10.64
10/30/2020 9:45:00 PM 7.46 45.428 0.098 6.83 5.02 10.62
10/30/2020 10:00:00 PM 7.41 45.338 0.098 6.82 5.05 10.6
10/30/2020 10:15:00 PM 7.35 45.23 0.098 6.83 5.13 10.57
10/30/2020 10:30:00 PM 7.31 45.158 0.098 6.83 5.21 10.57
10/30/2020 10:45:00 PM 7.27 45.086 0.097 6.79 5.21 10.55
10/30/2020 11:00:00 PM 7.22 44.996 0.097 6.77 5.15 10.55
10/30/2020 11:15:00 PM 7.19 44.942 0.097 6.79 4.93 10.54
10/30/2020 11:30:00 PM 7.15 44.87 0.097 6.8 5.39 10.54
10/30/2020 11:45:00 PM 7.12 44.816 0.097 6.8 5.07 10.53
10/31/2020 12:00:00 AM 7.09 44.762 0.097 6.79 5.32 10.52
10/31/2020 12:15:00 AM 7.06 44.708 0.097 6.8 5.1 10.52
10/31/2020 12:30:00 AM 7.03 44.654 0.097 6.78 5.1 10.51
10/31/2020 12:45:00 AM 7.02 44.636 0.097 6.77 5.38 10.49
10/31/2020 1:00:00 AM 6.99 44.582 0.097 6.79 5.36 10.47
10/31/2020 1:15:00 AM 6.95 44.51 0.097 6.79 5.08 10.44
10/31/2020 1:30:00 AM 6.94 44.492 0.097 6.78 5.18 10.43
10/31/2020 1:45:00 AM 6.93 44.474 0.098 6.78 5.38 10.41
10/31/2020 2:00:00 AM 6.9 44.42 0.098 6.78 5.32 10.39
10/31/2020 2:15:00 AM 6.89 44.402 0.098 6.78 5.26 10.37
10/31/2020 2:30:00 AM 6.87 44.366 0.098 6.78 5.08 10.37
10/31/2020 2:45:00 AM 6.85 44.33 0.098 6.77 5.09 10.36
10/31/2020 3:00:00 AM 6.83 44.294 0.098 6.79 5.05 10.35
10/31/2020 3:15:00 AM 6.81 44.258 0.098 6.8 5.2 10.35
10/31/2020 3:30:00 AM 6.79 44.222 0.098 6.8 5.2 10.33
10/31/2020 3:45:00 AM 6.76 44.168 0.098 6.82 5.04 10.34
10/31/2020 4:00:00 AM 6.73 44.114 0.098 6.82 5.18 10.32
10/31/2020 4:15:00 AM 6.71 44.078 0.098 6.83 5.13 10.33
10/31/2020 4:30:00 AM 6.67 44.006 0.098 6.83 5.09 10.32
10/31/2020 4:45:00 AM 6.64 43.952 0.098 6.82 5.04 10.32
10/31/2020 5:00:00 AM 6.61 43.898 0.098 6.8 5.06 10.32
10/31/2020 5:15:00 AM 6.59 43.862 0.098 6.81 5.1 10.32
10/31/2020 5:30:00 AM 6.56 43.808 0.098 6.81 5.04 10.32
10/31/2020 5:45:00 AM 6.52 43.736 0.098 6.82 5.08 10.3
10/31/2020 6:00:00 AM 6.5 43.7 0.098 6.78 5.37 10.31
10/31/2020 6:15:00 AM 6.46 43.628 0.098 6.78 5.22 10.31
10/31/2020 6:30:00 AM 6.43 43.574 0.098 6.79 5.26 10.32
10/31/2020 6:45:00 AM 6.4 43.52 0.098 6.79 5.21 10.32
10/31/2020 7:00:00 AM 6.36 43.448 0.098 6.77 5.26 10.31
10/31/2020 7:15:00 AM 6.33 43.394 0.098 6.76 5.15 10.29
10/31/2020 7:30:00 AM 6.31 43.358 0.098 6.76 5.26 10.31
10/31/2020 7:45:00 AM 6.29 43.322 0.098 6.77 5.18 10.31
10/31/2020 8:00:00 AM 6.28 43.304 0.098 6.76 5.38 10.32
10/31/2020 8:15:00 AM 6.26 43.268 0.098 6.75 4.9 10.31
10/31/2020 8:30:00 AM 6.26 43.268 0.098 6.76 4.93 10.33
10/31/2020 8:45:00 AM 6.24 43.232 0.098 6.77 5.6 10.33
10/31/2020 9:00:00 AM 6.24 43.232 0.098 6.75 4.92 10.34
10/31/2020 9:15:00 AM 6.25 43.25 0.098 6.76 5.13 10.35
10/31/2020 9:30:00 AM 6.26 43.268 0.098 6.79 4.88 10.38
10/31/2020 9:45:00 AM 6.27 43.286 0.098 6.79 4.9 10.4
10/31/2020 10:00:00 AM 6.29 43.322 0.098 6.76 4.66 10.42
10/31/2020 10:15:00 AM 6.29 43.322 0.098 6.77 4.71 10.44
10/31/2020 10:30:00 AM 6.31 43.358 0.098 6.77 4.51 10.48
10/31/2020 10:45:00 AM 6.34 43.412 0.098 6.79 4.7 10.52
10/31/2020 11:00:00 AM 6.37 43.466 0.098 6.79 4.65 10.57
10/31/2020 11:15:00 AM 6.4 43.52 0.098 6.8 4.56 10.62
10/31/2020 11:30:00 AM 6.45 43.61 0.098 6.81 4.93 10.67
10/31/2020 11:45:00 AM 6.52 43.736 0.098 6.83 4.75 10.73
10/31/2020 12:00:00 PM 6.59 43.862 0.098 6.82 4.5 10.77
10/31/2020 12:15:00 PM 6.67 44.006 0.098 6.83 4.4 10.81
10/31/2020 12:30:00 PM 6.75 44.15 0.098 6.84 4.61 10.87
10/31/2020 12:45:00 PM 6.82 44.276 0.098 6.84 4.4 10.92
10/31/2020 1:00:00 PM 6.87 44.366 0.098 6.84 4.7 10.97
10/31/2020 1:15:00 PM 6.92 44.456 0.098 6.85 4.45 10.99
10/31/2020 1:30:00 PM 6.99 44.582 0.098 6.85 4.3 11.05
10/31/2020 1:45:00 PM 7.04 44.672 0.098 6.86 4.46 11.09
10/31/2020 2:00:00 PM 7.09 44.762 0.098 6.81 4.32 11.13
10/31/2020 2:15:00 PM 7.14 44.852 0.098 6.83 4.22 11.17
10/31/2020 2:30:00 PM 7.18 44.924 0.098 6.84 4.44 11.23
10/31/2020 2:45:00 PM 7.21 44.978 0.098 6.83 4.3 11.25
10/31/2020 3:00:00 PM 7.23 45.014 0.098 6.84 4.28 11.3
10/31/2020 3:15:00 PM 7.24 45.032 0.097 6.84 4.22 11.34
10/31/2020 3:30:00 PM 7.25 45.05 0.097 6.85 4.26 11.38
10/31/2020 3:45:00 PM 7.26 45.068 0.097 6.85 4.28 11.39
10/31/2020 4:00:00 PM 7.28 45.104 0.097 6.86 4.44 11.42
10/31/2020 4:15:00 PM 7.29 45.122 0.097 6.85 4.32 11.44
10/31/2020 4:30:00 PM 7.3 45.14 0.097 6.85 4.27 11.45
10/31/2020 4:45:00 PM 7.3 45.14 0.097 6.86 4.29 11.47
10/31/2020 5:00:00 PM 7.32 45.176 0.097 6.86 4.27 11.49
10/31/2020 5:15:00 PM 7.33 45.194 0.097 6.88 4.19 11.5
10/31/2020 5:30:00 PM 7.34 45.212 0.097 6.89 4.16 11.52
10/31/2020 5:45:00 PM 7.34 45.212 0.097 6.88 4.35 11.54
10/31/2020 6:00:00 PM 7.33 45.194 0.097 6.87 4.24 11.53
10/31/2020 6:15:00 PM 7.33 45.194 0.097 6.87 4.22 11.54
10/31/2020 6:30:00 PM 7.31 45.158 0.097 6.88 4.24 11.53
10/31/2020 6:45:00 PM 7.28 45.104 0.097 6.87 4.23 11.52
10/31/2020 7:00:00 PM 7.24 45.032 0.097 6.89 4.17 11.49
10/31/2020 7:15:00 PM 7.21 44.978 0.097 6.88 4.29 11.47
10/31/2020 7:30:00 PM 7.18 44.924 0.097 6.87 4.34 11.45
10/31/2020 7:45:00 PM 7.15 44.87 0.097 6.83 4.3 11.42
10/31/2020 8:00:00 PM 7.11 44.798 0.097 6.83 4.23 11.39
10/31/2020 8:15:00 PM 7.07 44.726 0.097 6.82 4.43 11.36
10/31/2020 8:30:00 PM 7.04 44.672 0.097 6.81 4.19 11.34
10/31/2020 8:45:00 PM 7.01 44.618 0.097 6.81 4.37 11.31
10/31/2020 9:00:00 PM 6.97 44.546 0.097 6.81 4.39 11.28
10/31/2020 9:15:00 PM 6.93 44.474 0.097 6.79 4.35 11.26
10/31/2020 9:30:00 PM 6.9 44.42 0.097 6.79 4.5 11.23
10/31/2020 9:45:00 PM 6.87 44.366 0.097 6.8 4.55 11.2
10/31/2020 10:00:00 PM 6.83 44.294 0.096 6.79 4.56 11.18
10/31/2020 10:15:00 PM 6.79 44.222 0.096 6.78 4.68 11.15
10/31/2020 10:30:00 PM 6.75 44.15 0.096 6.78 4.54 11.13
10/31/2020 10:45:00 PM 6.71 44.078 0.096 6.78 4.77 11.1
10/31/2020 11:00:00 PM 6.66 43.988 0.096 6.76 4.56 11.08
10/31/2020 11:15:00 PM 6.62 43.916 0.096 6.82 4.48 11.07
10/31/2020 11:30:00 PM 6.58 43.844 0.096 6.77 4.47 11.07
10/31/2020 11:45:00 PM 6.53 43.754 0.096 6.75 4.48 11.04
11/1/2020 12:00:00 AM 6.48 43.664 0.096 6.75 4.51 11.02
11/1/2020 12:15:00 AM 6.45 43.61 0.096 6.76 4.48 11.02
11/1/2020 12:30:00 AM 6.4 43.52 0.096 6.74 4.34 10.99
11/1/2020 12:45:00 AM 6.36 43.448 0.096 6.74 4.61 11
11/1/2020 1:00:00 AM 6.32 43.376 0.096 6.74 4.65 10.98
11/1/2020 1:15:00 AM 6.27 43.286 0.096 6.74 4.41 10.97
11/1/2020 1:30:00 AM 6.22 43.196 0.095 6.73 4.37 10.95
11/1/2020 1:45:00 AM 6.17 43.106 0.095 6.74 4.39 10.96
11/1/2020 2:00:00 AM 6.12 43.016 0.095 6.73 4.31 10.96
11/1/2020 2:15:00 AM 6.08 42.944 0.095 6.73 4.33 10.94
11/1/2020 2:30:00 AM 6.03 42.854 0.095 6.73 4.55 10.93
11/1/2020 2:45:00 AM 5.98 42.764 0.095 6.73 4.56 10.92
11/1/2020 3:00:00 AM 5.94 42.692 0.095 6.72 4.68 10.91
11/1/2020 3:15:00 AM 5.91 42.638 0.095 6.71 4.52 10.88
11/1/2020 3:30:00 AM 5.81 42.458 0.095 6.72 4.58 10.87
11/1/2020 3:45:00 AM 5.8 42.44 0.095 6.72 4.77 10.87
11/1/2020 4:00:00 AM 5.79 42.422 0.095 6.72 4.77 10.87
11/1/2020 4:15:00 AM 5.78 42.404 0.095 6.72 4.69 10.86
11/1/2020 4:30:00 AM 5.76 42.368 0.095 6.72 4.87 10.83
11/1/2020 4:45:00 AM 5.74 42.332 0.095 6.72 4.75 10.83
11/1/2020 5:00:00 AM 5.73 42.314 0.095 6.71 4.68 10.82
11/1/2020 5:15:00 AM 5.72 42.296 0.095 6.71 4.69 10.81
11/1/2020 5:30:00 AM 5.71 42.278 0.095 6.71 4.77 10.81
11/1/2020 5:45:00 AM 5.7 42.26 0.095 6.71 4.89 10.8
11/1/2020 6:00:00 AM 5.69 42.242 0.095 6.7 4.81 10.77
11/1/2020 6:15:00 AM 5.68 42.224 0.095 6.7 4.78 10.77
11/1/2020 6:30:00 AM 5.68 42.224 0.095 6.7 4.63 10.77
11/1/2020 6:45:00 AM 5.67 42.206 0.095 6.71 4.71 10.78
11/1/2020 7:00:00 AM 5.67 42.206 0.095 6.7 4.61 10.77
11/1/2020 7:15:00 AM 5.67 42.206 0.095 6.71 4.56 10.76
11/1/2020 7:30:00 AM 5.68 42.224 0.095 6.72 4.51 10.78
11/1/2020 7:45:00 AM 5.69 42.242 0.095 6.72 4.55 10.77
11/1/2020 8:00:00 AM 5.7 42.26 0.095 6.72 4.63 10.77
11/1/2020 8:15:00 AM 5.71 42.278 0.095 6.72 4.62 10.78
11/1/2020 8:30:00 AM 5.71 42.278 0.095 6.72 4.56 10.78
11/1/2020 8:45:00 AM 5.72 42.296 0.095 6.72 4.56 10.78
11/1/2020 9:00:00 AM 5.74 42.332 0.095 6.72 4.58 10.78
11/1/2020 9:15:00 AM 5.75 42.35 0.095 6.73 4.48 10.79
11/1/2020 9:30:00 AM 5.76 42.368 0.095 6.73 4.67 10.8
11/1/2020 9:45:00 AM 5.78 42.404 0.095 6.73 4.52 10.8
11/1/2020 10:00:00 AM 5.8 42.44 0.095 6.73 4.51 10.82
11/1/2020 10:15:00 AM 5.84 42.512 0.096 6.74 4.46 10.85
11/1/2020 10:30:00 AM 5.86 42.548 0.096 6.74 4.37 10.85
11/1/2020 10:45:00 AM 5.9 42.62 0.096 6.74 4.3 10.88
11/1/2020 11:00:00 AM 5.95 42.71 0.096 6.76 4.32 10.92
11/1/2020 11:15:00 AM 5.97 42.746 0.096 6.76 4.38 10.93
11/1/2020 11:30:00 AM 6.02 42.836 0.096 6.76 4.35 10.97
11/1/2020 11:45:00 AM 6.05 42.89 0.096 6.77 4.37 11
11/1/2020 12:00:00 PM 6.08 42.944 0.096 6.77 4.39 11.02
11/1/2020 12:15:00 PM 6.1 42.98 0.096 6.76 4.31 11.01
11/1/2020 12:30:00 PM 6.13 43.034 0.096 6.76 4.44 11.03
11/1/2020 12:45:00 PM 6.15 43.07 0.096 6.77 4.31 11.05
11/1/2020 1:00:00 PM 6.17 43.106 0.096 6.76 4.27 11.06
11/1/2020 1:15:00 PM 6.2 43.16 0.096 6.77 4.28 11.08
11/1/2020 1:30:00 PM 6.22 43.196 0.096 6.77 4.18 11.09
11/1/2020 1:45:00 PM 6.24 43.232 0.096 6.77 4.33 11.1
11/1/2020 2:00:00 PM 6.28 43.304 0.096 6.78 4.33 11.12
11/1/2020 2:15:00 PM 6.29 43.322 0.096 6.78 4.27 11.13
11/1/2020 2:30:00 PM 6.32 43.376 0.096 6.79 4.24 11.14
11/1/2020 2:45:00 PM 6.34 43.412 0.096 6.82 4.27 11.15
11/1/2020 3:00:00 PM 6.35 43.43 0.096 6.83 4.27 11.15
11/1/2020 3:15:00 PM 6.37 43.466 0.096 6.83 4.33 11.16
11/1/2020 3:30:00 PM 6.39 43.502 0.096 6.83 4.46 11.16
11/1/2020 3:45:00 PM 6.41 43.538 0.096 6.83 4.14 11.17
11/1/2020 4:00:00 PM 6.42 43.556 0.096 6.83 4.16 11.17
11/1/2020 4:15:00 PM 6.43 43.574 0.096 6.83 4.17 11.17
11/1/2020 4:30:00 PM 6.44 43.592 0.096 6.82 4.15 11.16
11/1/2020 4:45:00 PM 6.45 43.61 0.096 6.82 4.19 11.14
11/1/2020 5:00:00 PM 6.47 43.646 0.096 6.82 4.11 11.14
11/1/2020 5:15:00 PM 6.49 43.682 0.095 6.84 4.25 11.16
11/1/2020 5:30:00 PM 6.5 43.7 0.095 6.84 4.08 11.16
11/1/2020 5:45:00 PM 6.5 43.7 0.095 6.85 4.22 11.16
11/1/2020 6:00:00 PM 6.51 43.718 0.095 6.84 4.16 11.16
11/1/2020 6:15:00 PM 6.51 43.718 0.095 6.85 4.16 11.17
11/1/2020 6:30:00 PM 6.52 43.736 0.095 6.85 4.18 11.19
11/1/2020 6:45:00 PM 6.5 43.7 0.095 6.84 4.36 11.16
11/1/2020 7:00:00 PM 6.49 43.682 0.095 6.83 4.36 11.14
11/1/2020 7:15:00 PM 6.48 43.664 0.095 6.84 4.21 11.13
11/1/2020 7:30:00 PM 6.47 43.646 0.095 6.84 4.34 11.14
11/1/2020 7:45:00 PM 6.44 43.592 0.095 6.83 4.29 11.13
11/1/2020 8:00:00 PM 6.42 43.556 0.095 6.83 4.49 11.12
11/1/2020 8:15:00 PM 6.4 43.52 0.095 6.83 4.4 11.11
11/1/2020 8:30:00 PM 6.37 43.466 0.095 6.84 4.4 11.1
11/1/2020 8:45:00 PM 6.33 43.394 0.095 6.83 4.43 11.1
11/1/2020 9:00:00 PM 6.3 43.34 0.095 6.83 4.42 11.09
11/1/2020 9:15:00 PM 6.26 43.268 0.095 6.83 4.44 11.06
11/1/2020 9:30:00 PM 6.23 43.214 0.095 6.83 4.38 11.08
11/1/2020 9:45:00 PM 6.19 43.142 0.095 6.83 4.58 11.08
11/1/2020 10:00:00 PM 6.15 43.07 0.095 6.82 4.43 11.08
11/1/2020 10:15:00 PM 6.09 42.962 0.095 6.82 4.53 11.08
11/1/2020 10:30:00 PM 6.06 42.908 0.095 6.83 4.74 11.07
11/1/2020 10:45:00 PM 6.03 42.854 0.095 6.82 4.73 11.06
11/1/2020 11:00:00 PM 5.99 42.782 0.095 6.81 4.84 11.04
11/1/2020 11:15:00 PM 5.95 42.71 0.094 6.81 4.82 11.04
11/1/2020 11:30:00 PM 5.9 42.62 0.094 6.82 4.84 11.04
11/1/2020 11:45:00 PM 5.85 42.53 0.094 6.82 4.83 11.04
11/2/2020 12:00:00 AM 5.8 42.44 0.094 6.82 4.7 11.05
11/2/2020 12:15:00 AM 5.77 42.386 0.094 6.83 4.98 11.06
11/2/2020 12:30:00 AM 5.72 42.296 0.094 6.83 5.06 11.06
11/2/2020 12:45:00 AM 5.68 42.224 0.094 6.83 4.81 11.06
11/2/2020 1:00:00 AM 5.64 42.152 0.094 6.83 4.78 11.06
11/2/2020 1:15:00 AM 5.6 42.08 0.094 6.83 4.71 11.04
11/2/2020 1:30:00 AM 5.56 42.008 0.094 6.82 4.58 11.03
11/2/2020 1:45:00 AM 5.52 41.936 0.094 6.81 4.63 11.03
11/2/2020 2:00:00 AM 5.49 41.882 0.094 6.82 4.65 11.03
11/2/2020 2:15:00 AM 5.46 41.828 0.094 6.82 4.76 11.03
11/2/2020 2:30:00 AM 5.43 41.774 0.094 6.81 4.68 11.03
11/2/2020 2:45:00 AM 5.4 41.72 0.094 6.81 4.72 11.02
11/2/2020 3:00:00 AM 5.37 41.666 0.094 6.81 4.92 11.01
11/2/2020 3:15:00 AM 5.35 41.63 0.094 6.82 4.68 11.01
11/2/2020 3:30:00 AM 5.32 41.576 0.094 6.82 4.76 11.01
11/2/2020 3:45:00 AM 5.3 41.54 0.094 6.81 4.89 11.02
11/2/2020 4:00:00 AM 5.27 41.486 0.094 6.81 5.29 11.01
11/2/2020 4:15:00 AM 5.25 41.45 0.094 6.82 5.27 11.01
11/2/2020 4:30:00 AM 5.22 41.396 0.094 6.82 5.31 11.01
11/2/2020 4:45:00 AM 5.18 41.324 0.094 6.82 4.9 11.03
11/2/2020 5:00:00 AM 5.15 41.27 0.094 6.82 4.99 11.03
11/2/2020 5:15:00 AM 5.09 41.162 0.094 6.82 4.91 11.04
11/2/2020 5:30:00 AM 5.05 41.09 0.094 6.81 4.93 11.05
11/2/2020 5:45:00 AM 5.01 41.018 0.094 6.81 4.97 11.04
11/2/2020 6:00:00 AM 4.97 40.946 0.094 6.82 4.89 11.06
11/2/2020 6:15:00 AM 4.94 40.892 0.094 6.82 4.88 11.08
11/2/2020 6:30:00 AM 4.89 40.802 0.094 6.82 4.81 11.1
11/2/2020 6:45:00 AM 4.84 40.712 0.094 6.83 4.83 11.14
11/2/2020 7:00:00 AM 4.8 40.64 0.094 6.83 4.97 11.15
11/2/2020 7:15:00 AM 4.74 40.532 0.094 6.84 5.02 11.19
11/2/2020 7:30:00 AM 4.68 40.424 0.093 6.84 4.75 11.22
11/2/2020 7:45:00 AM 4.63 40.334 0.093 6.84 4.65 11.25
11/2/2020 8:00:00 AM 4.58 40.244 0.093 6.85 4.7 11.29
11/2/2020 8:15:00 AM 4.56 40.208 0.093 6.86 4.8 11.32
11/2/2020 8:30:00 AM 4.51 40.118 0.093 6.86 4.7 11.37
11/2/2020 8:45:00 AM 4.46 40.028 0.093 6.87 4.68 11.41
11/2/2020 9:00:00 AM 4.43 39.974 0.093 6.87 4.85 11.44
11/2/2020 9:15:00 AM 4.39 39.902 0.092 6.88 4.66 11.47
11/2/2020 9:30:00 AM 4.36 39.848 0.092 6.89 4.63 11.5
11/2/2020 9:45:00 AM 4.31 39.758 0.092 6.9 4.47 11.55
11/2/2020 10:00:00 AM 4.27 39.686 0.092 6.89 4.66 11.58
11/2/2020 10:15:00 AM 4.25 39.65 0.092 6.9 4.58 11.62
11/2/2020 10:30:00 AM 4.24 39.632 0.092 6.91 4.53 11.67
11/2/2020 10:45:00 AM 4.22 39.596 0.091 6.92 4.7 11.72
11/2/2020 11:00:00 AM 4.23 39.614 0.091 6.92 4.36 11.75
11/2/2020 11:15:00 AM 4.25 39.65 0.091 6.94 4.32 11.79
11/2/2020 11:30:00 AM 4.27 39.686 0.091 6.95 4.41 11.82
11/2/2020 11:45:00 AM 4.28 39.704 0.091 6.96 4.45 11.86
11/2/2020 12:00:00 PM 4.28 39.704 0.091 6.96 4.55 11.9
11/2/2020 12:15:00 PM 4.3 39.74 0.091 6.98 4.46 11.95
11/2/2020 12:30:00 PM 4.33 39.794 0.091 6.98 4.29 11.97
11/2/2020 12:45:00 PM 4.33 39.794 0.091 6.99 4.32 12.01
11/2/2020 1:00:00 PM 4.33 39.794 0.091 7 4.4 12.04
11/2/2020 1:15:00 PM 4.36 39.848 0.092 7 4.67 12.07
11/2/2020 1:30:00 PM 4.39 39.902 0.091 7.01 4.27 12.09
11/2/2020 1:45:00 PM 4.42 39.956 0.092 7.02 4.29 12.12
11/2/2020 2:00:00 PM 4.45 40.01 0.092 7.03 4.34 12.14
11/2/2020 2:15:00 PM 4.49 40.082 0.092 7.03 4.22 12.17
11/2/2020 2:30:00 PM 4.51 40.118 0.092 7.04 4.48 12.18
11/2/2020 2:45:00 PM 4.52 40.136 0.092 7.04 4.25 12.21
11/2/2020 3:00:00 PM 4.54 40.172 0.092 7.05 4.26 12.22
11/2/2020 3:15:00 PM 4.55 40.19 0.092 7.05 4.37 12.23
11/2/2020 3:30:00 PM 4.57 40.226 0.092 7.06 4.38 12.24
11/2/2020 3:45:00 PM 4.59 40.262 0.092 7.06 4.1 12.25
11/2/2020 4:00:00 PM 4.59 40.262 0.092 7.06 4.14 12.26
11/2/2020 4:15:00 PM 4.59 40.262 0.091 7.06 4.27 12.27
11/2/2020 4:30:00 PM 4.59 40.262 0.091 7.06 4.36 12.28
11/2/2020 4:45:00 PM 4.59 40.262 0.091 7.06 4.14 12.29
11/2/2020 5:00:00 PM 4.58 40.244 0.091 7.07 4.13 12.28
11/2/2020 5:15:00 PM 4.55 40.19 0.091 7.07 4.4 12.29
11/2/2020 5:30:00 PM 4.51 40.118 0.091 7.07 4.06 12.3
11/2/2020 5:45:00 PM 4.5 40.1 0.091 7.06 4.04 12.31
11/2/2020 6:00:00 PM 4.48 40.064 0.091 7.06 4.19 12.31
11/2/2020 6:15:00 PM 4.45 40.01 0.09 7.06 4.46 12.31
11/2/2020 6:30:00 PM 4.43 39.974 0.09 7.05 4.58 12.3
11/2/2020 6:45:00 PM 4.39 39.902 0.09 7.05 4.36 12.3
11/2/2020 7:00:00 PM 4.37 39.866 0.09 7.04 4.48 12.3
11/2/2020 7:15:00 PM 4.35 39.83 0.09 7.03 4.25 12.29
11/2/2020 7:30:00 PM 4.32 39.776 0.09 7.03 4.41 12.29
11/2/2020 7:45:00 PM 4.28 39.704 0.09 7.02 4.33 12.29
11/2/2020 8:00:00 PM 4.24 39.632 0.09 7.01 4.26 12.27
11/2/2020 8:15:00 PM 4.21 39.578 0.089 7.01 4.14 12.27
11/2/2020 8:30:00 PM 4.17 39.506 0.089 7.01 4.28 12.26
11/2/2020 8:45:00 PM 4.14 39.452 0.089 7 4.13 12.25
11/2/2020 9:00:00 PM 4.13 39.434 0.089 7 4.3 12.23
11/2/2020 9:15:00 PM 4.1 39.38 0.089 7 4.05 12.22
11/2/2020 9:30:00 PM 4.09 39.362 0.089 6.98 4.43 12.2
11/2/2020 9:45:00 PM 4.07 39.326 0.089 6.98 4.5 12.19
11/2/2020 10:00:00 PM 4.04 39.272 0.089 6.97 4.38 12.18
11/2/2020 10:15:00 PM 4.03 39.254 0.089 6.97 4.64 12.17
11/2/2020 10:30:00 PM 4.02 39.236 0.089 6.97 4.48 12.15
11/2/2020 10:45:00 PM 4.01 39.218 0.089 6.96 4.29 12.14
11/2/2020 11:00:00 PM 4 39.2 0.089 6.97 4.09 12.12
11/2/2020 11:15:00 PM 3.98 39.164 0.089 6.96 4.49 12.11
11/2/2020 11:30:00 PM 3.97 39.146 0.089 6.96 4.4 12.1
11/2/2020 11:45:00 PM 3.95 39.11 0.089 6.95 4.29 12.09
11/3/2020 12:00:00 AM 3.94 39.092 0.089 6.95 4.12 12.08
11/3/2020 12:15:00 AM 3.92 39.056 0.089 6.94 4.21 12.06
11/3/2020 12:30:00 AM 3.89 39.002 0.089 6.93 4.17 12.06
11/3/2020 12:45:00 AM 3.88 38.984 0.089 6.94 4.26 12.05
11/3/2020 1:00:00 AM 3.86 38.948 0.089 6.93 4.64 12.03
11/3/2020 1:15:00 AM 3.84 38.912 0.089 6.92 4.39 12.02
11/3/2020 1:30:00 AM 3.83 38.894 0.089 6.93 4.37 12.01
11/3/2020 1:45:00 AM 3.81 38.858 0.089 6.93 4.94 12
11/3/2020 2:00:00 AM 3.78 38.804 0.089 6.93 4.17 11.99
11/3/2020 2:15:00 AM 3.77 38.786 0.089 6.93 4.25 11.98
11/3/2020 2:30:00 AM 3.75 38.75 0.089 6.92 4.05 11.98
11/3/2020 2:45:00 AM 3.73 38.714 0.089 6.93 4.2 11.97
11/3/2020 3:00:00 AM 3.7 38.66 0.089 6.92 4.21 11.96
11/3/2020 3:15:00 AM 3.68 38.624 0.089 6.92 4.02 11.95
11/3/2020 3:30:00 AM 3.66 38.588 0.089 6.91 4 11.94
11/3/2020 3:45:00 AM 3.65 38.57 0.089 6.92 4.27 11.93
11/3/2020 4:00:00 AM 3.62 38.516 0.089 6.92 4.17 11.93
11/3/2020 4:15:00 AM 3.6 38.48 0.089 6.91 4.34 11.92
11/3/2020 4:30:00 AM 3.58 38.444 0.089 6.91 4.42 11.92
11/3/2020 4:45:00 AM 3.57 38.426 0.089 6.91 4.39 11.91
11/3/2020 5:00:00 AM 3.55 38.39 0.089 6.91 4.4 11.91
11/3/2020 5:15:00 AM 3.54 38.372 0.089 6.91 4.93 11.91
11/3/2020 5:30:00 AM 3.53 38.354 0.089 6.91 4.26 11.91
11/3/2020 5:45:00 AM 3.53 38.354 0.089 6.91 4.34 11.91
11/3/2020 6:00:00 AM 3.52 38.336 0.089 6.91 4.64 11.9
11/3/2020 6:15:00 AM 3.51 38.318 0.089 6.91 3.98 11.9
11/3/2020 6:30:00 AM 3.5 38.3 0.09 6.91 4.29 11.9
11/3/2020 6:45:00 AM 3.5 38.3 0.09 6.91 4.38 11.9
11/3/2020 7:00:00 AM 3.5 38.3 0.09 6.91 4.36 11.9
11/3/2020 7:15:00 AM 3.5 38.3 0.09 6.91 4.4 11.89
11/3/2020 7:30:00 AM 3.49 38.282 0.09 6.91 4.37 11.9
11/3/2020 7:45:00 AM 3.48 38.264 0.09 6.91 4.21 11.9
11/3/2020 8:00:00 AM 3.49 38.282 0.09 6.91 4.11 11.9
11/3/2020 8:15:00 AM 3.5 38.3 0.09 6.91 4.47 11.9
11/3/2020 8:30:00 AM 3.5 38.3 0.09 6.91 4.18 11.9
11/3/2020 8:45:00 AM 3.51 38.318 0.09 6.91 4.24 11.9
11/3/2020 9:00:00 AM 3.53 38.354 0.09 6.92 4.06 11.9
11/3/2020 9:15:00 AM 3.54 38.372 0.09 6.91 4.03 11.91
11/3/2020 9:30:00 AM 3.54 38.372 0.09 6.92 4.17 11.92
11/3/2020 9:45:00 AM 3.55 38.39 0.09 6.92 4.09 11.92
11/3/2020 10:00:00 AM 3.57 38.426 0.09 6.92 4.25 11.92
11/3/2020 10:15:00 AM 3.58 38.444 0.091 6.92 4.02 11.92
11/3/2020 10:30:00 AM 3.6 38.48 0.091 6.92 4.04 11.93
11/3/2020 10:45:00 AM 3.62 38.516 0.091 6.92 4.2 11.92
11/3/2020 11:00:00 AM 3.64 38.552 0.091 6.92 4.18 11.93
11/3/2020 11:15:00 AM 3.67 38.606 0.091 6.92 4.34 11.93
11/3/2020 11:30:00 AM 3.69 38.642 0.091 6.92 3.97 11.94
11/3/2020 11:45:00 AM 3.71 38.678 0.091 6.92 4.16 11.94
11/3/2020 12:00:00 PM 3.74 38.732 0.091 6.92 4.17 11.95
11/3/2020 12:15:00 PM 3.78 38.804 0.091 6.93 4.31 11.95
11/3/2020 12:30:00 PM 3.85 38.93 0.091 6.94 4.15 11.97
11/3/2020 12:45:00 PM 3.89 39.002 0.091 6.94 4.16 11.98
11/3/2020 1:00:00 PM 3.93 39.074 0.091 6.95 4.06 11.99
11/3/2020 1:15:00 PM 3.98 39.164 0.091 6.95 4.68 12
11/3/2020 1:30:00 PM 4 39.2 0.091 6.95 4.28 12.01
11/3/2020 1:45:00 PM 4.03 39.254 0.091 6.95 3.94 12.03
11/3/2020 2:00:00 PM 4.06 39.308 0.091 6.95 4.21 12.03
11/3/2020 2:15:00 PM 4.09 39.362 0.091 6.95 4.28 12.05
11/3/2020 2:30:00 PM 4.13 39.434 0.091 6.96 3.9 12.06
11/3/2020 2:45:00 PM 4.17 39.506 0.091 6.96 4.01 12.08
11/3/2020 3:00:00 PM 4.22 39.596 0.091 6.97 4.33 12.1
11/3/2020 3:15:00 PM 4.25 39.65 0.091 6.97 4.1 12.11
11/3/2020 3:30:00 PM 4.28 39.704 0.091 6.97 4.12 12.13
11/3/2020 3:45:00 PM 4.33 39.794 0.091 6.98 4.48 12.16
11/3/2020 4:00:00 PM 4.35 39.83 0.091 6.99 4.05 12.17
11/3/2020 4:15:00 PM 4.37 39.866 0.091 6.99 3.98 12.18
11/3/2020 4:30:00 PM 4.4 39.92 0.091 6.99 4.28 12.2
11/3/2020 4:45:00 PM 4.41 39.938 0.091 6.98 4.1 12.2
11/3/2020 5:00:00 PM 4.44 39.992 0.091 6.99 3.95 12.21
11/3/2020 5:15:00 PM 4.45 40.01 0.091 6.99 3.78 12.21
11/3/2020 5:30:00 PM 4.45 40.01 0.091 6.98 3.96 12.21
11/3/2020 5:45:00 PM 4.49 40.082 0.092 6.99 4.04 12.22
11/3/2020 6:00:00 PM 4.5 40.1 0.092 6.99 4.34 12.23
11/3/2020 6:15:00 PM 4.51 40.118 0.092 6.99 4.05 12.23
11/3/2020 6:30:00 PM 4.54 40.172 0.092 6.99 3.92 12.23
11/3/2020 6:45:00 PM 4.57 40.226 0.092 7 4.43 12.23
11/3/2020 7:00:00 PM 4.57 40.226 0.092 7 4.24 12.23
11/3/2020 7:15:00 PM 4.59 40.262 0.092 6.99 4.08 12.22
11/3/2020 7:30:00 PM 4.6 40.28 0.092 6.99 4.43 12.22
11/3/2020 7:45:00 PM 4.6 40.28 0.092 6.98 4.41 12.22
11/3/2020 8:00:00 PM 4.58 40.244 0.092 6.98 4.45 12.21
11/3/2020 8:15:00 PM 4.57 40.226 0.092 6.98 4.51 12.21
11/3/2020 8:30:00 PM 4.56 40.208 0.092 6.98 3.99 12.19
11/3/2020 8:45:00 PM 4.55 40.19 0.092 6.97 3.97 12.19
11/3/2020 9:00:00 PM 4.53 40.154 0.092 6.97 4.03 12.17
11/3/2020 9:15:00 PM 4.52 40.136 0.092 6.97 4.17 12.16
11/3/2020 9:30:00 PM 4.5 40.1 0.092 6.97 3.94 12.15
11/3/2020 9:45:00 PM 4.49 40.082 0.092 6.96 4.17 12.13
11/3/2020 10:00:00 PM 4.47 40.046 0.092 6.95 4.3 12.11
11/3/2020 10:15:00 PM 4.45 40.01 0.092 6.95 4.14 12.1
11/3/2020 10:30:00 PM 4.42 39.956 0.092 6.94 4.18 12.09
11/3/2020 10:45:00 PM 4.4 39.92 0.092 6.94 4.22 12.08
11/3/2020 11:00:00 PM 4.36 39.848 0.092 6.94 4.93 12.06
11/3/2020 11:15:00 PM 4.34 39.812 0.092 6.93 4.03 12.05
11/3/2020 11:30:00 PM 4.31 39.758 0.092 6.92 4.23 12.03
11/3/2020 11:45:00 PM 4.29 39.722 0.092 6.91 4.32 12.02
11/4/2020 12:00:00 AM 4.27 39.686 0.092 6.91 4.2 12.01
11/4/2020 12:15:00 AM 4.21 39.578 0.092 6.9 4.27 12
11/4/2020 12:30:00 AM 4.19 39.542 0.092 6.89 4.5 11.99
11/4/2020 12:45:00 AM 4.15 39.47 0.091 6.89 4.78 11.98
11/4/2020 1:00:00 AM 4.11 39.398 0.091 6.88 4.13 11.97
11/4/2020 1:15:00 AM 4.09 39.362 0.091 6.88 4.44 11.96
11/4/2020 1:30:00 AM 4.05 39.29 0.091 6.88 4 11.96
11/4/2020 1:45:00 AM 4.01 39.218 0.091 6.87 4.02 11.95
11/4/2020 2:00:00 AM 3.97 39.146 0.091 6.86 3.89 11.95
11/4/2020 2:15:00 AM 3.94 39.092 0.091 6.85 4.05 11.94
11/4/2020 2:30:00 AM 3.91 39.038 0.091 6.86 3.87 11.94
11/4/2020 2:45:00 AM 3.88 38.984 0.091 6.85 4.2 11.94
11/4/2020 3:00:00 AM 3.85 38.93 0.091 6.85 4.01 11.94
11/4/2020 3:15:00 AM 3.83 38.894 0.091 6.85 3.78 11.94
11/4/2020 3:30:00 AM 3.8 38.84 0.091 6.85 3.88 11.94
11/4/2020 3:45:00 AM 3.78 38.804 0.091 6.84 3.72 11.93
11/4/2020 4:00:00 AM 3.75 38.75 0.09 6.84 3.82 11.92
11/4/2020 4:15:00 AM 3.72 38.696 0.091 6.84 3.83 11.91
11/4/2020 4:30:00 AM 3.69 38.642 0.09 6.84 3.86 11.91
11/4/2020 4:45:00 AM 3.66 38.588 0.09 6.83 4.15 11.9
11/4/2020 5:00:00 AM 3.63 38.534 0.09 6.82 4.37 11.88
11/4/2020 5:15:00 AM 3.59 38.462 0.091 6.82 4.12 11.88
11/4/2020 5:30:00 AM 3.57 38.426 0.091 6.82 4.22 11.86
11/4/2020 5:45:00 AM 3.54 38.372 0.091 6.82 4.2 11.86
11/4/2020 6:00:00 AM 3.52 38.336 0.09 6.83 4.16 11.86
11/4/2020 6:15:00 AM 3.5 38.3 0.091 6.83 4.29 11.86
11/4/2020 6:30:00 AM 3.48 38.264 0.091 6.83 4.15 11.86
11/4/2020 6:45:00 AM 3.46 38.228 0.091 6.83 4.33 11.86
11/4/2020 7:00:00 AM 3.44 38.192 0.091 6.83 4.14 11.86
11/4/2020 7:15:00 AM 3.41 38.138 0.091 6.83 3.83 11.86
11/4/2020 7:30:00 AM 3.39 38.102 0.091 6.83 4.34 11.86
11/4/2020 7:45:00 AM 3.38 38.084 0.091 6.82 3.95 11.86
11/4/2020 8:00:00 AM 3.37 38.066 0.091 6.83 4.08 11.86
11/4/2020 8:15:00 AM 3.35 38.03 0.091 6.83 3.89 11.86
11/4/2020 8:30:00 AM 3.34 38.012 0.091 6.83 4.08 11.86
11/4/2020 8:45:00 AM 3.34 38.012 0.091 6.83 3.92 11.85
11/4/2020 9:00:00 AM 3.36 38.048 0.091 6.83 3.7 11.85
11/4/2020 9:15:00 AM 3.38 38.084 0.091 6.83 3.82 11.85
11/4/2020 9:30:00 AM 3.42 38.156 0.091 6.83 4 11.86
11/4/2020 9:45:00 AM 3.45 38.21 0.091 6.84 3.83 11.87
11/4/2020 10:00:00 AM 3.5 38.3 0.091 6.85 3.98 11.88
11/4/2020 10:15:00 AM 3.56 38.408 0.091 6.85 3.75 11.89
11/4/2020 10:30:00 AM 3.64 38.552 0.091 6.85 3.75 11.9
11/4/2020 10:45:00 AM 3.7 38.66 0.091 6.85 3.9 11.91
11/4/2020 11:00:00 AM 3.76 38.768 0.091 6.85 3.79 11.91
11/4/2020 11:15:00 AM 3.83 38.894 0.091 6.86 3.79 11.91
11/4/2020 11:30:00 AM 3.9 39.02 0.091 6.86 3.96 11.92
11/4/2020 11:45:00 AM 3.96 39.128 0.091 6.85 3.95 11.93
11/4/2020 12:00:00 PM 4.05 39.29 0.091 6.86 4.05 11.93
11/4/2020 12:15:00 PM 4.13 39.434 0.091 6.86 4.03 11.94
11/4/2020 12:30:00 PM 4.19 39.542 0.091 6.86 3.94 11.95
11/4/2020 12:45:00 PM 4.28 39.704 0.091 6.86 3.94 11.97
11/4/2020 1:00:00 PM 4.35 39.83 0.091 6.86 4.03 11.98
11/4/2020 1:15:00 PM 4.44 39.992 0.091 6.86 3.98 11.99
11/4/2020 1:30:00 PM 4.5 40.1 0.091 6.87 4.34 12
11/4/2020 1:45:00 PM 4.57 40.226 0.091 6.86 4.22 12
11/4/2020 2:00:00 PM 4.66 40.388 0.091 6.87 4.23 12.01
11/4/2020 2:15:00 PM 4.75 40.55 0.091 6.86 4.22 12.03
11/4/2020 2:30:00 PM 4.85 40.73 0.091 6.87 4.01 12.06
11/4/2020 2:45:00 PM 4.89 40.802 0.091 6.87 4.17 12.07
11/4/2020 3:00:00 PM 4.96 40.928 0.091 6.88 4.1 12.08
11/4/2020 3:15:00 PM 5.02 41.036 0.091 6.88 4.19 12.09
11/4/2020 3:30:00 PM 5.08 41.144 0.091 6.88 3.98 12.11
11/4/2020 3:45:00 PM 5.15 41.27 0.091 6.88 4.11 12.11
11/4/2020 4:00:00 PM 5.21 41.378 0.091 6.87 4.14 12.12
11/4/2020 4:15:00 PM 5.28 41.504 0.091 6.88 3.97 12.12
11/4/2020 4:30:00 PM 5.34 41.612 0.091 6.88 4.06 12.13
11/4/2020 4:45:00 PM 5.4 41.72 0.091 6.88 3.77 12.14
11/4/2020 5:00:00 PM 5.46 41.828 0.091 6.87 4.02 12.15
11/4/2020 5:15:00 PM 5.52 41.936 0.091 6.88 4.02 12.16
11/4/2020 5:30:00 PM 5.57 42.026 0.091 6.88 4.1 12.17
11/4/2020 5:45:00 PM 5.61 42.098 0.091 6.88 3.89 12.18
11/4/2020 6:00:00 PM 5.65 42.17 0.091 6.89 3.96 12.21
11/4/2020 6:15:00 PM 5.67 42.206 0.091 6.89 4.09 12.21
11/4/2020 6:30:00 PM 5.69 42.242 0.091 6.9 3.98 12.23
11/4/2020 6:45:00 PM 5.71 42.278 0.091 6.9 4.1 12.24
11/4/2020 7:00:00 PM 5.74 42.332 0.091 6.89 4.21 12.26
11/4/2020 7:15:00 PM 5.75 42.35 0.091 6.89 3.99 12.27
11/4/2020 7:30:00 PM 5.77 42.386 0.091 6.89 4.11 12.28
11/4/2020 7:45:00 PM 5.78 42.404 0.091 6.89 3.94 12.27
11/4/2020 8:00:00 PM 5.77 42.386 0.091 6.89 3.95 12.28
11/4/2020 8:15:00 PM 5.76 42.368 0.091 6.89 4.43 12.27
11/4/2020 8:30:00 PM 5.74 42.332 0.091 6.88 4.15 12.27
11/4/2020 8:45:00 PM 5.73 42.314 0.091 6.88 4.87 12.27
11/4/2020 9:00:00 PM 5.7 42.26 0.091 6.88 4.46 12.26
11/4/2020 9:15:00 PM 5.68 42.224 0.091 6.88 3.97 12.26
11/4/2020 9:30:00 PM 5.64 42.152 0.091 6.88 4.04 12.26
11/4/2020 9:45:00 PM 5.61 42.098 0.091 6.88 4.04 12.25
11/4/2020 10:00:00 PM 5.58 42.044 0.091 6.88 3.83 12.24
11/4/2020 10:15:00 PM 5.55 41.99 0.091 6.88 3.88 12.23
11/4/2020 10:30:00 PM 5.52 41.936 0.091 6.87 3.79 12.21
11/4/2020 10:45:00 PM 5.49 41.882 0.091 6.87 4.45 12.19
11/4/2020 11:00:00 PM 5.47 41.846 0.091 6.86 4.26 12.16
11/4/2020 11:15:00 PM 5.44 41.792 0.091 6.87 4.05 12.15
11/4/2020 11:30:00 PM 5.41 41.738 0.091 6.86 3.96 12.12
11/4/2020 11:45:00 PM 5.39 41.702 0.091 6.85 4.11 12.1
11/5/2020 12:00:00 AM 5.37 41.666 0.091 6.86 4.3 12.08
11/5/2020 12:15:00 AM 5.36 41.648 0.091 6.85 4.25 12.06
11/5/2020 12:30:00 AM 5.34 41.612 0.091 6.85 4.65 12.03
11/5/2020 12:45:00 AM 5.33 41.594 0.091 6.84 4.54 12.01
11/5/2020 1:00:00 AM 5.31 41.558 0.091 6.83 4.67 11.98
11/5/2020 1:15:00 AM 5.3 41.54 0.091 6.83 4.99 11.95
11/5/2020 1:30:00 AM 5.28 41.504 0.091 6.83 5.19 11.94
11/5/2020 1:45:00 AM 5.27 41.486 0.091 6.83 4.29 11.93
11/5/2020 2:00:00 AM 5.26 41.468 0.091 6.82 4.2 11.91
11/5/2020 2:15:00 AM 5.25 41.45 0.091 6.82 4.41 11.9
11/5/2020 2:30:00 AM 5.23 41.414 0.091 6.82 4.19 11.88
11/5/2020 2:45:00 AM 5.22 41.396 0.091 6.81 4.22 11.88
11/5/2020 3:00:00 AM 5.21 41.378 0.091 6.81 4.41 11.85
11/5/2020 3:15:00 AM 5.2 41.36 0.091 6.81 4.98 11.84
11/5/2020 3:30:00 AM 5.19 41.342 0.091 6.8 4.15 11.81
11/5/2020 3:45:00 AM 5.17 41.306 0.091 6.8 4.35 11.79
11/5/2020 4:00:00 AM 5.16 41.288 0.091 6.8 4.15 11.77
11/5/2020 4:15:00 AM 5.15 41.27 0.091 6.8 4.48 11.76
11/5/2020 4:30:00 AM 5.14 41.252 0.091 6.8 4.2 11.73
11/5/2020 4:45:00 AM 5.13 41.234 0.091 6.8 4.18 11.72
11/5/2020 5:00:00 AM 5.11 41.198 0.092 6.79 4.52 11.7
11/5/2020 5:15:00 AM 5.08 41.144 0.092 6.79 4.15 11.68
11/5/2020 5:30:00 AM 5.07 41.126 0.092 6.79 4.58 11.66
11/5/2020 5:45:00 AM 5.05 41.09 0.092 6.78 4.39 11.63
11/5/2020 6:00:00 AM 5.03 41.054 0.092 6.78 4.3 11.61
11/5/2020 6:15:00 AM 5.01 41.018 0.092 6.78 4.38 11.59
11/5/2020 6:30:00 AM 4.97 40.946 0.092 6.77 4.42 11.57
11/5/2020 6:45:00 AM 4.96 40.928 0.092 6.77 4.67 11.54
11/5/2020 7:00:00 AM 4.95 40.91 0.092 6.77 4.4 11.53
11/5/2020 7:15:00 AM 4.93 40.874 0.092 6.76 4.93 11.51
11/5/2020 7:30:00 AM 4.9 40.82 0.092 6.76 4.85 11.49
11/5/2020 7:45:00 AM 4.88 40.784 0.092 6.76 4.75 11.47
11/5/2020 8:00:00 AM 4.86 40.748 0.092 6.76 4.6 11.45
11/5/2020 8:15:00 AM 4.83 40.694 0.092 6.75 4.31 11.43
11/5/2020 8:30:00 AM 4.82 40.676 0.092 6.75 4.36 11.43
11/5/2020 8:45:00 AM 4.82 40.676 0.092 6.75 4.46 11.43
11/5/2020 9:00:00 AM 4.82 40.676 0.092 6.75 4.63 11.42
11/5/2020 9:15:00 AM 4.84 40.712 0.092 6.76 4.52 11.43
11/5/2020 9:30:00 AM 4.85 40.73 0.092 6.76 4.59 11.43
11/5/2020 9:45:00 AM 4.85 40.73 0.092 6.76 4.47 11.42
11/5/2020 10:00:00 AM 4.88 40.784 0.092 6.76 4.52 11.43
11/5/2020 10:15:00 AM 4.91 40.838 0.092 6.76 4.36 11.44
11/5/2020 10:30:00 AM 4.93 40.874 0.092 6.76 4.8 11.44
11/5/2020 10:45:00 AM 4.95 40.91 0.092 6.76 4.31 11.44
11/5/2020 11:00:00 AM 5.02 41.036 0.092 6.77 4.31 11.45
11/5/2020 11:15:00 AM 5.05 41.09 0.092 6.77 4.6 11.47
11/5/2020 11:30:00 AM 5.1 41.18 0.092 6.77 4.31 11.47
11/5/2020 11:45:00 AM 5.14 41.252 0.092 6.77 4.35 11.47
11/5/2020 12:00:00 PM 5.2 41.36 0.092 6.78 4.36 11.49
11/5/2020 12:15:00 PM 5.29 41.522 0.092 6.78 4.61 11.5
11/5/2020 12:30:00 PM 5.36 41.648 0.092 6.78 4.25 11.5
11/5/2020 12:45:00 PM 5.43 41.774 0.092 6.78 4.13 11.51
11/5/2020 1:00:00 PM 5.49 41.882 0.092 6.78 4.17 11.51
11/5/2020 1:15:00 PM 5.56 42.008 0.092 6.78 4.49 11.52
11/5/2020 1:30:00 PM 5.63 42.134 0.092 6.78 4.17 11.52
11/5/2020 1:45:00 PM 5.69 42.242 0.092 6.78 4.3 11.52
11/5/2020 2:00:00 PM 5.79 42.422 0.092 6.78 4.05 11.52
11/5/2020 2:15:00 PM 5.9 42.62 0.092 6.78 4.17 11.53
11/5/2020 2:30:00 PM 5.93 42.674 0.092 6.78 4.2 11.54
11/5/2020 2:45:00 PM 6.01 42.818 0.092 6.78 3.97 11.54
11/5/2020 3:00:00 PM 6.09 42.962 0.092 6.79 3.97 11.57
11/5/2020 3:15:00 PM 6.16 43.088 0.092 6.79 3.9 11.59
11/5/2020 3:30:00 PM 6.22 43.196 0.092 6.79 4.11 11.6
11/5/2020 3:45:00 PM 6.28 43.304 0.092 6.79 4.34 11.61
11/5/2020 4:00:00 PM 6.36 43.448 0.092 6.8 4.25 11.64
11/5/2020 4:15:00 PM 6.41 43.538 0.092 6.8 4.26 11.65
11/5/2020 4:30:00 PM 6.47 43.646 0.092 6.8 4.67 11.67
11/5/2020 4:45:00 PM 6.51 43.718 0.092 6.81 4.01 11.7
11/5/2020 5:00:00 PM 6.53 43.754 0.092 6.81 3.81 11.71
11/5/2020 5:15:00 PM 6.57 43.826 0.092 6.81 3.9 11.72
11/5/2020 5:30:00 PM 6.6 43.88 0.092 6.81 3.91 11.74
11/5/2020 5:45:00 PM 6.64 43.952 0.092 6.81 4.08 11.77
11/5/2020 6:00:00 PM 6.67 44.006 0.092 6.81 3.98 11.78
11/5/2020 6:15:00 PM 6.69 44.042 0.092 6.82 4 11.8
11/5/2020 6:30:00 PM 6.71 44.078 0.092 6.82 5.09 11.82
11/5/2020 6:45:00 PM 6.71 44.078 0.092 6.82 4.32 11.83
11/5/2020 7:00:00 PM 6.73 44.114 0.092 6.82 4.76 11.84
11/5/2020 7:15:00 PM 6.74 44.132 0.092 6.83 4.16 11.86
11/5/2020 7:30:00 PM 6.74 44.132 0.092 6.83 4.7 11.87
11/5/2020 7:45:00 PM 6.74 44.132 0.092 6.82 4.69 11.88
11/5/2020 8:00:00 PM 6.75 44.15 0.092 6.83 4.21 11.89
11/5/2020 8:15:00 PM 6.75 44.15 0.092 6.83 4.02 11.92
11/5/2020 8:30:00 PM 6.76 44.168 0.092 6.84 4.23 11.92
11/5/2020 8:45:00 PM 6.76 44.168 0.092 6.83 3.91 11.93
11/5/2020 9:00:00 PM 6.76 44.168 0.092 6.83 4.16 11.92
11/5/2020 9:15:00 PM 6.74 44.132 0.092 6.83 3.88 11.91
11/5/2020 9:30:00 PM 6.74 44.132 0.092 6.83 3.95 11.9
11/5/2020 9:45:00 PM 6.73 44.114 0.092 6.83 3.97 11.9
11/5/2020 10:00:00 PM 6.72 44.096 0.092 6.83 4.06 11.89
11/5/2020 10:15:00 PM 6.7 44.06 0.092 6.83 4.19 11.88
11/5/2020 10:30:00 PM 6.67 44.006 0.092 6.82 3.74 11.86
11/5/2020 10:45:00 PM 6.64 43.952 0.092 6.82 3.94 11.85
11/5/2020 11:00:00 PM 6.62 43.916 0.092 6.81 3.98 11.83
11/5/2020 11:15:00 PM 6.58 43.844 0.092 6.81 4.29 11.83
11/5/2020 11:30:00 PM 6.55 43.79 0.092 6.81 4.15 11.82
11/5/2020 11:45:00 PM 6.52 43.736 0.092 6.8 4.17 11.8
11/6/2020 12:00:00 AM 6.5 43.7 0.092 6.8 3.86 11.79
11/6/2020 12:15:00 AM 6.47 43.646 0.092 6.8 3.76 11.77
11/6/2020 12:30:00 AM 6.43 43.574 0.092 6.8 3.8 11.75
11/6/2020 12:45:00 AM 6.41 43.538 0.092 6.79 4.18 11.74
11/6/2020 1:00:00 AM 6.38 43.484 0.092 6.79 3.91 11.73
11/6/2020 1:15:00 AM 6.34 43.412 0.092 6.78 3.98 11.71
11/6/2020 1:30:00 AM 6.32 43.376 0.092 6.78 3.85 11.69
11/6/2020 1:45:00 AM 6.29 43.322 0.092 6.78 3.91 11.68
11/6/2020 2:00:00 AM 6.26 43.268 0.092 6.78 3.78 11.66
11/6/2020 2:15:00 AM 6.24 43.232 0.092 6.78 4 11.64
11/6/2020 2:30:00 AM 6.21 43.178 0.092 6.78 4.04 11.62
11/6/2020 2:45:00 AM 6.19 43.142 0.092 6.77 4.38 11.61
11/6/2020 3:00:00 AM 6.18 43.124 0.092 6.77 4.16 11.59
11/6/2020 3:15:00 AM 6.15 43.07 0.092 6.77 4.26 11.57
11/6/2020 3:30:00 AM 6.13 43.034 0.092 6.77 4.3 11.56
11/6/2020 3:45:00 AM 6.11 42.998 0.092 6.76 4.08 11.54
11/6/2020 4:00:00 AM 6.1 42.98 0.092 6.75 4.16 11.53
11/6/2020 4:15:00 AM 6.08 42.944 0.092 6.75 4.43 11.51
11/6/2020 4:30:00 AM 6.07 42.926 0.092 6.76 4.16 11.49
11/6/2020 4:45:00 AM 6.06 42.908 0.092 6.75 4.2 11.47
11/6/2020 5:00:00 AM 6.05 42.89 0.092 6.75 4.36 11.45
11/6/2020 5:15:00 AM 6.04 42.872 0.092 6.76 3.92 11.44
11/6/2020 5:30:00 AM 6.04 42.872 0.092 6.75 4.27 11.42
11/6/2020 5:45:00 AM 6.02 42.836 0.092 6.75 4.57 11.4
11/6/2020 6:00:00 AM 6.01 42.818 0.092 6.74 6.12 11.37
11/6/2020 6:15:00 AM 6 42.8 0.092 6.74 4.62 11.36
11/6/2020 6:30:00 AM 5.99 42.782 0.092 6.73 4.56 11.34
11/6/2020 6:45:00 AM 5.97 42.746 0.092 6.73 4.43 11.33
11/6/2020 7:00:00 AM 5.96 42.728 0.092 6.73 4.75 11.31
11/6/2020 7:15:00 AM 5.95 42.71 0.092 6.73 4.52 11.29
11/6/2020 7:30:00 AM 5.93 42.674 0.092 6.73 4.65 11.28
11/6/2020 7:45:00 AM 5.92 42.656 0.092 6.72 4.47 11.27
11/6/2020 8:00:00 AM 5.92 42.656 0.092 6.72 4.83 11.24
11/6/2020 8:15:00 AM 5.91 42.638 0.092 6.71 4.79 11.23
11/6/2020 8:30:00 AM 5.91 42.638 0.092 6.72 4.82 11.22
11/6/2020 8:45:00 AM 5.91 42.638 0.092 6.72 4.55 11.19
11/6/2020 9:00:00 AM 5.91 42.638 0.092 6.72 4.57 11.17
11/6/2020 9:15:00 AM 5.92 42.656 0.092 6.72 4.75 11.17
11/6/2020 9:30:00 AM 5.93 42.674 0.092 6.72 4.65 11.17
11/6/2020 9:45:00 AM 5.94 42.692 0.092 6.72 5 11.17
11/6/2020 10:00:00 AM 5.96 42.728 0.092 6.72 4.7 11.17
11/6/2020 10:15:00 AM 5.99 42.782 0.092 6.73 4.71 11.17
11/6/2020 10:30:00 AM 6.03 42.854 0.092 6.73 4.75 11.17
11/6/2020 10:45:00 AM 6.07 42.926 0.092 6.72 4.95 11.17
11/6/2020 11:00:00 AM 6.14 43.052 0.092 6.73 4.61 11.18
11/6/2020 11:15:00 AM 6.2 43.16 0.092 6.73 4.99 11.18
11/6/2020 11:30:00 AM 6.23 43.214 0.092 6.74 4.82 11.18
11/6/2020 11:45:00 AM 6.3 43.34 0.092 6.73 4.8 11.18
11/6/2020 12:00:00 PM 6.38 43.484 0.092 6.72 4.68 11.17
11/6/2020 12:15:00 PM 6.44 43.592 0.092 6.73 4.6 11.17
11/6/2020 12:30:00 PM 6.53 43.754 0.092 6.74 4.69 11.17
11/6/2020 12:45:00 PM 6.57 43.826 0.092 6.73 4.68 11.17
11/6/2020 1:00:00 PM 6.59 43.862 0.092 6.73 4.7 11.18
11/6/2020 1:15:00 PM 6.66 43.988 0.092 6.73 4.81 11.18
11/6/2020 1:30:00 PM 6.7 44.06 0.092 6.73 4.95 11.18
11/6/2020 1:45:00 PM 6.7 44.06 0.092 6.73 4.66 11.2
11/6/2020 2:00:00 PM 6.72 44.096 0.092 6.73 4.82 11.19
11/6/2020 2:15:00 PM 6.73 44.114 0.092 6.72 4.7 11.2
11/6/2020 2:30:00 PM 6.77 44.186 0.092 6.73 4.58 11.2
11/6/2020 2:45:00 PM 6.81 44.258 0.092 6.74 4.48 11.2
11/6/2020 3:00:00 PM 6.86 44.348 0.092 6.73 4.56 11.21
11/6/2020 3:15:00 PM 6.91 44.438 0.092 6.74 4.41 11.21
11/6/2020 3:30:00 PM 6.96 44.528 0.092 6.74 4.54 11.22
11/6/2020 3:45:00 PM 7.01 44.618 0.092 6.74 4.68 11.23
11/6/2020 4:00:00 PM 7.06 44.708 0.092 6.74 4.5 11.24
11/6/2020 4:15:00 PM 7.12 44.816 0.092 6.74 4.43 11.24
11/6/2020 4:30:00 PM 7.18 44.924 0.092 6.76 4.31 11.26
11/6/2020 4:45:00 PM 7.24 45.032 0.092 6.76 4.5 11.28
11/6/2020 5:00:00 PM 7.28 45.104 0.092 6.76 4.28 11.28
11/6/2020 5:15:00 PM 7.32 45.176 0.093 6.76 3.97 11.29
11/6/2020 5:30:00 PM 7.36 45.248 0.093 6.76 4.28 11.3
11/6/2020 5:45:00 PM 7.41 45.338 0.093 6.76 3.94 11.32
11/6/2020 6:00:00 PM 7.47 45.446 0.092 6.77 4 11.34
11/6/2020 6:15:00 PM 7.53 45.554 0.093 6.77 4.14 11.37
11/6/2020 6:30:00 PM 7.56 45.608 0.092 6.78 4.17 11.38
11/6/2020 6:45:00 PM 7.6 45.68 0.092 6.79 4.27 11.4
11/6/2020 7:00:00 PM 7.63 45.734 0.092 6.79 4.41 11.42
11/6/2020 7:15:00 PM 7.66 45.788 0.092 6.79 4.59 11.46
11/6/2020 7:30:00 PM 7.67 45.806 0.092 6.79 4.3 11.46
11/6/2020 7:45:00 PM 7.68 45.824 0.092 6.79 4.25 11.46
11/6/2020 8:00:00 PM 7.69 45.842 0.092 6.79 4.26 11.46
11/6/2020 8:15:00 PM 7.7 45.86 0.092 6.8 4.37 11.46
11/6/2020 8:30:00 PM 7.71 45.878 0.092 6.79 4.32 11.47
11/6/2020 8:45:00 PM 7.71 45.878 0.092 6.79 4.11 11.48
11/6/2020 9:00:00 PM 7.72 45.896 0.092 6.78 4.02 11.46
11/6/2020 9:15:00 PM 7.72 45.896 0.092 6.78 4.16 11.44
11/6/2020 9:30:00 PM 7.72 45.896 0.092 6.78 4.13 11.44
11/6/2020 9:45:00 PM 7.72 45.896 0.092 6.78 4.48 11.43
11/6/2020 10:00:00 PM 7.73 45.914 0.092 6.78 4.81 11.42
11/6/2020 10:15:00 PM 7.72 45.896 0.093 6.77 4.78 11.4
11/6/2020 10:30:00 PM 7.71 45.878 0.093 6.76 4.25 11.39
11/6/2020 10:45:00 PM 7.7 45.86 0.093 6.77 4.63 11.39
11/6/2020 11:00:00 PM 7.68 45.824 0.093 6.76 4.36 11.37
11/6/2020 11:15:00 PM 7.67 45.806 0.093 6.76 4.21 11.36
11/6/2020 11:30:00 PM 7.64 45.752 0.093 6.76 4.02 11.35
11/6/2020 11:45:00 PM 7.63 45.734 0.093 6.75 4.22 11.34
11/7/2020 12:00:00 AM 7.6 45.68 0.093 6.75 4.64 11.32
11/7/2020 12:15:00 AM 7.55 45.59 0.093 6.74 4.47 11.32
11/7/2020 12:30:00 AM 7.53 45.554 0.093 6.75 4.34 11.3
11/7/2020 12:45:00 AM 7.48 45.464 0.093 6.74 4.25 11.3
11/7/2020 1:00:00 AM 7.44 45.392 0.093 6.73 4.08 11.28
11/7/2020 1:15:00 AM 7.39 45.302 0.093 6.74 4.3 11.27
11/7/2020 1:30:00 AM 7.34 45.212 0.093 6.73 4.13 11.26
11/7/2020 1:45:00 AM 7.29 45.122 0.093 6.72 4.02 11.24
11/7/2020 2:00:00 AM 7.24 45.032 0.093 6.73 4.17 11.22
11/7/2020 2:15:00 AM 7.18 44.924 0.093 6.73 4.31 11.21
11/7/2020 2:30:00 AM 7.12 44.816 0.093 6.73 4.51 11.21
11/7/2020 2:45:00 AM 7.05 44.69 0.093 6.72 4.35 11.18
11/7/2020 3:00:00 AM 7.01 44.618 0.093 6.72 4.78 11.17
11/7/2020 3:15:00 AM 6.96 44.528 0.093 6.72 4.49 11.14
11/7/2020 3:30:00 AM 6.93 44.474 0.093 6.72 4.1 11.14
11/7/2020 3:45:00 AM 6.88 44.384 0.093 6.72 4.38 11.12
11/7/2020 4:00:00 AM 6.83 44.294 0.093 6.72 4.96 11.11
11/7/2020 4:15:00 AM 6.79 44.222 0.093 6.71 4.79 11.08
11/7/2020 4:30:00 AM 6.75 44.15 0.093 6.71 4.69 11.08
11/7/2020 4:45:00 AM 6.71 44.078 0.093 6.71 4.12 11.06
11/7/2020 5:00:00 AM 6.66 43.988 0.093 6.71 4.44 11.05
11/7/2020 5:15:00 AM 6.62 43.916 0.093 6.71 4.49 11.04
11/7/2020 5:30:00 AM 6.59 43.862 0.093 6.7 4.69 11.03
11/7/2020 5:45:00 AM 6.56 43.808 0.093 6.71 4.63 11.01
11/7/2020 6:00:00 AM 6.52 43.736 0.093 6.7 4.88 11
11/7/2020 6:15:00 AM 6.49 43.682 0.093 6.7 4.58 10.98
11/7/2020 6:30:00 AM 6.45 43.61 0.093 6.7 4.79 10.98
11/7/2020 6:45:00 AM 6.43 43.574 0.093 6.7 4.5 10.97
11/7/2020 7:00:00 AM 6.41 43.538 0.093 6.7 5.15 10.94
11/7/2020 7:15:00 AM 6.38 43.484 0.093 6.69 5 10.93
11/7/2020 7:30:00 AM 6.35 43.43 0.093 6.69 4.74 10.91
11/7/2020 7:45:00 AM 6.32 43.376 0.093 6.69 4.76 10.9
11/7/2020 8:00:00 AM 6.3 43.34 0.093 6.69 5.31 10.9
11/7/2020 8:15:00 AM 6.29 43.322 0.093 6.69 5.16 10.89
11/7/2020 8:30:00 AM 6.28 43.304 0.093 6.7 5.23 10.88
11/7/2020 8:45:00 AM 6.28 43.304 0.093 6.7 4.93 10.89
11/7/2020 9:00:00 AM 6.28 43.304 0.093 6.7 4.88 10.89
11/7/2020 9:15:00 AM 6.29 43.322 0.093 6.7 5.05 10.89
11/7/2020 9:30:00 AM 6.3 43.34 0.093 6.7 4.34 10.9
11/7/2020 9:45:00 AM 6.32 43.376 0.093 6.7 4.69 10.9
11/7/2020 10:00:00 AM 6.34 43.412 0.093 6.7 4.43 10.9
11/7/2020 10:15:00 AM 6.36 43.448 0.093 6.71 4.88 10.89
11/7/2020 10:30:00 AM 6.4 43.52 0.093 6.71 4.57 10.9
11/7/2020 10:45:00 AM 6.43 43.574 0.093 6.71 4.43 10.9
11/7/2020 11:00:00 AM 6.47 43.646 0.093 6.7 4.38 10.9
11/7/2020 11:15:00 AM 6.51 43.718 0.093 6.7 4.5 10.9
11/7/2020 11:30:00 AM 6.54 43.772 0.093 6.7 4.7 10.88
11/7/2020 11:45:00 AM 6.55 43.79 0.093 6.71 4.53 10.89
11/7/2020 12:00:00 PM 6.55 43.79 0.093 6.7 4.49 10.89
11/7/2020 12:15:00 PM 6.6 43.88 0.093 6.71 4.56 10.89
11/7/2020 12:30:00 PM 6.69 44.042 0.093 6.71 4.78 10.9
11/7/2020 12:45:00 PM 6.76 44.168 0.093 6.72 5.12 10.89
11/7/2020 1:00:00 PM 6.79 44.222 0.093 6.72 4.37 10.9
11/7/2020 1:15:00 PM 6.9 44.42 0.093 6.72 4.57 10.9
11/7/2020 1:30:00 PM 6.96 44.528 0.093 6.72 4.4 10.89
11/7/2020 1:45:00 PM 7.09 44.762 0.093 6.72 4.29 10.9
11/7/2020 2:00:00 PM 7.19 44.942 0.093 6.72 4.48 10.89
11/7/2020 2:15:00 PM 7.26 45.068 0.093 6.72 4.21 10.88
11/7/2020 2:30:00 PM 7.29 45.122 0.093 6.72 4.22 10.9
11/7/2020 2:45:00 PM 7.31 45.158 0.093 6.71 5.53 10.91
11/7/2020 3:00:00 PM 7.37 45.266 0.093 6.72 4.45 10.92
11/7/2020 3:15:00 PM 7.4 45.32 0.093 6.72 4.33 10.93
11/7/2020 3:30:00 PM 7.39 45.302 0.093 6.73 4.45 10.93
11/7/2020 3:45:00 PM 7.4 45.32 0.093 6.72 4.56 10.93
11/7/2020 4:00:00 PM 7.44 45.392 0.093 6.71 4.13 10.94
11/7/2020 4:15:00 PM 7.48 45.464 0.093 6.71 4.04 10.95
11/7/2020 4:30:00 PM 7.49 45.482 0.093 6.72 3.8 10.93
11/7/2020 4:45:00 PM 7.51 45.518 0.093 6.72 4.12 10.94
11/7/2020 5:00:00 PM 7.52 45.536 0.093 6.72 4.34 10.95
11/7/2020 5:15:00 PM 7.57 45.626 0.093 6.73 4.2 10.98
11/7/2020 5:30:00 PM 7.6 45.68 0.093 6.73 4.24 11
11/7/2020 5:45:00 PM 7.63 45.734 0.093 6.74 4.96 11
11/7/2020 6:00:00 PM 7.67 45.806 0.093 6.74 4.22 11.01
11/7/2020 6:15:00 PM 7.7 45.86 0.093 6.74 3.99 11
11/7/2020 6:30:00 PM 7.74 45.932 0.093 6.74 4.11 11.02
11/7/2020 6:45:00 PM 7.78 46.004 0.093 6.74 4.18 11.02
11/7/2020 7:00:00 PM 7.82 46.076 0.093 6.74 4.18 11.03
11/7/2020 7:15:00 PM 7.84 46.112 0.093 6.74 4.12 11.03
11/7/2020 7:30:00 PM 7.88 46.184 0.093 6.75 4.09 11.02
11/7/2020 7:45:00 PM 7.91 46.238 0.093 6.75 4.1 11.06
11/7/2020 8:00:00 PM 7.92 46.256 0.093 6.75 4.09 11.05
11/7/2020 8:15:00 PM 7.94 46.292 0.093 6.75 4.33 11.06
11/7/2020 8:30:00 PM 7.96 46.328 0.093 6.75 4.17 11.06
11/7/2020 8:45:00 PM 7.98 46.364 0.093 6.75 4.62 11.07
11/7/2020 9:00:00 PM 8.01 46.418 0.093 6.75 4.24 11.11
11/7/2020 9:15:00 PM 8.03 46.454 0.093 6.76 28.07 11.13
11/7/2020 9:30:00 PM 8.07 46.526 0.093 6.76 6.97 11.16
11/7/2020 9:45:00 PM 8.07 46.526 0.093 6.76 10 11.2
11/7/2020 10:00:00 PM 8.08 46.544 0.093 6.76 5.36 11.19
11/7/2020 10:15:00 PM 8.08 46.544 0.093 6.75 4.74 11.15
11/7/2020 10:30:00 PM 8.08 46.544 0.093 6.75 4.56 11.14
11/7/2020 10:45:00 PM 8.07 46.526 0.093 6.75 4.4 11.15
11/7/2020 11:00:00 PM 8.07 46.526 0.093 6.75 4.77 11.14
11/7/2020 11:15:00 PM 8.07 46.526 0.093 6.74 4.96 11.12
11/7/2020 11:30:00 PM 8.04 46.472 0.093 6.74 5.13 11.11
11/7/2020 11:45:00 PM 8.03 46.454 0.093 6.74 4.59 11.1
11/8/2020 12:00:00 AM 8.02 46.436 0.093 6.74 4.16 11.08
11/8/2020 12:15:00 AM 8.01 46.418 0.093 6.73 4.62 11.06
11/8/2020 12:30:00 AM 7.98 46.364 0.093 6.74 6.94 11.04
11/8/2020 12:45:00 AM 7.96 46.328 0.093 6.73 4.23 11.04
11/8/2020 1:00:00 AM 7.92 46.256 0.093 6.73 4.44 11.02
11/8/2020 1:15:00 AM 7.89 46.202 0.093 6.73 4.05 11.02
11/8/2020 1:30:00 AM 7.85 46.13 0.093 6.72 4.15 11.01
11/8/2020 1:45:00 AM 7.8 46.04 0.093 6.72 4.97 11.02
11/8/2020 2:00:00 AM 7.75 45.95 0.093 6.72 4.16 11.01
11/8/2020 2:15:00 AM 7.71 45.878 0.093 6.71 4.13 11
11/8/2020 2:30:00 AM 7.67 45.806 0.093 6.71 4.57 10.98
11/8/2020 2:45:00 AM 7.61 45.698 0.093 6.71 5.12 10.97
11/8/2020 3:00:00 AM 7.57 45.626 0.093 6.71 4.39 10.97
11/8/2020 3:15:00 AM 7.52 45.536 0.093 6.71 4.77 10.94
11/8/2020 3:30:00 AM 7.47 45.446 0.093 6.71 4.52 10.94
11/8/2020 3:45:00 AM 7.41 45.338 0.093 6.71 4.44 10.92
11/8/2020 4:00:00 AM 7.37 45.266 0.093 6.7 4.48 10.9
11/8/2020 4:15:00 AM 7.3 45.14 0.093 6.7 6.47 10.89
11/8/2020 4:30:00 AM 7.25 45.05 0.093 6.7 9.32 10.87
11/8/2020 4:45:00 AM 7.2 44.96 0.093 6.7 4.6 10.86
11/8/2020 5:00:00 AM 7.14 44.852 0.093 6.7 4.37 10.85
11/8/2020 5:15:00 AM 7.09 44.762 0.093 6.7 4.83 10.83
11/8/2020 5:30:00 AM 7.03 44.654 0.093 6.7 4.31 10.83
11/8/2020 5:45:00 AM 6.99 44.582 0.093 6.69 4.83 10.82
11/8/2020 6:00:00 AM 6.93 44.474 0.093 6.69 4.58 10.81
11/8/2020 6:15:00 AM 6.88 44.384 0.093 6.68 4.54 10.79
11/8/2020 6:30:00 AM 6.85 44.33 0.093 6.69 5.02 10.78
11/8/2020 6:45:00 AM 6.8 44.24 0.093 6.69 4.48 10.77
11/8/2020 7:00:00 AM 6.76 44.168 0.093 6.69 4.68 10.76
11/8/2020 7:15:00 AM 6.72 44.096 0.093 6.69 4.87 10.74
11/8/2020 7:30:00 AM 6.68 44.024 0.093 6.68 5.25 10.73
11/8/2020 7:45:00 AM 6.64 43.952 0.093 6.68 5.04 10.71
11/8/2020 8:00:00 AM 6.6 43.88 0.093 6.68 4.67 10.7
11/8/2020 8:15:00 AM 6.57 43.826 0.093 6.68 4.67 10.7
11/8/2020 8:30:00 AM 6.55 43.79 0.093 6.68 4.81 10.69
11/8/2020 8:45:00 AM 6.53 43.754 0.093 6.68 4.78 10.68
11/8/2020 9:00:00 AM 6.51 43.718 0.093 6.69 4.9 10.69
11/8/2020 9:15:00 AM 6.52 43.736 0.093 6.69 4.77 10.7
11/8/2020 9:30:00 AM 6.52 43.736 0.093 6.69 4.91 10.7
11/8/2020 9:45:00 AM 6.53 43.754 0.093 6.69 4.66 10.72
11/8/2020 10:00:00 AM 6.55 43.79 0.093 6.7 4.62 10.74
11/8/2020 10:15:00 AM 6.57 43.826 0.093 6.7 4.71 10.75
11/8/2020 10:30:00 AM 6.58 43.844 0.093 6.7 6.36 10.74
11/8/2020 10:45:00 AM 6.61 43.898 0.093 6.7 4.52 10.73
11/8/2020 11:00:00 AM 6.64 43.952 0.093 6.7 4.85 10.74
11/8/2020 11:15:00 AM 6.67 44.006 0.093 6.7 4.96 10.74
11/8/2020 11:30:00 AM 6.7 44.06 0.093 6.7 5.34 10.75
11/8/2020 11:45:00 AM 6.71 44.078 0.093 6.7 4.79 10.75
11/8/2020 12:00:00 PM 6.72 44.096 0.093 6.7 4.54 10.76
11/8/2020 12:15:00 PM 6.73 44.114 0.093 6.7 5.09 10.76
11/8/2020 12:30:00 PM 6.75 44.15 0.093 6.7 4.53 10.74
11/8/2020 12:45:00 PM 6.78 44.204 0.093 6.7 4.51 10.73
11/8/2020 1:00:00 PM 6.8 44.24 0.093 6.7 4.9 10.74
11/8/2020 1:15:00 PM 6.81 44.258 0.093 6.7 4.68 10.74
11/8/2020 1:30:00 PM 6.82 44.276 0.093 6.7 4.68 10.73
11/8/2020 1:45:00 PM 6.86 44.348 0.093 6.7 4.67 10.75
11/8/2020 2:00:00 PM 6.9 44.42 0.093 6.7 4.37 10.74
11/8/2020 2:15:00 PM 6.92 44.456 0.093 6.7 4.48 10.73
11/8/2020 2:30:00 PM 6.97 44.546 0.093 6.7 4.57 10.73
11/8/2020 2:45:00 PM 6.97 44.546 0.093 6.7 4.7 10.73
11/8/2020 3:00:00 PM 6.96 44.528 0.093 6.7 4.73 10.73
11/8/2020 3:15:00 PM 7.04 44.672 0.093 6.7 4.48 10.73
11/8/2020 3:30:00 PM 7.03 44.654 0.093 6.69 4.43 10.72
11/8/2020 3:45:00 PM 7.11 44.798 0.093 6.7 4.5 10.73
11/8/2020 4:00:00 PM 7.16 44.888 0.093 6.71 4.71 10.74
11/8/2020 4:15:00 PM 7.17 44.906 0.093 6.7 4.35 10.74
11/8/2020 4:30:00 PM 7.2 44.96 0.093 6.7 4.66 10.73
11/8/2020 4:45:00 PM 7.26 45.068 0.093 6.71 4.32 10.74
11/8/2020 5:00:00 PM 7.31 45.158 0.093 6.7 4.32 10.74
11/8/2020 5:15:00 PM 7.36 45.248 0.093 6.71 4.95 10.76
11/8/2020 5:30:00 PM 7.43 45.374 0.093 6.71 4.58 10.77
11/8/2020 5:45:00 PM 7.45 45.41 0.093 6.71 4.86 10.78
11/8/2020 6:00:00 PM 7.5 45.5 0.093 6.71 4.1 10.79
11/8/2020 6:15:00 PM 7.5 45.5 0.093 6.7 4.68 10.8
11/8/2020 6:30:00 PM 7.53 45.554 0.093 6.71 4.24 10.81
11/8/2020 6:45:00 PM 7.55 45.59 0.093 6.71 4.38 10.8
11/8/2020 7:00:00 PM 7.58 45.644 0.093 6.7 4.24 10.8
11/8/2020 7:15:00 PM 7.62 45.716 0.093 6.71 4.7 10.81
11/8/2020 7:30:00 PM 7.67 45.806 0.093 6.71 4.97 10.81
11/8/2020 7:45:00 PM 7.68 45.824 0.093 6.71 4.52 10.83
11/8/2020 8:00:00 PM 7.74 45.932 0.093 6.71 4.74 10.83
11/8/2020 8:15:00 PM 7.78 46.004 0.093 6.71 4.19 10.85
11/8/2020 8:30:00 PM 7.79 46.022 0.093 6.71 4.75 10.85
11/8/2020 8:45:00 PM 7.83 46.094 0.093 6.71 4.27 10.86
11/8/2020 9:00:00 PM 7.93 46.274 0.093 6.71 4.82 10.85
11/8/2020 9:15:00 PM 7.93 46.274 0.093 6.72 5 10.87
11/8/2020 9:30:00 PM 7.95 46.31 0.093 6.72 4.62 10.86
11/8/2020 9:45:00 PM 7.98 46.364 0.093 6.72 4.86 10.86
11/8/2020 10:00:00 PM 8.02 46.436 0.093 6.72 4.4 10.88
11/8/2020 10:15:00 PM 8.01 46.418 0.093 6.72 4.63 10.86
11/8/2020 10:30:00 PM 8.01 46.418 0.093 6.71 4.37 10.86
11/8/2020 10:45:00 PM 8.02 46.436 0.093 6.72 4.3 10.87
11/8/2020 11:00:00 PM 8.01 46.418 0.093 6.72 4.62 10.87
11/8/2020 11:15:00 PM 8 46.4 0.093 6.72 4.39 10.87
11/8/2020 11:30:00 PM 7.97 46.346 0.093 6.72 4.34 10.87
11/8/2020 11:45:00 PM 7.96 46.328 0.093 6.72 4.54 10.87
11/9/2020 12:00:00 AM 7.94 46.292 0.093 6.71 4.28 10.86
11/9/2020 12:15:00 AM 7.93 46.274 0.093 6.71 4.06 10.85
11/9/2020 12:30:00 AM 7.89 46.202 0.093 6.71 4.53 10.86
11/9/2020 12:45:00 AM 7.83 46.094 0.093 6.71 4.39 10.85
11/9/2020 1:00:00 AM 7.82 46.076 0.093 6.71 4.33 10.84
11/9/2020 1:15:00 AM 7.78 46.004 0.093 6.71 4.27 10.84
11/9/2020 1:30:00 AM 7.73 45.914 0.093 6.71 4.39 10.83
11/9/2020 1:45:00 AM 7.69 45.842 0.093 6.71 4.51 10.82
11/9/2020 2:00:00 AM 7.65 45.77 0.094 6.71 4.24 10.81
11/9/2020 2:15:00 AM 7.59 45.662 0.094 6.7 4.27 10.8
11/9/2020 2:30:00 AM 7.54 45.572 0.094 6.69 4.52 10.8
11/9/2020 2:45:00 AM 7.49 45.482 0.094 6.7 4.95 10.79
11/9/2020 3:00:00 AM 7.43 45.374 0.094 6.7 4.27 10.78
11/9/2020 3:15:00 AM 7.38 45.284 0.094 6.7 4.44 10.78
11/9/2020 3:30:00 AM 7.33 45.194 0.094 6.7 5.5 10.76
11/9/2020 3:45:00 AM 7.28 45.104 0.094 6.69 4.67 10.76
11/9/2020 4:00:00 AM 7.24 45.032 0.094 6.7 4.65 10.75
11/9/2020 4:15:00 AM 7.2 44.96 0.094 6.7 4.16 10.74
11/9/2020 4:30:00 AM 7.16 44.888 0.094 6.7 4.63 10.73
11/9/2020 4:45:00 AM 7.12 44.816 0.094 6.7 4.52 10.72
11/9/2020 5:00:00 AM 7.06 44.708 0.093 6.7 4.33 10.71
11/9/2020 5:15:00 AM 7.04 44.672 0.093 6.7 4.59 10.7
11/9/2020 5:30:00 AM 7 44.6 0.093 6.7 5.62 10.69
11/9/2020 5:45:00 AM 6.95 44.51 0.093 6.7 4.44 10.69
11/9/2020 6:00:00 AM 6.94 44.492 0.093 6.7 4.68 10.68
11/9/2020 6:15:00 AM 6.9 44.42 0.093 6.69 4.43 10.66
11/9/2020 6:30:00 AM 6.88 44.384 0.093 6.69 5.21 10.65
11/9/2020 6:45:00 AM 6.85 44.33 0.093 6.69 5.29 10.64
11/9/2020 7:00:00 AM 6.84 44.312 0.093 6.69 5.42 10.63
11/9/2020 7:15:00 AM 6.8 44.24 0.093 6.68 4.57 10.6
11/9/2020 7:30:00 AM 6.78 44.204 0.093 6.68 4.65 10.59
11/9/2020 7:45:00 AM 6.75 44.15 0.093 6.68 4.96 10.58
11/9/2020 8:00:00 AM 6.73 44.114 0.093 6.68 5.58 10.56
11/9/2020 8:15:00 AM 6.72 44.096 0.093 6.67 4.84 10.55
11/9/2020 8:30:00 AM 6.71 44.078 0.093 6.67 4.76 10.53
11/9/2020 8:45:00 AM 6.73 44.114 0.093 6.68 4.99 10.52
11/9/2020 9:00:00 AM 6.73 44.114 0.093 6.68 5.03 10.52
11/9/2020 9:15:00 AM 6.74 44.132 0.093 6.68 4.87 10.52
11/9/2020 9:30:00 AM 6.76 44.168 0.093 6.67 4.63 10.51
11/9/2020 9:45:00 AM 6.78 44.204 0.093 6.68 4.68 10.51
11/9/2020 10:00:00 AM 6.81 44.258 0.093 6.68 4.69 10.52
11/9/2020 10:15:00 AM 6.86 44.348 0.093 6.68 4.74 10.51
11/9/2020 10:30:00 AM 6.89 44.402 0.093 6.68 4.65 10.5
11/9/2020 10:45:00 AM 6.94 44.492 0.093 6.67 4.97 10.51
11/9/2020 11:00:00 AM 6.97 44.546 0.093 6.68 4.62 10.49
11/9/2020 11:15:00 AM 7.01 44.618 0.093 6.68 4.68 10.49
11/9/2020 11:30:00 AM 7.03 44.654 0.093 6.69 4.8 10.48
11/9/2020 11:45:00 AM 7.08 44.744 0.093 6.68 4.91 10.48
11/9/2020 12:00:00 PM 7.09 44.762 0.093 6.68 4.71 10.47
11/9/2020 12:15:00 PM 7.13 44.834 0.093 6.68 4.5 10.48
11/9/2020 12:30:00 PM 7.17 44.906 0.093 6.68 4.84 10.48
11/9/2020 12:45:00 PM 7.18 44.924 0.093 6.68 4.91 10.49
11/9/2020 1:00:00 PM 7.24 45.032 0.093 6.69 4.42 10.49
11/9/2020 1:15:00 PM 7.22 44.996 0.093 6.68 4.89 10.49
11/9/2020 1:30:00 PM 7.24 45.032 0.093 6.68 4.43 10.49
11/9/2020 1:45:00 PM 7.26 45.068 0.093 6.68 4.74 10.49
11/9/2020 2:00:00 PM 7.3 45.14 0.093 6.69 4.76 10.51
11/9/2020 2:15:00 PM 7.33 45.194 0.093 6.69 4.58 10.52
11/9/2020 2:30:00 PM 7.37 45.266 0.093 6.7 4.88 10.53
11/9/2020 2:45:00 PM 7.4 45.32 0.093 6.69 4.46 10.54
11/9/2020 3:00:00 PM 7.42 45.356 0.093 6.69 4.34 10.55
11/9/2020 3:15:00 PM 7.44 45.392 0.093 6.69 4.89 10.56
11/9/2020 3:30:00 PM 7.48 45.464 0.093 6.69 4.32 10.57
11/9/2020 3:45:00 PM 7.53 45.554 0.093 6.7 4.78 10.59
11/9/2020 4:00:00 PM 7.61 45.698 0.093 6.7 4.39 10.6
11/9/2020 4:15:00 PM 7.64 45.752 0.093 6.71 4.81 10.64
11/9/2020 4:30:00 PM 7.65 45.77 0.093 6.7 5.25 10.65
11/9/2020 4:45:00 PM 7.69 45.842 0.093 6.71 5.91 10.67
11/9/2020 5:00:00 PM 7.73 45.914 0.093 6.71 4.88 10.66
11/9/2020 5:15:00 PM 7.78 46.004 0.093 6.71 4.69 10.67
11/9/2020 5:30:00 PM 7.82 46.076 0.093 6.72 4.71 10.7
11/9/2020 5:45:00 PM 7.87 46.166 0.093 6.72 4.48 10.72
11/9/2020 6:00:00 PM 7.9 46.22 0.093 6.72 4.57 10.74
11/9/2020 6:15:00 PM 7.94 46.292 0.093 6.72 4.39 10.74
11/9/2020 6:30:00 PM 8 46.4 0.093 6.72 4.4 10.77
11/9/2020 6:45:00 PM 8.06 46.508 0.093 6.73 4.54 10.8
11/9/2020 7:00:00 PM 8.11 46.598 0.093 6.73 4.24 10.83
11/9/2020 7:15:00 PM 8.16 46.688 0.093 6.74 4.19 10.85
11/9/2020 7:30:00 PM 8.2 46.76 0.093 6.74 4.41 10.87
11/9/2020 7:45:00 PM 8.25 46.85 0.093 6.74 4.59 10.9
11/9/2020 8:00:00 PM 8.31 46.958 0.093 6.74 4.41 10.92
11/9/2020 8:15:00 PM 8.36 47.048 0.093 6.75 4.12 10.93
11/9/2020 8:30:00 PM 8.39 47.102 0.093 6.75 3.9 10.95
11/9/2020 8:45:00 PM 8.45 47.21 0.093 6.77 4.07 10.99
11/9/2020 9:00:00 PM 8.48 47.264 0.093 6.76 4.16 11
11/9/2020 9:15:00 PM 8.51 47.318 0.093 6.77 4.25 11.02
11/9/2020 9:30:00 PM 8.52 47.336 0.093 6.77 4.19 11.02
11/9/2020 9:45:00 PM 8.53 47.354 0.093 6.77 4.5 11.03
11/9/2020 10:00:00 PM 8.53 47.354 0.093 6.76 4.57 11.03
11/9/2020 10:15:00 PM 8.52 47.336 0.093 6.77 4.06 11.03
11/9/2020 10:30:00 PM 8.51 47.318 0.093 6.77 4.26 11.03
11/9/2020 10:45:00 PM 8.49 47.282 0.093 6.76 4.15 11.02
11/9/2020 11:00:00 PM 8.47 47.246 0.093 6.76 4.58 11.02
11/9/2020 11:15:00 PM 8.44 47.192 0.093 6.76 4.15 11.01
11/9/2020 11:30:00 PM 8.42 47.156 0.093 6.76 4.91 11.02
11/9/2020 11:45:00 PM 8.39 47.102 0.093 6.75 4.48 11.01
11/10/2020 12:00:00 AM 8.35 47.03 0.093 6.75 4.79 11
11/10/2020 12:15:00 AM 8.32 46.976 0.093 6.75 4.04 11
11/10/2020 12:30:00 AM 8.28 46.904 0.093 6.75 4.02 11
11/10/2020 12:45:00 AM 8.25 46.85 0.093 6.75 4.33 10.99
11/10/2020 1:00:00 AM 8.21 46.778 0.093 6.75 4.07 10.97
11/10/2020 1:15:00 AM 8.18 46.724 0.093 6.75 4.27 10.96
11/10/2020 1:30:00 AM 8.15 46.67 0.093 6.74 4.32 10.93
11/10/2020 1:45:00 AM 8.11 46.598 0.093 6.73 4.65 10.92
11/10/2020 2:00:00 AM 8.08 46.544 0.093 6.74 4.46 10.89
11/10/2020 2:15:00 AM 8.07 46.526 0.093 6.73 4.45 10.87
11/10/2020 2:30:00 AM 8.03 46.454 0.093 6.72 4.54 10.84
11/10/2020 2:45:00 AM 8 46.4 0.093 6.72 4.63 10.82
11/10/2020 3:00:00 AM 7.97 46.346 0.093 6.72 4.38 10.8
11/10/2020 3:15:00 AM 7.95 46.31 0.093 6.72 4.59 10.79
11/10/2020 3:30:00 AM 7.91 46.238 0.093 6.72 4.31 10.77
11/10/2020 3:45:00 AM 7.88 46.184 0.093 6.72 4.67 10.75
11/10/2020 4:00:00 AM 7.86 46.148 0.093 6.71 4.3 10.72
11/10/2020 4:15:00 AM 7.84 46.112 0.093 6.71 4.57 10.71
11/10/2020 4:30:00 AM 7.81 46.058 0.093 6.71 4.48 10.69
11/10/2020 4:45:00 AM 7.79 46.022 0.093 6.7 4.36 10.68
11/10/2020 5:00:00 AM 7.78 46.004 0.093 6.7 4.44 10.66
11/10/2020 5:15:00 AM 7.77 45.986 0.093 6.7 5.24 10.64
11/10/2020 5:30:00 AM 7.74 45.932 0.093 6.69 5.73 10.62
11/10/2020 5:45:00 AM 7.72 45.896 0.093 6.69 4.88 10.61
11/10/2020 6:00:00 AM 7.71 45.878 0.093 6.69 4.46 10.59
11/10/2020 6:15:00 AM 7.68 45.824 0.093 6.69 4.97 10.56
11/10/2020 6:30:00 AM 7.67 45.806 0.093 6.69 4.93 10.53
11/10/2020 6:45:00 AM 7.66 45.788 0.093 6.69 4.87 10.52
11/10/2020 7:00:00 AM 7.63 45.734 0.093 6.68 5.36 10.47
11/10/2020 7:15:00 AM 7.63 45.734 0.093 6.68 5.45 10.47
11/10/2020 7:30:00 AM 7.61 45.698 0.093 6.68 5.58 10.45
11/10/2020 7:45:00 AM 7.61 45.698 0.093 6.68 5.57 10.44
11/10/2020 8:00:00 AM 7.59 45.662 0.094 6.68 5.53 10.42
11/10/2020 8:15:00 AM 7.6 45.68 0.094 6.67 5.31 10.4
11/10/2020 8:30:00 AM 7.6 45.68 0.094 6.67 4.95 10.38
11/10/2020 8:45:00 AM 7.6 45.68 0.094 6.67 5.26 10.37
11/10/2020 9:00:00 AM 7.61 45.698 0.094 6.66 4.77 10.35
11/10/2020 9:15:00 AM 7.62 45.716 0.094 6.66 4.91 10.34
11/10/2020 9:30:00 AM 7.63 45.734 0.094 6.66 5.28 10.33
11/10/2020 9:45:00 AM 7.65 45.77 0.094 6.66 4.87 10.33
11/10/2020 10:00:00 AM 7.67 45.806 0.094 6.67 4.85 10.33
11/10/2020 10:15:00 AM 7.7 45.86 0.094 6.67 4.87 10.35
11/10/2020 10:30:00 AM 7.74 45.932 0.094 6.67 5.04 10.34
11/10/2020 10:45:00 AM 7.78 46.004 0.094 6.67 4.79 10.34
11/10/2020 11:00:00 AM 7.8 46.04 0.094 6.68 4.57 10.33
11/10/2020 11:15:00 AM 7.85 46.13 0.094 6.67 4.68 10.31
11/10/2020 11:30:00 AM 7.87 46.166 0.094 6.67 4.64 10.3
11/10/2020 11:45:00 AM 7.9 46.22 0.094 6.67 5.49 10.3
11/10/2020 12:00:00 PM 7.93 46.274 0.094 6.67 5.1 10.3
11/10/2020 12:15:00 PM 7.95 46.31 0.094 6.67 5.32 10.3
11/10/2020 12:30:00 PM 7.96 46.328 0.094 6.67 5.21 10.31
11/10/2020 12:45:00 PM 7.99 46.382 0.094 6.67 4.72 10.31
11/10/2020 1:00:00 PM 8 46.4 0.094 6.67 4.97 10.29
11/10/2020 1:15:00 PM 8.02 46.436 0.094 6.68 5.11 10.31
11/10/2020 1:30:00 PM 8.06 46.508 0.094 6.68 4.68 10.31
11/10/2020 1:45:00 PM 8.08 46.544 0.094 6.67 4.89 10.32
11/10/2020 2:00:00 PM 8.1 46.58 0.094 6.68 5.08 10.32
11/10/2020 2:15:00 PM 8.1 46.58 0.094 6.68 4.73 10.32
11/10/2020 2:30:00 PM 8.14 46.652 0.094 6.68 4.47 10.34
11/10/2020 2:45:00 PM 8.17 46.706 0.094 6.68 4.82 10.35
11/10/2020 3:00:00 PM 8.19 46.742 0.094 6.68 4.89 10.36
11/10/2020 3:15:00 PM 8.35 47.03 0.094 6.7 4.85 10.38
11/10/2020 3:30:00 PM 8.28 46.904 0.094 6.68 4.54 10.35
11/10/2020 3:45:00 PM 8.53 47.354 0.094 6.71 4.38 10.38
11/10/2020 4:00:00 PM 8.51 47.318 0.094 6.7 4.65 10.38
11/10/2020 4:15:00 PM 8.57 47.426 0.094 6.69 4.99 10.38
11/10/2020 4:30:00 PM 8.64 47.552 0.094 6.7 4.32 10.4
11/10/2020 4:45:00 PM 8.64 47.552 0.094 6.69 4.65 10.4
11/10/2020 5:00:00 PM 8.72 47.696 0.094 6.7 4.37 10.42
11/10/2020 5:15:00 PM 8.75 47.75 0.094 6.7 4.61 10.41
11/10/2020 5:30:00 PM 8.87 47.966 0.094 6.71 4.48 10.44
11/10/2020 5:45:00 PM 8.87 47.966 0.094 6.7 4.74 10.43
11/10/2020 6:00:00 PM 8.98 48.164 0.094 6.71 4.51 10.45
11/10/2020 6:15:00 PM 8.99 48.182 0.094 6.71 4.5 10.46
11/10/2020 6:30:00 PM 9 48.2 0.094 6.71 4.7 10.46
11/10/2020 6:45:00 PM 9.03 48.254 0.094 6.71 4.29 10.47
11/10/2020 7:00:00 PM 9.05 48.29 0.094 6.7 4.42 10.48
11/10/2020 7:15:00 PM 9.04 48.272 0.094 6.7 4.84 10.48
11/10/2020 7:30:00 PM 9.01 48.218 0.094 6.7 9.11 10.47
11/10/2020 7:45:00 PM 9 48.2 0.094 6.69 10.7 10.46
11/10/2020 8:00:00 PM 9 48.2 0.094 6.69 4.99 10.45
11/10/2020 8:15:00 PM 9.03 48.254 0.094 6.7 4.93 10.44
11/10/2020 8:30:00 PM 9.04 48.272 0.094 6.69 4.79 10.43
11/10/2020 8:45:00 PM 9.1 48.38 0.094 6.7 4.39 10.45
11/10/2020 9:00:00 PM 9.15 48.47 0.094 6.71 5.13 10.45
11/10/2020 9:15:00 PM 9.15 48.47 0.094 6.7 4.59 10.46
11/10/2020 9:30:00 PM 9.18 48.524 0.094 6.71 4.33 10.47
11/10/2020 9:45:00 PM 9.21 48.578 0.094 6.71 4.19 10.48
11/10/2020 10:00:00 PM 9.23 48.614 0.094 6.71 4.14 10.48
11/10/2020 10:15:00 PM 9.24 48.632 0.094 6.71 4.23 10.49
11/10/2020 10:30:00 PM 9.28 48.704 0.094 6.71 4.87 10.49
11/10/2020 10:45:00 PM 9.28 48.704 0.094 6.7 5.61 10.48
11/10/2020 11:00:00 PM 9.29 48.722 0.094 6.7 4.76 10.46
11/10/2020 11:15:00 PM 9.33 48.794 0.094 6.71 4.47 10.48
11/10/2020 11:30:00 PM 9.37 48.866 0.094 6.71 4.8 10.5
11/10/2020 11:45:00 PM 9.38 48.884 0.094 6.71 4.29 10.51
11/11/2020 12:00:00 AM 9.41 48.938 0.094 6.72 4.22 10.53
11/11/2020 12:15:00 AM 9.42 48.956 0.094 6.71 4.28 10.51
11/11/2020 12:30:00 AM 9.42 48.956 0.094 6.71 4.34 10.51
11/11/2020 12:45:00 AM 9.45 49.01 0.094 6.73 4.44 10.56
11/11/2020 1:00:00 AM 9.47 49.046 0.094 6.73 3.97 10.59
11/11/2020 1:15:00 AM 9.46 49.028 0.094 6.73 4.09 10.59
11/11/2020 1:30:00 AM 9.45 49.01 0.094 6.73 4.22 10.61
11/11/2020 1:45:00 AM 9.44 48.992 0.094 6.73 4.03 10.59
11/11/2020 2:00:00 AM 9.42 48.956 0.094 6.73 4.21 10.59
11/11/2020 2:15:00 AM 9.41 48.938 0.094 6.72 4.3 10.57
11/11/2020 2:30:00 AM 9.4 48.92 0.094 6.73 4.65 10.56
11/11/2020 2:45:00 AM 9.38 48.884 0.094 6.72 4.67 10.55
11/11/2020 3:00:00 AM 9.36 48.848 0.094 6.72 4.72 10.54
11/11/2020 3:15:00 AM 9.33 48.794 0.094 6.71 4.91 10.51
11/11/2020 3:30:00 AM 9.3 48.74 0.094 6.71 4.78 10.5
11/11/2020 3:45:00 AM 9.28 48.704 0.094 6.71 4.8 10.47
11/11/2020 4:00:00 AM 9.25 48.65 0.094 6.71 4.58 10.46
11/11/2020 4:15:00 AM 9.23 48.614 0.094 6.71 5.43 10.44
11/11/2020 4:30:00 AM 9.21 48.578 0.094 6.7 4.48 10.42
11/11/2020 4:45:00 AM 9.18 48.524 0.094 6.7 4.39 10.4
11/11/2020 5:00:00 AM 9.16 48.488 0.094 6.7 4.59 10.37
11/11/2020 5:15:00 AM 9.14 48.452 0.094 6.7 4.97 10.35
11/11/2020 5:30:00 AM 9.12 48.416 0.094 6.69 4.72 10.33
11/11/2020 5:45:00 AM 9.11 48.398 0.094 6.7 4.52 10.33
11/11/2020 6:00:00 AM 9.1 48.38 0.094 6.69 5.04 10.31
11/11/2020 6:15:00 AM 9.1 48.38 0.094 6.69 4.63 10.3
11/11/2020 6:30:00 AM 9.11 48.398 0.094 6.69 4.62 10.28
11/11/2020 6:45:00 AM 9.09 48.362 0.094 6.69 4.98 10.27
11/11/2020 7:00:00 AM 9.1 48.38 0.094 6.69 4.89 10.25
11/11/2020 7:15:00 AM 9.1 48.38 0.094 6.68 5.08 10.23
11/11/2020 7:30:00 AM 9.1 48.38 0.094 6.68 5.04 10.21
11/11/2020 7:45:00 AM 9.09 48.362 0.094 6.68 4.53 10.2
11/11/2020 8:00:00 AM 9.09 48.362 0.094 6.68 4.85 10.19
11/11/2020 8:15:00 AM 9.1 48.38 0.095 6.68 5.2 10.16
11/11/2020 8:30:00 AM 9.11 48.398 0.094 6.68 5.13 10.15
11/11/2020 8:45:00 AM 9.12 48.416 0.094 6.67 4.75 10.13
11/11/2020 9:00:00 AM 9.13 48.434 0.094 6.67 4.91 10.12
11/11/2020 9:15:00 AM 9.13 48.434 0.094 6.67 4.79 10.09
11/11/2020 9:30:00 AM 9.15 48.47 0.094 6.67 4.86 10.08
11/11/2020 9:45:00 AM 9.16 48.488 0.094 6.66 4.84 10.06
11/11/2020 10:00:00 AM 9.17 48.506 0.094 6.66 5.04 10.03
11/11/2020 10:15:00 AM 9.18 48.524 0.095 6.66 4.84 10.02
11/11/2020 10:30:00 AM 9.19 48.542 0.095 6.66 4.98 10.01
11/11/2020 10:45:00 AM 9.22 48.596 0.095 6.65 4.96 9.98
11/11/2020 11:00:00 AM 9.24 48.632 0.095 6.65 4.95 9.98
11/11/2020 11:15:00 AM 9.25 48.65 0.095 6.65 4.73 9.98
11/11/2020 11:30:00 AM 9.28 48.704 0.095 6.65 4.97 9.96
11/11/2020 11:45:00 AM 9.27 48.686 0.095 6.65 4.74 9.95
11/11/2020 12:00:00 PM 9.31 48.758 0.095 6.64 4.57 9.95
11/11/2020 12:15:00 PM 9.33 48.794 0.095 6.64 4.91 9.94
11/11/2020 12:30:00 PM 9.33 48.794 0.095 6.65 5 9.94
11/11/2020 12:45:00 PM 9.34 48.812 0.095 6.64 4.86 9.93
11/11/2020 1:00:00 PM 9.35 48.83 0.095 6.64 4.7 9.91
11/11/2020 1:15:00 PM 9.35 48.83 0.095 6.64 4.78 9.89
11/11/2020 1:30:00 PM 9.37 48.866 0.095 6.64 4.62 9.89
11/11/2020 1:45:00 PM 9.39 48.902 0.095 6.64 5.03 9.86
11/11/2020 2:00:00 PM 9.41 48.938 0.095 6.63 4.61 9.83
11/11/2020 2:15:00 PM 9.42 48.956 0.095 6.63 4.51 9.81
11/11/2020 2:30:00 PM 9.44 48.992 0.095 6.63 4.9 9.78
11/11/2020 2:45:00 PM 9.47 49.046 0.095 6.63 4.71 9.76
11/11/2020 3:00:00 PM 9.5 49.1 0.095 6.63 4.64 9.73
11/11/2020 3:15:00 PM 9.52 49.136 0.095 6.63 4.76 9.68
11/11/2020 3:30:00 PM 9.54 49.172 0.095 6.63 4.64 9.66
11/11/2020 3:45:00 PM 9.57 49.226 0.095 6.62 4.63 9.63
11/11/2020 4:00:00 PM 9.59 49.262 0.095 6.62 4.62 9.6
11/11/2020 4:15:00 PM 9.61 49.298 0.095 6.62 4.61 9.59
11/11/2020 4:30:00 PM 9.62 49.316 0.095 6.62 4.54 9.58
11/11/2020 4:45:00 PM 9.65 49.37 0.095 6.62 4.48 9.56
11/11/2020 5:00:00 PM 9.67 49.406 0.095 6.61 4.54 9.55
11/11/2020 5:15:00 PM 9.7 49.46 0.095 6.62 4.68 9.54
11/11/2020 5:30:00 PM 9.74 49.532 0.095 6.62 4.73 9.53
11/11/2020 5:45:00 PM 9.77 49.586 0.095 6.62 4.55 9.53
11/11/2020 6:00:00 PM 9.8 49.64 0.095 6.62 4.66 9.52
11/11/2020 6:15:00 PM 9.84 49.712 0.095 6.63 4.28 9.53
11/11/2020 6:30:00 PM 9.89 49.802 0.095 6.62 4.71 9.52
11/11/2020 6:45:00 PM 9.92 49.856 0.095 6.63 4.4 9.52
11/11/2020 7:00:00 PM 9.93 49.874 0.095 6.63 4.67 9.53
11/11/2020 7:15:00 PM 9.95 49.91 0.095 6.63 5.94 9.51
11/11/2020 7:30:00 PM 10.02 50.036 0.095 6.63 4.34 9.52
11/11/2020 7:45:00 PM 10.04 50.072 0.095 6.63 4.28 9.52
11/11/2020 8:00:00 PM 10.09 50.162 0.094 6.64 4.25 9.53
11/11/2020 8:15:00 PM 10.11 50.198 0.094 6.64 4.7 9.54
11/11/2020 8:30:00 PM 10.16 50.288 0.094 6.64 4.48 9.53
11/11/2020 8:45:00 PM 10.19 50.342 0.094 6.65 4.5 9.52
11/11/2020 9:00:00 PM 10.21 50.378 0.094 6.63 4.38 9.5
11/11/2020 9:15:00 PM 10.3 50.54 0.094 6.65 4.32 9.53
11/11/2020 9:30:00 PM 10.28 50.504 0.094 6.64 4.33 9.5
11/11/2020 9:45:00 PM 10.3 50.54 0.094 6.63 4.3 9.48
11/11/2020 10:00:00 PM 10.32 50.576 0.094 6.64 4.33 9.48
11/11/2020 10:15:00 PM 10.36 50.648 0.093 6.65 4.56 9.49
11/11/2020 10:30:00 PM 10.41 50.738 0.093 6.66 4.61 9.5
11/11/2020 10:45:00 PM 10.44 50.792 0.093 6.65 4.34 9.5
11/11/2020 11:00:00 PM 10.44 50.792 0.093 6.65 5.44 9.47
11/11/2020 11:15:00 PM 10.47 50.846 0.093 6.64 4.51 9.46
11/11/2020 11:30:00 PM 10.5 50.9 0.093 6.64 4.94 9.48
11/11/2020 11:45:00 PM 10.57 51.026 0.093 6.65 4.26 9.47
11/12/2020 12:00:00 AM 10.65 51.17 0.093 6.66 4.36 9.49
11/12/2020 12:15:00 AM 10.68 51.224 0.093 6.66 4.36 9.48
11/12/2020 12:30:00 AM 10.73 51.314 0.093 6.66 4.61 9.48
11/12/2020 12:45:00 AM 10.77 51.386 0.093 6.66 4.5 9.46
11/12/2020 1:00:00 AM 10.84 51.512 0.093 6.67 4.45 9.43
11/12/2020 1:15:00 AM 10.93 51.674 0.093 6.67 4.59 9.41
11/12/2020 1:30:00 AM 10.92 51.656 0.093 6.66 4.2 9.38
11/12/2020 1:45:00 AM 10.95 51.71 0.093 6.65 4.99 9.35
11/12/2020 2:00:00 AM 10.97 51.746 0.093 6.65 4.41 9.32
11/12/2020 2:15:00 AM 10.96 51.728 0.093 6.64 4.4 9.28
11/12/2020 2:30:00 AM 10.97 51.746 0.093 6.63 4.17 9.25
11/12/2020 2:45:00 AM 10.97 51.746 0.093 6.63 4.18 9.21
11/12/2020 3:00:00 AM 10.97 51.746 0.093 6.63 4.36 9.17
11/12/2020 3:15:00 AM 10.97 51.746 0.093 6.63 4.76 9.16
11/12/2020 3:30:00 AM 10.97 51.746 0.093 6.63 4.37 9.13
11/12/2020 3:45:00 AM 10.98 51.764 0.093 6.63 4.66 9.11
11/12/2020 4:00:00 AM 10.98 51.764 0.093 6.62 4.53 9.08
11/12/2020 4:15:00 AM 10.99 51.782 0.093 6.62 4.4 9.07
11/12/2020 4:30:00 AM 10.99 51.782 0.093 6.62 5.26 9.06
11/12/2020 4:45:00 AM 10.98 51.764 0.093 6.63 4.49 9.05
11/12/2020 5:00:00 AM 10.98 51.764 0.093 6.62 4.86 9.02
11/12/2020 5:15:00 AM 10.97 51.746 0.093 6.61 4.68 8.99
11/12/2020 5:30:00 AM 10.95 51.71 0.093 6.61 4.6 8.98
11/12/2020 5:45:00 AM 10.92 51.656 0.093 6.61 4.78 8.97
11/12/2020 6:00:00 AM 10.89 51.602 0.093 6.6 4.75 8.96
11/12/2020 6:15:00 AM 10.84 51.512 0.093 6.61 4.52 8.95
11/12/2020 6:30:00 AM 10.82 51.476 0.093 6.6 4.87 8.94
11/12/2020 6:45:00 AM 10.77 51.386 0.093 6.61 5.1 8.93
11/12/2020 7:00:00 AM 10.73 51.314 0.093 6.61 4.67 8.93
11/12/2020 7:15:00 AM 10.69 51.242 0.093 6.61 5.04 8.94
11/12/2020 7:30:00 AM 10.65 51.17 0.094 6.61 5.1 8.95
11/12/2020 7:45:00 AM 10.61 51.098 0.094 6.62 5.21 8.95
11/12/2020 8:00:00 AM 10.58 51.044 0.094 6.63 4.72 8.95
11/12/2020 8:15:00 AM 10.54 50.972 0.094 6.64 4.96 8.95
11/12/2020 8:30:00 AM 10.49 50.882 0.094 6.63 5.04 8.95
11/12/2020 8:45:00 AM 10.46 50.828 0.094 6.62 4.89 8.95
11/12/2020 9:00:00 AM 10.41 50.738 0.094 6.63 4.78 8.95
11/12/2020 9:15:00 AM 10.39 50.702 0.094 6.63 5.21 8.96
11/12/2020 9:30:00 AM 10.35 50.63 0.094 6.64 4.86 8.98
11/12/2020 9:45:00 AM 10.33 50.594 0.094 6.64 4.65 8.99
11/12/2020 10:00:00 AM 10.31 50.558 0.094 6.65 4.9 9
11/12/2020 10:15:00 AM 10.28 50.504 0.094 6.65 4.73 9.01
11/12/2020 10:30:00 AM 10.24 50.432 0.094 6.66 4.9 9.02
11/12/2020 10:45:00 AM 10.22 50.396 0.094 6.66 5.06 9.04
11/12/2020 11:00:00 AM 10.19 50.342 0.095 6.66 6.44 9.06
11/12/2020 11:15:00 AM 10.16 50.288 0.095 6.67 4.63 9.1
11/12/2020 11:30:00 AM 10.15 50.27 0.095 6.67 4.64 9.12
11/12/2020 11:45:00 AM 10.12 50.216 0.095 6.67 4.87 9.16
11/12/2020 12:00:00 PM 10.11 50.198 0.095 6.68 4.72 9.19
11/12/2020 12:15:00 PM 10.09 50.162 0.095 6.66 5.04 9.23
11/12/2020 12:30:00 PM 10.08 50.144 0.095 6.7 4.86 9.28
11/12/2020 12:45:00 PM 10.06 50.108 0.095 6.71 4.61 9.33
11/12/2020 1:00:00 PM 10.05 50.09 0.095 6.72 4.59 9.37
11/12/2020 1:15:00 PM 10.04 50.072 0.095 6.73 4.8 9.42
11/12/2020 1:30:00 PM 10.03 50.054 0.095 6.73 4.65 9.46
11/12/2020 1:45:00 PM 10.02 50.036 0.095 6.74 4.72 9.5
11/12/2020 2:00:00 PM 10.01 50.018 0.095 6.74 4.7 9.56
11/12/2020 2:15:00 PM 10 50 0.095 6.75 4.77 9.61
11/12/2020 2:30:00 PM 9.98 49.964 0.094 6.77 4.63 9.69
11/12/2020 2:45:00 PM 9.97 49.946 0.094 6.77 4.6 9.74
11/12/2020 3:00:00 PM 9.96 49.928 0.094 6.78 4.56 9.79
11/12/2020 3:15:00 PM 9.94 49.892 0.094 6.78 4.61 9.85
11/12/2020 3:30:00 PM 9.93 49.874 0.094 6.8 4.58 9.89
11/12/2020 3:45:00 PM 9.92 49.856 0.094 6.81 4.5 9.93
11/12/2020 4:00:00 PM 9.9 49.82 0.094 6.82 4.35 9.98
11/12/2020 4:15:00 PM 9.89 49.802 0.094 6.82 4.46 10.01
11/12/2020 4:30:00 PM 9.88 49.784 0.094 6.81 4.51 10.04
11/12/2020 4:45:00 PM 9.87 49.766 0.094 6.81 4.47 10.06
11/12/2020 5:00:00 PM 9.84 49.712 0.094 6.82 4.31 10.08
11/12/2020 5:15:00 PM 9.82 49.676 0.094 6.82 4.25 10.1
11/12/2020 5:30:00 PM 9.8 49.64 0.094 6.82 4.3 10.1
11/12/2020 5:45:00 PM 9.78 49.604 0.094 6.81 4.27 10.1
11/12/2020 6:00:00 PM 9.75 49.55 0.094 6.78 4.38 10.12
11/12/2020 6:15:00 PM 9.74 49.532 0.093 6.79 4.31 10.14
11/12/2020 6:30:00 PM 9.71 49.478 0.093 6.76 6.66 10.14
11/12/2020 6:45:00 PM 9.69 49.442 0.093 6.76 4.22 10.13
11/12/2020 7:00:00 PM 9.67 49.406 0.093 6.76 4.49 10.14
11/12/2020 7:15:00 PM 9.64 49.352 0.093 6.76 4.26 10.14
11/12/2020 7:30:00 PM 9.61 49.298 0.093 6.76 4.49 10.13
11/12/2020 7:45:00 PM 9.59 49.262 0.093 6.74 4.39 10.11
11/12/2020 8:00:00 PM 9.55 49.19 0.093 6.75 4.29 10.1
11/12/2020 8:15:00 PM 9.53 49.154 0.093 6.73 4.44 10.09
11/12/2020 8:30:00 PM 9.49 49.082 0.093 6.73 4.22 10.07
11/12/2020 8:45:00 PM 9.46 49.028 0.093 6.74 4.26 10.05
11/12/2020 9:00:00 PM 9.44 48.992 0.092 6.72 4.36 10.03
11/12/2020 9:15:00 PM 9.41 48.938 0.092 6.72 4.36 10.01
11/12/2020 9:30:00 PM 9.38 48.884 0.092 6.72 4.39 9.99
11/12/2020 9:45:00 PM 9.35 48.83 0.092 6.71 4.4 9.96
11/12/2020 10:00:00 PM 9.32 48.776 0.092 6.69 4.39 9.93
11/12/2020 10:15:00 PM 9.29 48.722 0.092 6.68 4.42 9.91
11/12/2020 10:30:00 PM 9.26 48.668 0.092 6.7 4.36 9.88
11/12/2020 10:45:00 PM 9.21 48.578 0.092 6.69 4.47 9.86
11/12/2020 11:00:00 PM 9.19 48.542 0.091 6.67 4.35 9.84
11/12/2020 11:15:00 PM 9.16 48.488 0.091 6.67 4.6 9.8
11/12/2020 11:30:00 PM 9.13 48.434 0.091 6.67 4.59 9.78
11/12/2020 11:45:00 PM 9.08 48.344 0.091 6.67 4.58 9.75
11/13/2020 12:00:00 AM 9.05 48.29 0.091 6.65 4.3 9.73
11/13/2020 12:15:00 AM 9.01 48.218 0.091 6.65 4.45 9.71
11/13/2020 12:30:00 AM 8.98 48.164 0.09 6.65 4.56 9.69
11/13/2020 12:45:00 AM 8.94 48.092 0.09 6.64 4.68 9.67
11/13/2020 1:00:00 AM 8.9 48.02 0.09 6.64 4.74 9.63
11/13/2020 1:15:00 AM 8.86 47.948 0.09 6.63 4.8 9.61
11/13/2020 1:30:00 AM 8.83 47.894 0.09 6.63 4.57 9.58
11/13/2020 1:45:00 AM 8.77 47.786 0.09 6.62 4.64 9.56
11/13/2020 2:00:00 AM 8.72 47.696 0.09 6.61 4.55 9.55
11/13/2020 2:15:00 AM 8.68 47.624 0.09 6.61 4.78 9.54
11/13/2020 2:30:00 AM 8.65 47.57 0.09 6.62 4.75 9.52
11/13/2020 2:45:00 AM 8.57 47.426 0.09 6.63 4.86 9.51
11/13/2020 3:00:00 AM 8.58 47.444 0.089 6.61 4.7 9.49
11/13/2020 3:15:00 AM 8.53 47.354 0.089 6.6 4.81 9.47
11/13/2020 3:30:00 AM 8.49 47.282 0.089 6.61 4.73 9.46
11/13/2020 3:45:00 AM 8.46 47.228 0.089 6.61 4.96 9.46
11/13/2020 4:00:00 AM 8.43 47.174 0.089 6.6 4.73 9.44
11/13/2020 4:15:00 AM 8.4 47.12 0.089 6.6 5.44 9.43
11/13/2020 4:30:00 AM 8.37 47.066 0.089 6.6 5.04 9.42
11/13/2020 4:45:00 AM 8.33 46.994 0.089 6.6 4.64 9.41
11/13/2020 5:00:00 AM 8.3 46.94 0.089 6.61 4.79 9.4
11/13/2020 5:15:00 AM 8.27 46.886 0.09 6.6 4.68 9.4
11/13/2020 5:30:00 AM 8.25 46.85 0.09 6.59 4.84 9.39
11/13/2020 5:45:00 AM 8.2 46.76 0.09 6.6 4.69 9.39
11/13/2020 6:00:00 AM 8.18 46.724 0.09 6.6 4.8 9.37
11/13/2020 6:15:00 AM 8.14 46.652 0.09 6.59 5.09 9.37
11/13/2020 6:30:00 AM 8.11 46.598 0.09 6.6 5.1 9.37
11/13/2020 6:45:00 AM 8.08 46.544 0.09 6.6 5.03 9.36
11/13/2020 7:00:00 AM 8.06 46.508 0.09 6.59 5.12 9.36
11/13/2020 7:15:00 AM 8.02 46.436 0.09 6.6 4.8 9.37
11/13/2020 7:30:00 AM 7.99 46.382 0.09 6.6 5.06 9.37
11/13/2020 7:45:00 AM 7.96 46.328 0.09 6.6 4.75 9.38
11/13/2020 8:00:00 AM 7.94 46.292 0.09 6.6 4.96 9.37
11/13/2020 8:15:00 AM 7.91 46.238 0.09 6.59 4.94 9.37
11/13/2020 8:30:00 AM 7.87 46.166 0.09 6.6 4.68 9.36
11/13/2020 8:45:00 AM 7.86 46.148 0.09 6.6 4.84 9.36
11/13/2020 9:00:00 AM 7.83 46.094 0.09 6.61 4.98 9.36
11/13/2020 9:15:00 AM 7.82 46.076 0.09 6.61 4.85 9.37
11/13/2020 9:30:00 AM 7.83 46.094 0.09 6.62 4.9 9.37
11/13/2020 9:45:00 AM 7.83 46.094 0.09 6.62 4.89 9.38
11/13/2020 10:00:00 AM 7.83 46.094 0.091 6.62 4.81 9.39
11/13/2020 10:15:00 AM 7.84 46.112 0.091 6.62 4.72 9.39
11/13/2020 10:30:00 AM 7.84 46.112 0.091 6.62 4.78 9.42
11/13/2020 10:45:00 AM 7.85 46.13 0.091 6.63 4.89 9.43
11/13/2020 11:00:00 AM 7.86 46.148 0.091 6.63 4.83 9.43
11/13/2020 11:15:00 AM 7.87 46.166 0.091 6.62 4.82 9.45
11/13/2020 11:30:00 AM 7.9 46.22 0.091 6.64 4.67 9.46
11/13/2020 11:45:00 AM 7.92 46.256 0.091 6.64 4.85 9.49
11/13/2020 12:00:00 PM 7.94 46.292 0.091 6.64 4.99 9.51
11/13/2020 12:15:00 PM 7.97 46.346 0.091 6.64 4.74 9.53
11/13/2020 12:30:00 PM 8 46.4 0.091 6.64 4.98 9.57
11/13/2020 12:45:00 PM 8.03 46.454 0.091 6.65 4.95 9.63
11/13/2020 1:00:00 PM 8.06 46.508 0.091 6.66 4.67 9.67
11/13/2020 1:15:00 PM 8.09 46.562 0.091 6.67 4.62 9.7
11/13/2020 1:30:00 PM 8.11 46.598 0.091 6.67 4.6 9.74
11/13/2020 1:45:00 PM 8.14 46.652 0.091 6.69 4.63 9.78
11/13/2020 2:00:00 PM 8.17 46.706 0.091 6.71 4.46 9.84
11/13/2020 2:15:00 PM 8.19 46.742 0.091 6.72 4.4 9.9
11/13/2020 2:30:00 PM 8.22 46.796 0.091 6.72 4.48 9.96
11/13/2020 2:45:00 PM 8.24 46.832 0.091 6.74 4.58 10
11/13/2020 3:00:00 PM 8.26 46.868 0.091 6.75 4.55 10.06
11/13/2020 3:15:00 PM 8.27 46.886 0.091 6.76 4.41 10.11
11/13/2020 3:30:00 PM 8.31 46.958 0.091 6.77 4.42 10.16
11/13/2020 3:45:00 PM 8.32 46.976 0.091 6.78 4.44 10.19
11/13/2020 4:00:00 PM 8.33 46.994 0.09 6.78 4.48 10.24
11/13/2020 4:15:00 PM 8.35 47.03 0.09 6.79 4.37 10.28
11/13/2020 4:30:00 PM 8.36 47.048 0.09 6.8 4.43 10.32
11/13/2020 4:45:00 PM 8.38 47.084 0.09 6.8 4.34 10.34
11/13/2020 5:00:00 PM 8.38 47.084 0.09 6.81 4.44 10.38
11/13/2020 5:15:00 PM 8.38 47.084 0.09 6.81 4.53 10.41
11/13/2020 5:30:00 PM 8.39 47.102 0.09 6.81 4.36 10.42
11/13/2020 5:45:00 PM 8.39 47.102 0.09 6.81 4.38 10.45
11/13/2020 6:00:00 PM 8.37 47.066 0.09 6.8 4.31 10.44
11/13/2020 6:15:00 PM 8.37 47.066 0.09 6.8 4.3 10.46
11/13/2020 6:30:00 PM 8.36 47.048 0.09 6.81 4.51 10.46
11/13/2020 6:45:00 PM 8.36 47.048 0.09 6.81 4.39 10.48
11/13/2020 7:00:00 PM 8.36 47.048 0.09 6.82 4.28 10.49
11/13/2020 7:15:00 PM 8.35 47.03 0.09 6.82 4.4 10.51
11/13/2020 7:30:00 PM 8.34 47.012 0.09 6.82 4.38 10.52
11/13/2020 7:45:00 PM 8.32 46.976 0.09 6.82 4.71 10.52
11/13/2020 8:00:00 PM 8.32 46.976 0.09 6.81 4.49 10.54
11/13/2020 8:15:00 PM 8.29 46.922 0.09 6.81 4.43 10.54
11/13/2020 8:30:00 PM 8.27 46.886 0.09 6.81 4.35 10.53
11/13/2020 8:45:00 PM 8.24 46.832 0.09 6.8 4.36 10.51
11/13/2020 9:00:00 PM 8.22 46.796 0.09 6.79 4.47 10.5
11/13/2020 9:15:00 PM 8.21 46.778 0.09 6.79 4.45 10.5
11/13/2020 9:30:00 PM 8.18 46.724 0.09 6.79 4.23 10.49
11/13/2020 9:45:00 PM 8.15 46.67 0.09 6.79 4.39 10.48
11/13/2020 10:00:00 PM 8.13 46.634 0.09 6.78 4.67 10.46
11/13/2020 10:15:00 PM 8.1 46.58 0.09 6.78 4.38 10.44
11/13/2020 10:30:00 PM 8.08 46.544 0.09 6.78 4.56 10.43
11/13/2020 10:45:00 PM 8.07 46.526 0.09 6.77 4.5 10.42
11/13/2020 11:00:00 PM 8.05 46.49 0.09 6.77 4.61 10.41
11/13/2020 11:15:00 PM 8.04 46.472 0.09 6.78 4.61 10.41
11/13/2020 11:30:00 PM 8.02 46.436 0.09 6.77 4.64 10.39
11/13/2020 11:45:00 PM 8 46.4 0.09 6.76 4.65 10.38
11/14/2020 12:00:00 AM 7.99 46.382 0.09 6.77 4.46 10.35
11/14/2020 12:15:00 AM 7.99 46.382 0.09 6.76 4.58 10.35
11/14/2020 12:30:00 AM 7.97 46.346 0.09 6.76 4.62 10.32
11/14/2020 12:45:00 AM 7.96 46.328 0.09 6.75 4.79 10.3
11/14/2020 1:00:00 AM 7.94 46.292 0.09 6.75 4.59 10.28
11/14/2020 1:15:00 AM 7.92 46.256 0.09 6.74 4.83 10.25
11/14/2020 1:30:00 AM 7.9 46.22 0.09 6.75 4.72 10.23
11/14/2020 1:45:00 AM 7.88 46.184 0.09 6.75 5.01 10.21
11/14/2020 2:00:00 AM 7.87 46.166 0.09 6.75 4.76 10.2
11/14/2020 2:15:00 AM 7.84 46.112 0.09 6.75 4.61 10.18
11/14/2020 2:30:00 AM 7.82 46.076 0.09 6.75 4.57 10.16
11/14/2020 2:45:00 AM 7.8 46.04 0.09 6.75 4.59 10.13
11/14/2020 3:00:00 AM 7.79 46.022 0.09 6.75 4.54 10.11
11/14/2020 3:15:00 AM 7.77 45.986 0.09 6.74 4.41 10.08
11/14/2020 3:30:00 AM 7.75 45.95 0.09 6.74 4.68 10.06
11/14/2020 3:45:00 AM 7.73 45.914 0.09 6.74 4.81 10.05
11/14/2020 4:00:00 AM 7.71 45.878 0.09 6.73 4.85 10.04
11/14/2020 4:15:00 AM 7.69 45.842 0.09 6.73 4.8 10.02
11/14/2020 4:30:00 AM 7.67 45.806 0.09 6.73 4.93 9.99
11/14/2020 4:45:00 AM 7.63 45.734 0.09 6.73 4.93 9.96
11/14/2020 5:00:00 AM 7.62 45.716 0.09 6.72 4.89 9.94
11/14/2020 5:15:00 AM 7.62 45.716 0.09 6.73 4.99 9.92
11/14/2020 5:30:00 AM 7.6 45.68 0.09 6.73 5.01 9.91
11/14/2020 5:45:00 AM 7.53 45.554 0.09 6.72 5.01 9.89
11/14/2020 6:00:00 AM 7.5 45.5 0.09 6.72 5.02 9.87
11/14/2020 6:15:00 AM 7.5 45.5 0.09 6.72 5.23 9.86
11/14/2020 6:30:00 AM 7.46 45.428 0.09 6.71 5.42 9.84
11/14/2020 6:45:00 AM 7.41 45.338 0.09 6.71 5.32 9.82
11/14/2020 7:00:00 AM 7.37 45.266 0.09 6.71 5.38 9.8
11/14/2020 7:15:00 AM 7.33 45.194 0.09 6.71 5.74 9.78
11/14/2020 7:30:00 AM 7.3 45.14 0.09 6.69 5.12 9.76
11/14/2020 7:45:00 AM 7.23 45.014 0.09 6.7 5.3 9.76
11/14/2020 8:00:00 AM 7.2 44.96 0.09 6.7 5.15 9.76
11/14/2020 8:15:00 AM 7.18 44.924 0.09 6.71 5.05 9.77
11/14/2020 8:30:00 AM 7.16 44.888 0.09 6.72 5.11 9.8
11/14/2020 8:45:00 AM 7.17 44.906 0.09 6.72 5.47 9.82
11/14/2020 9:00:00 AM 7.16 44.888 0.09 6.73 5.56 9.86
11/14/2020 9:15:00 AM 7.15 44.87 0.09 6.73 4.84 9.88
11/14/2020 9:30:00 AM 7.15 44.87 0.09 6.73 4.78 9.9
11/14/2020 9:45:00 AM 7.14 44.852 0.09 6.73 5.11 9.92
11/14/2020 10:00:00 AM 7.13 44.834 0.09 6.73 4.93 9.93
11/14/2020 10:15:00 AM 7.12 44.816 0.091 6.73 5.04 9.96
11/14/2020 10:30:00 AM 7.11 44.798 0.091 6.73 4.8 9.99
11/14/2020 10:45:00 AM 7.11 44.798 0.091 6.73 4.85 10.01
11/14/2020 11:00:00 AM 7.12 44.816 0.091 6.74 4.86 10.04
11/14/2020 11:15:00 AM 7.11 44.798 0.091 6.74 4.83 10.09
11/14/2020 11:30:00 AM 7.12 44.816 0.091 6.74 4.81 10.14
11/14/2020 11:45:00 AM 7.12 44.816 0.091 6.76 4.71 10.19
11/14/2020 12:00:00 PM 7.14 44.852 0.091 6.77 4.92 10.23
11/14/2020 12:15:00 PM 7.16 44.888 0.091 6.78 4.5 10.29
11/14/2020 12:30:00 PM 7.18 44.924 0.091 6.79 4.69 10.35
11/14/2020 12:45:00 PM 7.21 44.978 0.091 6.8 4.61 10.4
11/14/2020 1:00:00 PM 7.24 45.032 0.091 6.8 4.64 10.45
11/14/2020 1:15:00 PM 7.26 45.068 0.091 6.81 4.5 10.5
11/14/2020 1:30:00 PM 7.28 45.104 0.091 6.81 4.57 10.55
11/14/2020 1:45:00 PM 7.31 45.158 0.091 6.82 4.51 10.59
11/14/2020 2:00:00 PM 7.33 45.194 0.09 6.83 4.59 10.64
11/14/2020 2:15:00 PM 7.35 45.23 0.09 6.83 4.72 10.68
11/14/2020 2:30:00 PM 7.36 45.248 0.09 6.83 4.57 10.71
11/14/2020 2:45:00 PM 7.38 45.284 0.091 6.84 4.55 10.75
11/14/2020 3:00:00 PM 7.39 45.302 0.09 6.84 4.44 10.77
11/14/2020 3:15:00 PM 7.41 45.338 0.09 6.84 4.42 10.82
11/14/2020 3:30:00 PM 7.44 45.392 0.09 6.86 4.49 10.84
11/14/2020 3:45:00 PM 7.45 45.41 0.09 6.86 4.32 10.87
11/14/2020 4:00:00 PM 7.47 45.446 0.09 6.87 4.43 10.89
11/14/2020 4:15:00 PM 7.47 45.446 0.09 6.87 4.36 10.92
11/14/2020 4:30:00 PM 7.49 45.482 0.09 6.88 4.24 10.95
11/14/2020 4:45:00 PM 7.51 45.518 0.09 6.88 4.45 10.97
11/14/2020 5:00:00 PM 7.52 45.536 0.09 6.88 4.22 11
11/14/2020 5:15:00 PM 7.53 45.554 0.09 6.89 4.25 11.02
11/14/2020 5:30:00 PM 7.55 45.59 0.09 6.89 4.29 11.04
11/14/2020 5:45:00 PM 7.55 45.59 0.09 6.89 4.16 11.05
11/14/2020 6:00:00 PM 7.55 45.59 0.09 6.9 4.09 11.07
11/14/2020 6:15:00 PM 7.54 45.572 0.09 6.89 4.4 11.07
11/14/2020 6:30:00 PM 7.55 45.59 0.09 6.89 4.24 11.09
11/14/2020 6:45:00 PM 7.55 45.59 0.09 6.89 4.32 11.1
11/14/2020 7:00:00 PM 7.53 45.554 0.09 6.9 4.07 11.1
11/14/2020 7:15:00 PM 7.52 45.536 0.09 6.9 4.33 11.1
11/14/2020 7:30:00 PM 7.51 45.518 0.09 6.9 4.3 11.11
11/14/2020 7:45:00 PM 7.48 45.464 0.09 6.89 4.36 11.1
11/14/2020 8:00:00 PM 7.45 45.41 0.09 6.89 4.32 11.09
11/14/2020 8:15:00 PM 7.44 45.392 0.09 6.89 4.29 11.09
11/14/2020 8:30:00 PM 7.4 45.32 0.09 6.88 4.28 11.08
11/14/2020 8:45:00 PM 7.36 45.248 0.09 6.88 4.47 11.06
11/14/2020 9:00:00 PM 7.33 45.194 0.09 6.88 4.32 11.05
11/14/2020 9:15:00 PM 7.3 45.14 0.09 6.87 4.29 11.03
11/14/2020 9:30:00 PM 7.28 45.104 0.09 6.87 4.44 11.02
11/14/2020 9:45:00 PM 7.24 45.032 0.09 6.86 4.41 11
11/14/2020 10:00:00 PM 7.22 44.996 0.09 6.86 4.66 10.98
11/14/2020 10:15:00 PM 7.19 44.942 0.09 6.86 4.68 10.96
11/14/2020 10:30:00 PM 7.15 44.87 0.09 6.85 4.6 10.94
11/14/2020 10:45:00 PM 7.12 44.816 0.09 6.84 4.54 10.94
11/14/2020 11:00:00 PM 7.1 44.78 0.09 6.84 4.61 10.93
11/14/2020 11:15:00 PM 7.07 44.726 0.09 6.84 4.56 10.91
11/14/2020 11:30:00 PM 7.04 44.672 0.09 6.84 4.45 10.89
11/14/2020 11:45:00 PM 7 44.6 0.09 6.83 4.86 10.88
11/15/2020 12:00:00 AM 6.96 44.528 0.09 6.83 4.89 10.87
11/15/2020 12:15:00 AM 6.91 44.438 0.09 6.82 4.81 10.86
11/15/2020 12:30:00 AM 6.89 44.402 0.09 6.81 4.89 10.84
11/15/2020 12:45:00 AM 6.85 44.33 0.09 6.81 4.67 10.84
11/15/2020 1:00:00 AM 6.83 44.294 0.09 6.81 4.69 10.82
11/15/2020 1:15:00 AM 6.8 44.24 0.09 6.81 4.99 10.8
11/15/2020 1:30:00 AM 6.76 44.168 0.09 6.81 4.63 10.79
11/15/2020 1:45:00 AM 6.72 44.096 0.09 6.81 4.73 10.77
11/15/2020 2:00:00 AM 6.7 44.06 0.09 6.81 4.77 10.77
11/15/2020 2:15:00 AM 6.67 44.006 0.09 6.8 4.67 10.75
11/15/2020 2:30:00 AM 6.62 43.916 0.09 6.8 4.62 10.74
11/15/2020 2:45:00 AM 6.59 43.862 0.09 6.79 4.83 10.71
11/15/2020 3:00:00 AM 6.55 43.79 0.09 6.79 4.82 10.69
11/15/2020 3:15:00 AM 6.52 43.736 0.09 6.78 4.76 10.68
11/15/2020 3:30:00 AM 6.48 43.664 0.09 6.79 4.79 10.66
11/15/2020 3:45:00 AM 6.44 43.592 0.09 6.78 5.03 10.65
11/15/2020 4:00:00 AM 6.43 43.574 0.09 6.78 5.05 10.64
11/15/2020 4:15:00 AM 6.39 43.502 0.09 6.77 4.69 10.63
11/15/2020 4:30:00 AM 6.36 43.448 0.09 6.77 4.89 10.61
11/15/2020 4:45:00 AM 6.32 43.376 0.09 6.77 4.91 10.6
11/15/2020 5:00:00 AM 6.3 43.34 0.09 6.77 4.87 10.58
11/15/2020 5:15:00 AM 6.28 43.304 0.09 6.77 4.83 10.56
11/15/2020 5:30:00 AM 6.27 43.286 0.09 6.77 4.89 10.54
11/15/2020 5:45:00 AM 6.25 43.25 0.09 6.77 4.96 10.53
11/15/2020 6:00:00 AM 6.22 43.196 0.09 6.76 4.98 10.53
11/15/2020 6:15:00 AM 6.19 43.142 0.09 6.77 5.13 10.53
11/15/2020 6:30:00 AM 6.17 43.106 0.09 6.76 5.06 10.51
11/15/2020 6:45:00 AM 6.15 43.07 0.09 6.76 5.29 10.49
11/15/2020 7:00:00 AM 6.13 43.034 0.09 6.76 5.4 10.47
11/15/2020 7:15:00 AM 6.1 42.98 0.09 6.77 5.19 10.48
11/15/2020 7:30:00 AM 6.09 42.962 0.09 6.77 5.03 10.46
11/15/2020 7:45:00 AM 6.07 42.926 0.09 6.77 5.15 10.46
11/15/2020 8:00:00 AM 6.04 42.872 0.09 6.77 5.07 10.46
11/15/2020 8:15:00 AM 6.02 42.836 0.09 6.77 5.1 10.45
11/15/2020 8:30:00 AM 6 42.8 0.09 6.76 4.98 10.46
11/15/2020 8:45:00 AM 5.97 42.746 0.09 6.76 5.23 10.47
11/15/2020 9:00:00 AM 5.94 42.692 0.09 6.76 5.14 10.47
11/15/2020 9:15:00 AM 5.92 42.656 0.09 6.76 5.03 10.49
11/15/2020 9:30:00 AM 5.9 42.62 0.09 6.77 5.33 10.49
11/15/2020 9:45:00 AM 5.9 42.62 0.09 6.77 4.99 10.51
11/15/2020 10:00:00 AM 5.89 42.602 0.09 6.77 5 10.52
11/15/2020 10:15:00 AM 5.88 42.584 0.09 6.77 5.04 10.54
11/15/2020 10:30:00 AM 5.88 42.584 0.09 6.78 4.99 10.57
11/15/2020 10:45:00 AM 5.89 42.602 0.09 6.78 4.8 10.59
11/15/2020 11:00:00 AM 5.9 42.62 0.09 6.79 4.98 10.63
11/15/2020 11:15:00 AM 5.9 42.62 0.09 6.79 4.71 10.65
11/15/2020 11:30:00 AM 5.9 42.62 0.09 6.79 4.97 10.67
11/15/2020 11:45:00 AM 5.9 42.62 0.091 6.8 4.89 10.71
11/15/2020 12:00:00 PM 5.9 42.62 0.091 6.8 4.7 10.74
11/15/2020 12:15:00 PM 5.91 42.638 0.091 6.81 4.75 10.77
11/15/2020 12:30:00 PM 5.91 42.638 0.091 6.82 4.77 10.79
11/15/2020 12:45:00 PM 5.93 42.674 0.091 6.82 4.95 10.83
11/15/2020 1:00:00 PM 5.94 42.692 0.091 6.83 4.91 10.87
11/15/2020 1:15:00 PM 5.96 42.728 0.091 6.82 4.72 10.9
11/15/2020 1:30:00 PM 5.98 42.764 0.091 6.84 4.66 10.94
11/15/2020 1:45:00 PM 5.99 42.782 0.091 6.84 4.79 10.99
11/15/2020 2:00:00 PM 6 42.8 0.091 6.85 4.75 11.02
11/15/2020 2:15:00 PM 6.01 42.818 0.091 6.85 4.67 11.05
11/15/2020 2:30:00 PM 6.02 42.836 0.091 6.86 4.63 11.08
11/15/2020 2:45:00 PM 6.03 42.854 0.091 6.87 4.63 11.11
11/15/2020 3:00:00 PM 6.05 42.89 0.091 6.87 4.66 11.14
11/15/2020 3:15:00 PM 6.06 42.908 0.091 6.88 4.78 11.17
11/15/2020 3:30:00 PM 6.08 42.944 0.091 6.89 4.53 11.2
11/15/2020 3:45:00 PM 6.1 42.98 0.091 6.89 4.56 11.22
11/15/2020 4:00:00 PM 6.11 42.998 0.091 6.9 4.64 11.25
11/15/2020 4:15:00 PM 6.13 43.034 0.091 6.91 4.68 11.27
11/15/2020 4:30:00 PM 6.15 43.07 0.091 6.91 4.72 11.29
11/15/2020 4:45:00 PM 6.16 43.088 0.091 6.92 4.55 11.31
11/15/2020 5:00:00 PM 6.18 43.124 0.091 6.91 4.56 11.32
11/15/2020 5:15:00 PM 6.19 43.142 0.091 6.92 4.67 11.33
11/15/2020 5:30:00 PM 6.21 43.178 0.091 6.92 4.5 11.33
11/15/2020 5:45:00 PM 6.24 43.232 0.091 6.93 4.53 11.34
11/15/2020 6:00:00 PM 6.26 43.268 0.09 6.92 4.52 11.34
11/15/2020 6:15:00 PM 6.28 43.304 0.09 6.92 4.56 11.34
11/15/2020 6:30:00 PM 6.31 43.358 0.09 6.92 4.48 11.33
11/15/2020 6:45:00 PM 6.33 43.394 0.09 6.93 4.57 11.32
11/15/2020 7:00:00 PM 6.36 43.448 0.09 6.93 4.61 11.31
11/15/2020 7:15:00 PM 6.39 43.502 0.09 6.93 4.63 11.29
11/15/2020 7:30:00 PM 6.41 43.538 0.09 6.93 4.83 11.28
11/15/2020 7:45:00 PM 6.46 43.628 0.09 6.93 4.63 11.28
11/15/2020 8:00:00 PM 6.49 43.682 0.09 6.93 4.7 11.26
11/15/2020 8:15:00 PM 6.5 43.7 0.09 6.93 4.67 11.25
11/15/2020 8:30:00 PM 6.55 43.79 0.09 6.94 4.64 11.24
11/15/2020 8:45:00 PM 6.58 43.844 0.09 6.93 4.67 11.23
11/15/2020 9:00:00 PM 6.59 43.862 0.09 6.93 4.71 11.22
11/15/2020 9:15:00 PM 6.61 43.898 0.09 6.92 4.78 11.21
11/15/2020 9:30:00 PM 6.6 43.88 0.09 6.92 4.74 11.2
11/15/2020 9:45:00 PM 6.61 43.898 0.09 6.91 4.8 11.18
11/15/2020 10:00:00 PM 6.61 43.898 0.09 6.92 4.78 11.16
11/15/2020 10:15:00 PM 6.62 43.916 0.09 6.92 4.72 11.15
11/15/2020 10:30:00 PM 6.62 43.916 0.09 6.91 4.58 11.14
11/15/2020 10:45:00 PM 6.62 43.916 0.09 6.91 4.92 11.13
11/15/2020 11:00:00 PM 6.61 43.898 0.09 6.9 4.76 11.11
11/15/2020 11:15:00 PM 6.62 43.916 0.09 6.9 4.73 11.08
11/15/2020 11:30:00 PM 6.64 43.952 0.09 6.89 4.86 11.07
11/15/2020 11:45:00 PM 6.67 44.006 0.089 6.89 5.1 11.05
11/16/2020 12:00:00 AM 6.67 44.006 0.089 6.9 4.9 11.04
11/16/2020 12:15:00 AM 6.66 43.988 0.089 6.9 4.93 11.03
11/16/2020 12:30:00 AM 6.67 44.006 0.089 6.89 4.93 11.01
11/16/2020 12:45:00 AM 6.65 43.97 0.089 6.89 4.87 11.01
11/16/2020 1:00:00 AM 6.65 43.97 0.089 6.89 4.99 10.99
11/16/2020 1:15:00 AM 6.64 43.952 0.089 6.88 4.96 10.98
11/16/2020 1:30:00 AM 6.64 43.952 0.089 6.88 4.93 10.95
11/16/2020 1:45:00 AM 6.62 43.916 0.089 6.89 5.04 10.95
11/16/2020 2:00:00 AM 6.57 43.826 0.089 6.88 5.03 10.94
11/16/2020 2:15:00 AM 6.54 43.772 0.089 6.87 4.87 10.94
11/16/2020 2:30:00 AM 6.49 43.682 0.089 6.87 5.02 10.94
11/16/2020 2:45:00 AM 6.47 43.646 0.089 6.87 4.94 10.93
11/16/2020 3:00:00 AM 6.45 43.61 0.089 6.88 4.93 10.93
11/16/2020 3:15:00 AM 6.43 43.574 0.089 6.87 4.84 10.92
11/16/2020 3:30:00 AM 6.4 43.52 0.089 6.86 4.9 10.91
11/16/2020 3:45:00 AM 6.39 43.502 0.089 6.86 4.93 10.9
11/16/2020 4:00:00 AM 6.35 43.43 0.089 6.86 4.98 10.88
11/16/2020 4:15:00 AM 6.32 43.376 0.089 6.85 4.84 10.87
11/16/2020 4:30:00 AM 6.28 43.304 0.089 6.85 4.93 10.86
11/16/2020 4:45:00 AM 6.26 43.268 0.089 6.85 5.05 10.84
11/16/2020 5:00:00 AM 6.23 43.214 0.089 6.85 4.8 10.84
11/16/2020 5:15:00 AM 6.2 43.16 0.089 6.84 5.07 10.82
11/16/2020 5:30:00 AM 6.17 43.106 0.089 6.84 5.33 10.8
11/16/2020 5:45:00 AM 6.12 43.016 0.089 6.84 4.95 10.79
11/16/2020 6:00:00 AM 6.11 42.998 0.089 6.84 5.07 10.79
11/16/2020 6:15:00 AM 6.08 42.944 0.089 6.83 5 10.77
11/16/2020 6:30:00 AM 6.05 42.89 0.089 6.83 5.1 10.75
11/16/2020 6:45:00 AM 6.03 42.854 0.089 6.83 5.05 10.75
11/16/2020 7:00:00 AM 6.01 42.818 0.089 6.83 5.07 10.74
11/16/2020 7:15:00 AM 5.97 42.746 0.089 6.84 5.27 10.72
11/16/2020 7:30:00 AM 5.94 42.692 0.089 6.83 5.26 10.7
11/16/2020 7:45:00 AM 5.92 42.656 0.089 6.82 5.15 10.69
11/16/2020 8:00:00 AM 5.89 42.602 0.089 6.82 5.09 10.69
11/16/2020 8:15:00 AM 5.86 42.548 0.089 6.82 5.09 10.68
11/16/2020 8:30:00 AM 5.84 42.512 0.089 6.82 5.25 10.68
11/16/2020 8:45:00 AM 5.81 42.458 0.089 6.82 5.1 10.68
11/16/2020 9:00:00 AM 5.79 42.422 0.089 6.82 4.93 10.68
11/16/2020 9:15:00 AM 5.77 42.386 0.09 6.83 5 10.68
11/16/2020 9:30:00 AM 5.76 42.368 0.09 6.82 5.21 10.68
11/16/2020 9:45:00 AM 5.76 42.368 0.09 6.82 5.25 10.68
11/16/2020 10:00:00 AM 5.75 42.35 0.09 6.83 5.1 10.71
11/16/2020 10:15:00 AM 5.74 42.332 0.09 6.82 5.04 10.71
11/16/2020 10:30:00 AM 5.74 42.332 0.09 6.83 4.99 10.73
11/16/2020 10:45:00 AM 5.73 42.314 0.09 6.83 5.01 10.76
11/16/2020 11:00:00 AM 5.74 42.332 0.09 6.84 5.21 10.78
11/16/2020 11:15:00 AM 5.77 42.386 0.09 6.83 4.99 10.8
11/16/2020 11:30:00 AM 5.78 42.404 0.09 6.84 5.05 10.81
11/16/2020 11:45:00 AM 5.78 42.404 0.09 6.85 4.93 10.85
11/16/2020 12:00:00 PM 5.77 42.386 0.09 6.85 4.86 10.89
11/16/2020 12:15:00 PM 5.77 42.386 0.09 6.85 5.02 10.91
11/16/2020 12:30:00 PM 5.77 42.386 0.09 6.86 5.07 10.95
11/16/2020 12:45:00 PM 5.77 42.386 0.09 6.86 4.94 10.97
11/16/2020 1:00:00 PM 5.77 42.386 0.09 6.86 4.89 11.01
11/16/2020 1:15:00 PM 5.77 42.386 0.09 6.88 4.87 11.05
11/16/2020 1:30:00 PM 5.78 42.404 0.09 6.88 4.92 11.09
11/16/2020 1:45:00 PM 5.79 42.422 0.09 6.89 4.98 11.12
11/16/2020 2:00:00 PM 5.8 42.44 0.09 6.89 5.35 11.15
11/16/2020 2:15:00 PM 5.81 42.458 0.09 6.9 5.02 11.2
11/16/2020 2:30:00 PM 5.81 42.458 0.09 6.91 5.01 11.25
11/16/2020 2:45:00 PM 5.82 42.476 0.09 6.92 4.98 11.28
11/16/2020 3:00:00 PM 5.83 42.494 0.09 6.93 4.88 11.31
11/16/2020 3:15:00 PM 5.81 42.458 0.09 6.94 4.77 11.36
11/16/2020 3:30:00 PM 5.83 42.494 0.09 6.94 4.92 11.39
11/16/2020 3:45:00 PM 5.83 42.494 0.09 6.95 4.81 11.43
11/16/2020 4:00:00 PM 5.83 42.494 0.09 6.95 5.08 11.44
11/16/2020 4:15:00 PM 5.83 42.494 0.09 6.95 5.07 11.47
11/16/2020 4:30:00 PM 5.82 42.476 0.09 6.96 4.88 11.49
11/16/2020 4:45:00 PM 5.8 42.44 0.09 6.96 4.82 11.51
11/16/2020 5:00:00 PM 5.81 42.458 0.09 6.96 4.72 11.53
11/16/2020 5:15:00 PM 5.8 42.44 0.09 6.97 4.89 11.53
11/16/2020 5:30:00 PM 5.8 42.44 0.09 6.98 4.93 11.56
11/16/2020 5:45:00 PM 5.81 42.458 0.09 6.99 4.97 11.58
11/16/2020 6:00:00 PM 5.81 42.458 0.09 6.98 4.87 11.59
11/16/2020 6:15:00 PM 5.79 42.422 0.09 6.98 4.8 11.59
11/16/2020 6:30:00 PM 5.79 42.422 0.09 6.98 4.9 11.61
11/16/2020 6:45:00 PM 5.77 42.386 0.09 6.99 5.04 11.61
11/16/2020 7:00:00 PM 5.78 42.404 0.09 6.99 5.24 11.61
11/16/2020 7:15:00 PM 5.77 42.386 0.09 6.98 5.08 11.61
11/16/2020 7:30:00 PM 5.77 42.386 0.09 6.99 5.11 11.61
11/16/2020 7:45:00 PM 5.75 42.35 0.09 6.98 5.4 11.6
11/16/2020 8:00:00 PM 5.76 42.368 0.09 6.98 5.02 11.6
11/16/2020 8:15:00 PM 5.76 42.368 0.09 6.98 4.76 11.6
11/16/2020 8:30:00 PM 5.74 42.332 0.09 6.97 6.14 11.59
11/16/2020 8:45:00 PM 5.71 42.278 0.09 6.97 4.79 11.59
11/16/2020 9:00:00 PM 5.69 42.242 0.09 6.97 4.91 11.58
11/16/2020 9:15:00 PM 5.65 42.17 0.09 6.96 4.93 11.57
11/16/2020 9:30:00 PM 5.62 42.116 0.09 6.95 5.3 11.56
11/16/2020 9:45:00 PM 5.59 42.062 0.09 6.95 5 11.54
11/16/2020 10:00:00 PM 5.56 42.008 0.09 6.94 5.11 11.52
11/16/2020 10:15:00 PM 5.54 41.972 0.09 6.94 4.95 11.51
11/16/2020 10:30:00 PM 5.51 41.918 0.09 6.94 4.82 11.5
11/16/2020 10:45:00 PM 5.49 41.882 0.09 6.94 5.13 11.5
11/16/2020 11:00:00 PM 5.47 41.846 0.09 6.93 5.09 11.48
11/16/2020 11:15:00 PM 5.45 41.81 0.09 6.93 4.93 11.47
11/16/2020 11:30:00 PM 5.44 41.792 0.09 6.93 4.93 11.46
11/16/2020 11:45:00 PM 5.41 41.738 0.09 6.93 5.09 11.44
11/17/2020 12:00:00 AM 5.39 41.702 0.09 6.93 5.09 11.43
11/17/2020 12:15:00 AM 5.36 41.648 0.09 6.92 5.29 11.42
11/17/2020 12:30:00 AM 5.34 41.612 0.09 6.91 5.47 11.41
11/17/2020 12:45:00 AM 5.31 41.558 0.09 6.92 5.23 11.41
11/17/2020 1:00:00 AM 5.29 41.522 0.09 6.92 5.09 11.4
11/17/2020 1:15:00 AM 5.27 41.486 0.09 6.92 5.24 11.39
11/17/2020 1:30:00 AM 5.24 41.432 0.09 6.9 5.25 11.38
11/17/2020 1:45:00 AM 5.21 41.378 0.09 6.9 5.35 11.37
11/17/2020 2:00:00 AM 5.2 41.36 0.091 6.91 5.1 11.35
11/17/2020 2:15:00 AM 5.16 41.288 0.091 6.89 5.22 11.33
11/17/2020 2:30:00 AM 5.16 41.288 0.091 6.89 5.18 11.33
11/17/2020 2:45:00 AM 5.12 41.216 0.091 6.89 5.36 11.3
11/17/2020 3:00:00 AM 5.11 41.198 0.09 6.88 5.21 11.29
11/17/2020 3:15:00 AM 5.08 41.144 0.091 6.88 5.46 11.28
11/17/2020 3:30:00 AM 5.06 41.108 0.09 6.88 5.39 11.26
11/17/2020 3:45:00 AM 5.02 41.036 0.091 6.88 5.58 11.24
11/17/2020 4:00:00 AM 5 41 0.091 6.88 5.47 11.23
11/17/2020 4:15:00 AM 4.99 40.982 0.091 6.88 5.49 11.21
11/17/2020 4:30:00 AM 4.96 40.928 0.091 6.88 5.47 11.19
11/17/2020 4:45:00 AM 4.94 40.892 0.091 6.87 5.78 11.18
11/17/2020 5:00:00 AM 4.91 40.838 0.091 6.87 5.69 11.18
11/17/2020 5:15:00 AM 4.89 40.802 0.091 6.86 5.75 11.16
11/17/2020 5:30:00 AM 4.86 40.748 0.091 6.87 5.87 11.13
11/17/2020 5:45:00 AM 4.84 40.712 0.091 6.86 6.07 11.12
11/17/2020 6:00:00 AM 4.81 40.658 0.091 6.85 5.8 11.1
11/17/2020 6:15:00 AM 4.78 40.604 0.091 6.84 5.72 11.08
11/17/2020 6:30:00 AM 4.75 40.55 0.091 6.84 5.65 11.07
11/17/2020 6:45:00 AM 4.73 40.514 0.091 6.84 5.91 11.06
11/17/2020 7:00:00 AM 4.71 40.478 0.091 6.84 5.87 11.05
11/17/2020 7:15:00 AM 4.69 40.442 0.091 6.84 6.93 11.02
11/17/2020 7:30:00 AM 4.67 40.406 0.091 6.84 6.12 11.01
11/17/2020 7:45:00 AM 4.66 40.388 0.091 6.84 6 11
11/17/2020 8:00:00 AM 4.66 40.388 0.09 6.83 5.9 10.98
11/17/2020 8:15:00 AM 4.65 40.37 0.09 6.83 5.73 10.98
11/17/2020 8:30:00 AM 4.64 40.352 0.09 6.83 5.6 10.97
11/17/2020 8:45:00 AM 4.63 40.334 0.09 6.83 5.59 10.97
11/17/2020 9:00:00 AM 4.62 40.316 0.09 6.83 5.75 10.96
11/17/2020 9:15:00 AM 4.61 40.298 0.09 6.83 5.75 10.96
11/17/2020 9:30:00 AM 4.59 40.262 0.09 6.83 5.92 10.95
11/17/2020 9:45:00 AM 4.58 40.244 0.09 6.83 5.67 10.94
11/17/2020 10:00:00 AM 4.57 40.226 0.09 6.83 5.71 10.95
11/17/2020 10:15:00 AM 4.56 40.208 0.09 6.82 6.12 10.94
11/17/2020 10:30:00 AM 4.55 40.19 0.09 6.82 6.27 10.95
11/17/2020 10:45:00 AM 4.54 40.172 0.09 6.83 5.72 10.95
11/17/2020 11:00:00 AM 4.53 40.154 0.09 6.82 6.09 10.97
11/17/2020 11:15:00 AM 4.53 40.154 0.09 6.83 5.71 10.98
11/17/2020 11:30:00 AM 4.51 40.118 0.09 6.83 5.46 10.99
11/17/2020 11:45:00 AM 4.51 40.118 0.09 6.82 5.8 11
11/17/2020 12:00:00 PM 4.5 40.1 0.09 6.82 5.39 11.02
11/17/2020 12:15:00 PM 4.49 40.082 0.09 6.83 5.14 11.04
11/17/2020 12:30:00 PM 4.46 40.028 0.09 6.83 5.26 11.08
11/17/2020 12:45:00 PM 4.46 40.028 0.09 6.84 5.13 11.1
11/17/2020 1:00:00 PM 4.45 40.01 0.09 6.83 4.99 11.14
11/17/2020 1:15:00 PM 4.45 40.01 0.09 6.84 4.96 11.16
11/17/2020 1:30:00 PM 4.44 39.992 0.09 6.84 4.97 11.19
11/17/2020 1:45:00 PM 4.42 39.956 0.09 6.84 5.02 11.23
11/17/2020 2:00:00 PM 4.42 39.956 0.09 6.84 5.08 11.27
11/17/2020 2:15:00 PM 4.43 39.974 0.09 6.85 4.76 11.31
11/17/2020 2:30:00 PM 4.44 39.992 0.09 6.85 4.83 11.36
11/17/2020 2:45:00 PM 4.44 39.992 0.09 6.86 4.88 11.38
11/17/2020 3:00:00 PM 4.44 39.992 0.09 6.86 5.13 11.44
11/17/2020 3:15:00 PM 4.44 39.992 0.09 6.88 4.81 11.48
11/17/2020 3:30:00 PM 4.42 39.956 0.09 6.89 4.83 11.53
11/17/2020 3:45:00 PM 4.42 39.956 0.09 6.89 4.84 11.57
11/17/2020 4:00:00 PM 4.41 39.938 0.09 6.91 4.68 11.62
11/17/2020 4:15:00 PM 4.39 39.902 0.09 6.92 4.6 11.65
11/17/2020 4:30:00 PM 4.4 39.92 0.09 6.92 4.58 11.68
11/17/2020 4:45:00 PM 4.39 39.902 0.09 6.93 4.7 11.71
11/17/2020 5:00:00 PM 4.37 39.866 0.09 6.93 4.64 11.74
11/17/2020 5:15:00 PM 4.36 39.848 0.09 6.93 4.54 11.76
11/17/2020 5:30:00 PM 4.34 39.812 0.09 6.93 4.57 11.78
11/17/2020 5:45:00 PM 4.32 39.776 0.09 6.93 4.45 11.81
11/17/2020 6:00:00 PM 4.32 39.776 0.09 6.94 4.54 11.83
11/17/2020 6:15:00 PM 4.28 39.704 0.09 6.94 4.79 11.85
11/17/2020 6:30:00 PM 4.28 39.704 0.09 6.94 4.53 11.87
11/17/2020 6:45:00 PM 4.26 39.668 0.09 6.94 4.73 11.88
11/17/2020 7:00:00 PM 4.24 39.632 0.09 6.95 4.72 11.9
11/17/2020 7:15:00 PM 4.22 39.596 0.09 6.96 4.63 11.9
11/17/2020 7:30:00 PM 4.19 39.542 0.09 6.95 4.62 11.92
11/17/2020 7:45:00 PM 4.17 39.506 0.09 6.96 4.72 11.93
11/17/2020 8:00:00 PM 4.14 39.452 0.09 6.96 4.69 11.93
11/17/2020 8:15:00 PM 4.09 39.362 0.09 6.96 4.5 11.94
11/17/2020 8:30:00 PM 4.05 39.29 0.09 6.96 4.72 11.95
11/17/2020 8:45:00 PM 4.01 39.218 0.09 6.96 4.67 11.95
11/17/2020 9:00:00 PM 3.96 39.128 0.09 6.95 4.59 11.96
11/17/2020 9:15:00 PM 3.93 39.074 0.09 6.95 4.6 11.97
11/17/2020 9:30:00 PM 3.9 39.02 0.09 6.96 4.7 11.97
11/17/2020 9:45:00 PM 3.86 38.948 0.09 6.97 4.55 11.98
11/17/2020 10:00:00 PM 3.81 38.858 0.09 6.97 4.67 11.99
11/17/2020 10:15:00 PM 3.78 38.804 0.09 6.96 4.78 11.99
11/17/2020 10:30:00 PM 3.74 38.732 0.09 6.97 4.59 12
11/17/2020 10:45:00 PM 3.72 38.696 0.09 6.97 4.57 12
11/17/2020 11:00:00 PM 3.7 38.66 0.09 6.97 4.59 12.01
11/17/2020 11:15:00 PM 3.65 38.57 0.09 6.97 4.62 12.02
11/17/2020 11:30:00 PM 3.64 38.552 0.09 6.97 4.68 12.02
11/17/2020 11:45:00 PM 3.6 38.48 0.09 6.97 4.79 12.02
11/18/2020 12:00:00 AM 3.57 38.426 0.09 6.97 4.88 12.02
11/18/2020 12:15:00 AM 3.52 38.336 0.09 6.97 4.71 12.02
11/18/2020 12:30:00 AM 3.48 38.264 0.09 6.97 4.88 12.03
11/18/2020 12:45:00 AM 3.43 38.174 0.09 6.97 4.79 12.03
11/18/2020 1:00:00 AM 3.42 38.156 0.09 6.96 4.77 12.03
11/18/2020 1:15:00 AM 3.4 38.12 0.09 6.97 4.72 12.04
11/18/2020 1:30:00 AM 3.35 38.03 0.09 6.97 4.67 12.04
11/18/2020 1:45:00 AM 3.31 37.958 0.09 6.97 4.94 12.05
11/18/2020 2:00:00 AM 3.27 37.886 0.09 6.96 4.89 12.05
11/18/2020 2:15:00 AM 3.24 37.832 0.09 6.96 5.21 12.05
11/18/2020 2:30:00 AM 3.2 37.76 0.09 6.96 5.12 12.06
11/18/2020 2:45:00 AM 3.16 37.688 0.09 6.96 4.95 12.07
11/18/2020 3:00:00 AM 3.14 37.652 0.09 6.96 4.92 12.07
11/18/2020 3:15:00 AM 3.13 37.634 0.09 6.96 4.94 12.06
11/18/2020 3:30:00 AM 3.08 37.544 0.09 6.95 5.01 12.06
11/18/2020 3:45:00 AM 3.01 37.418 0.09 6.96 4.74 12.08
11/18/2020 4:00:00 AM 3.01 37.418 0.09 6.95 5.03 12.07
11/18/2020 4:15:00 AM 2.99 37.382 0.09 6.95 5.09 12.07
11/18/2020 4:30:00 AM 2.93 37.274 0.09 6.94 5.24 12.08
11/18/2020 4:45:00 AM 2.88 37.184 0.09 6.95 4.93 12.08
11/18/2020 5:00:00 AM 2.85 37.13 0.09 6.95 5 12.1
11/18/2020 5:15:00 AM 2.8 37.04 0.09 6.94 5.19 12.1
11/18/2020 5:30:00 AM 2.76 36.968 0.09 6.95 5.05 12.11
11/18/2020 5:45:00 AM 2.72 36.896 0.09 6.94 5.27 12.12
11/18/2020 6:00:00 AM 2.69 36.842 0.09 6.94 5.25 12.12
11/18/2020 6:15:00 AM 2.65 36.77 0.09 6.94 4.91 12.13
11/18/2020 6:30:00 AM 2.6 36.68 0.09 6.94 5.09 12.14
11/18/2020 6:45:00 AM 2.51 36.518 0.09 6.94 5.17 12.17
11/18/2020 7:00:00 AM 2.46 36.428 0.09 6.94 4.94 12.19
11/18/2020 7:15:00 AM 2.42 36.356 0.09 6.94 4.93 12.21
11/18/2020 7:30:00 AM 2.34 36.212 0.09 6.94 5.12 12.24
11/18/2020 7:45:00 AM 2.28 36.104 0.09 6.93 4.84 12.26
11/18/2020 8:00:00 AM 2.23 36.014 0.09 6.93 4.89 12.28
11/18/2020 8:15:00 AM 2.2 35.96 0.09 6.94 4.74 12.3
11/18/2020 8:30:00 AM 2.15 35.87 0.09 6.94 4.79 12.32
11/18/2020 8:45:00 AM 2.15 35.87 0.09 6.94 4.56 12.33
11/18/2020 9:00:00 AM 2.11 35.798 0.09 6.94 4.64 12.35
11/18/2020 9:15:00 AM 2.09 35.762 0.09 6.94 4.67 12.37
11/18/2020 9:30:00 AM 2.02 35.636 0.09 6.94 4.72 12.41
11/18/2020 9:45:00 AM 1.98 35.564 0.089 6.94 4.68 12.44
11/18/2020 10:00:00 AM 2 35.6 0.09 6.94 4.55 12.45
11/18/2020 10:15:00 AM 1.96 35.528 0.089 6.94 4.36 12.49
11/18/2020 10:30:00 AM 1.92 35.456 0.089 6.95 4.3 12.53
11/18/2020 10:45:00 AM 1.96 35.528 0.089 6.95 4.45 12.54
11/18/2020 11:00:00 AM 1.94 35.492 0.089 6.96 4.34 12.57
11/18/2020 11:15:00 AM 1.91 35.438 0.089 6.97 4.34 12.61
11/18/2020 11:30:00 AM 1.9 35.42 0.089 6.96 4.42 12.63
11/18/2020 11:45:00 AM 1.86 35.348 0.089 6.96 4.34 12.68
11/18/2020 12:00:00 PM 1.9 35.42 0.089 6.97 4.41 12.7
11/18/2020 12:15:00 PM 1.92 35.456 0.089 6.97 4.33 12.73
11/18/2020 12:30:00 PM 1.87 35.366 0.089 6.97 4.19 12.77
11/18/2020 12:45:00 PM 1.87 35.366 0.089 6.98 4.26 12.8
11/18/2020 1:00:00 PM 1.85 35.33 0.089 6.98 4.3 12.85
11/18/2020 1:15:00 PM 1.86 35.348 0.089 6.98 4.23 12.87
11/18/2020 1:30:00 PM 1.86 35.348 0.089 6.98 4.27 12.89
11/18/2020 1:45:00 PM 1.84 35.312 0.089 6.99 4.11 12.92
11/18/2020 2:00:00 PM 1.84 35.312 0.089 6.98 4.09 12.95
11/18/2020 2:15:00 PM 1.85 35.33 0.089 6.99 4.39 12.98
11/18/2020 2:30:00 PM 1.86 35.348 0.089 6.99 4.15 13
11/18/2020 2:45:00 PM 1.86 35.348 0.089 7.01 4.1 13.03
11/18/2020 3:00:00 PM 1.88 35.384 0.089 7.01 4.33 13.06
11/18/2020 3:15:00 PM 1.89 35.402 0.089 7.01 4.17 13.08
11/18/2020 3:30:00 PM 1.89 35.402 0.089 7 4.18 13.1
11/18/2020 3:45:00 PM 1.9 35.42 0.089 7.01 3.99 13.12
11/18/2020 4:00:00 PM 1.88 35.384 0.089 7.02 4.12 13.14
11/18/2020 4:15:00 PM 1.88 35.384 0.089 7.03 4.01 13.16
11/18/2020 4:30:00 PM 1.87 35.366 0.089 7.03 4.03 13.18
11/18/2020 4:45:00 PM 1.88 35.384 0.089 7.03 4.21 13.2
11/18/2020 5:00:00 PM 1.88 35.384 0.089 7.03 3.88 13.21
11/18/2020 5:15:00 PM 1.87 35.366 0.089 7.03 3.92 13.23
11/18/2020 5:30:00 PM 1.88 35.384 0.089 7.03 3.9 13.23
11/18/2020 5:45:00 PM 1.88 35.384 0.089 7.04 3.88 13.23
11/18/2020 6:00:00 PM 1.88 35.384 0.089 7.04 4.01 13.25
11/18/2020 6:15:00 PM 1.86 35.348 0.089 7.04 3.93 13.27
11/18/2020 6:30:00 PM 1.86 35.348 0.089 7.04 4.16 13.27
11/18/2020 6:45:00 PM 1.85 35.33 0.089 7.04 3.97 13.28
11/18/2020 7:00:00 PM 1.81 35.258 0.089 7.04 4.05 13.29
11/18/2020 7:15:00 PM 1.78 35.204 0.089 7.04 3.97 13.31
11/18/2020 7:30:00 PM 1.75 35.15 0.089 7.04 4.1 13.32
11/18/2020 7:45:00 PM 1.73 35.114 0.089 7.03 3.87 13.32
11/18/2020 8:00:00 PM 1.71 35.078 0.089 7.03 3.99 13.32
11/18/2020 8:15:00 PM 1.72 35.096 0.089 7.02 3.88 13.33
11/18/2020 8:30:00 PM 1.7 35.06 0.089 7.02 3.76 13.33
11/18/2020 8:45:00 PM 1.65 34.97 0.089 7.02 3.82 13.33
11/18/2020 9:00:00 PM 1.59 34.862 0.089 7.01 3.77 13.34
11/18/2020 9:15:00 PM 1.59 34.862 0.089 7.01 3.76 13.33
11/18/2020 9:30:00 PM 1.56 34.808 0.089 7 3.91 13.33
11/18/2020 9:45:00 PM 1.56 34.808 0.089 7 3.86 13.32
11/18/2020 10:00:00 PM 1.55 34.79 0.089 7 3.88 13.31
11/18/2020 10:15:00 PM 1.52 34.736 0.089 7 4.06 13.31
11/18/2020 10:30:00 PM 1.51 34.718 0.089 6.99 4.03 13.31
11/18/2020 10:45:00 PM 1.49 34.682 0.089 6.99 4.19 13.31
11/18/2020 11:00:00 PM 1.46 34.628 0.089 6.98 4 13.31
11/18/2020 11:15:00 PM 1.43 34.574 0.089 6.99 4.11 13.31
11/18/2020 11:30:00 PM 1.41 34.538 0.089 6.98 4.09 13.31
11/18/2020 11:45:00 PM 1.4 34.52 0.089 6.97 4.09 13.3
11/19/2020 12:00:00 AM 1.37 34.466 0.089 6.98 4.11 13.31
11/19/2020 12:15:00 AM 1.35 34.43 0.089 6.97 4.12 13.31
11/19/2020 12:30:00 AM 1.36 34.448 0.089 6.97 4.13 13.31
11/19/2020 12:45:00 AM 1.33 34.394 0.089 6.97 4.08 13.31
11/19/2020 1:00:00 AM 1.31 34.358 0.089 6.96 4.08 13.3
11/19/2020 1:15:00 AM 1.31 34.358 0.089 6.96 4.13 13.3
11/19/2020 1:30:00 AM 1.29 34.322 0.089 6.96 4.17 13.3
11/19/2020 1:45:00 AM 1.31 34.358 0.089 6.95 4.15 13.3
11/19/2020 2:00:00 AM 1.27 34.286 0.089 6.96 4.36 13.3
11/19/2020 2:15:00 AM 1.26 34.268 0.089 6.95 4.35 13.3
11/19/2020 2:30:00 AM 1.26 34.268 0.089 6.95 4.2 13.29
11/19/2020 2:45:00 AM 1.26 34.268 0.089 6.94 4.23 13.29
11/19/2020 3:00:00 AM 1.27 34.286 0.089 6.94 4.37 13.28
11/19/2020 3:15:00 AM 1.28 34.304 0.089 6.95 4.28 13.27
11/19/2020 3:30:00 AM 1.28 34.304 0.089 6.94 4.41 13.26
11/19/2020 3:45:00 AM 1.27 34.286 0.089 6.94 4.4 13.26
11/19/2020 4:00:00 AM 1.28 34.304 0.089 6.94 4.49 13.24
11/19/2020 4:15:00 AM 1.26 34.268 0.089 6.93 4.55 13.24
11/19/2020 4:30:00 AM 1.26 34.268 0.089 6.93 4.62 13.23
11/19/2020 4:45:00 AM 1.27 34.286 0.089 6.93 4.74 13.22
11/19/2020 5:00:00 AM 1.26 34.268 0.089 6.93 4.41 13.21
11/19/2020 5:15:00 AM 1.25 34.25 0.089 6.93 4.45 13.2
11/19/2020 5:30:00 AM 1.25 34.25 0.089 6.93 4.96 13.19
11/19/2020 5:45:00 AM 1.25 34.25 0.089 6.92 4.43 13.18
11/19/2020 6:00:00 AM 1.25 34.25 0.089 6.92 4.63 13.17
11/19/2020 6:15:00 AM 1.23 34.214 0.089 6.92 4.45 13.17
11/19/2020 6:30:00 AM 1.24 34.232 0.089 6.91 4.47 13.16
11/19/2020 6:45:00 AM 1.24 34.232 0.089 6.92 4.57 13.15
11/19/2020 7:00:00 AM 1.25 34.25 0.089 6.91 4.41 13.13
11/19/2020 7:15:00 AM 1.23 34.214 0.089 6.91 4.44 13.13
11/19/2020 7:30:00 AM 1.23 34.214 0.089 6.9 4.72 13.12
11/19/2020 7:45:00 AM 1.23 34.214 0.089 6.9 4.5 13.11
11/19/2020 8:00:00 AM 1.24 34.232 0.089 6.91 4.37 13.1
11/19/2020 8:15:00 AM 1.24 34.232 0.089 6.9 4.64 13.11
11/19/2020 8:30:00 AM 1.24 34.232 0.089 6.9 4.44 13.1
11/19/2020 8:45:00 AM 1.24 34.232 0.089 6.91 4.54 13.1
11/19/2020 9:00:00 AM 1.24 34.232 0.089 6.9 4.52 13.1
11/19/2020 9:15:00 AM 1.26 34.268 0.089 6.91 4.42 13.1
11/19/2020 9:30:00 AM 1.27 34.286 0.09 6.9 4.75 13.09
11/19/2020 9:45:00 AM 1.28 34.304 0.09 6.9 4.71 13.09
11/19/2020 10:00:00 AM 1.29 34.322